<?xml version="1.0" encoding="UTF-8" standalone="no" ?>
<gpx xmlns="http://www.topografix.com/GPX/1/1" xmlns:xsi="http://www.w3.org/2001/XMLSchema-instance" xsi:schemaLocation="http://www.topografix.com/GPX/1/1 http://www.topografix.com/GPX/1/1/gpx.xsd" version="1.1" creator="VisuGPX - https://www.visugpx.com">
  <metadata>
    <name>Crotenay,La Roche du Midi</name>
  </metadata>
  <trk>
    <name><![CDATA[Crotenay,La Roche du Midi_1]]></name>
    <trkseg>
      <trkpt lat="46.75759" lon="5.80354">
        <ele>505.2</ele>
        <time>2020-12-10T12:38:04Z</time>
      </trkpt>
      <trkpt lat="46.75761" lon="5.80347">
        <ele>507.9</ele>
        <time>2020-12-10T12:38:15Z</time>
      </trkpt>
      <trkpt lat="46.75765" lon="5.80346">
        <ele>510.8</ele>
        <time>2020-12-10T12:40:30Z</time>
      </trkpt>
      <trkpt lat="46.7577" lon="5.80348">
        <ele>513.1</ele>
        <time>2020-12-10T12:41:07Z</time>
      </trkpt>
      <trkpt lat="46.75775" lon="5.8035">
        <ele>512.5</ele>
        <time>2020-12-10T12:41:27Z</time>
      </trkpt>
      <trkpt lat="46.75779" lon="5.80349">
        <ele>512.4</ele>
        <time>2020-12-10T12:41:32Z</time>
      </trkpt>
      <trkpt lat="46.75785" lon="5.80348">
        <ele>512.3</ele>
        <time>2020-12-10T12:41:37Z</time>
      </trkpt>
      <trkpt lat="46.7579" lon="5.80346">
        <ele>512.6</ele>
        <time>2020-12-10T12:41:42Z</time>
      </trkpt>
      <trkpt lat="46.75794" lon="5.80345">
        <ele>512.6</ele>
        <time>2020-12-10T12:41:47Z</time>
      </trkpt>
      <trkpt lat="46.75799" lon="5.80344">
        <ele>512.5</ele>
        <time>2020-12-10T12:41:53Z</time>
      </trkpt>
      <trkpt lat="46.75804" lon="5.80345">
        <ele>512.4</ele>
        <time>2020-12-10T12:41:58Z</time>
      </trkpt>
      <trkpt lat="46.75809" lon="5.80347">
        <ele>512.6</ele>
        <time>2020-12-10T12:42:03Z</time>
      </trkpt>
      <trkpt lat="46.75815" lon="5.8035">
        <ele>512.8</ele>
        <time>2020-12-10T12:42:08Z</time>
      </trkpt>
      <trkpt lat="46.7582" lon="5.80352">
        <ele>512.8</ele>
        <time>2020-12-10T12:42:14Z</time>
      </trkpt>
      <trkpt lat="46.75824" lon="5.80355">
        <ele>512.8</ele>
        <time>2020-12-10T12:42:19Z</time>
      </trkpt>
      <trkpt lat="46.75829" lon="5.80359">
        <ele>512.9</ele>
        <time>2020-12-10T12:42:24Z</time>
      </trkpt>
      <trkpt lat="46.75833" lon="5.80363">
        <ele>511.5</ele>
        <time>2020-12-10T12:42:30Z</time>
      </trkpt>
      <trkpt lat="46.75838" lon="5.80366">
        <ele>510.4</ele>
        <time>2020-12-10T12:42:35Z</time>
      </trkpt>
      <trkpt lat="46.75843" lon="5.80369">
        <ele>509.4</ele>
        <time>2020-12-10T12:42:40Z</time>
      </trkpt>
      <trkpt lat="46.75848" lon="5.80372">
        <ele>508.8</ele>
        <time>2020-12-10T12:42:45Z</time>
      </trkpt>
      <trkpt lat="46.75852" lon="5.80375">
        <ele>508.3</ele>
        <time>2020-12-10T12:42:50Z</time>
      </trkpt>
      <trkpt lat="46.75857" lon="5.80378">
        <ele>507.6</ele>
        <time>2020-12-10T12:42:56Z</time>
      </trkpt>
      <trkpt lat="46.75861" lon="5.80381">
        <ele>507.1</ele>
        <time>2020-12-10T12:43:01Z</time>
      </trkpt>
      <trkpt lat="46.75865" lon="5.80384">
        <ele>506.7</ele>
        <time>2020-12-10T12:43:06Z</time>
      </trkpt>
      <trkpt lat="46.7587" lon="5.80387">
        <ele>506.5</ele>
        <time>2020-12-10T12:43:11Z</time>
      </trkpt>
      <trkpt lat="46.75875" lon="5.80389">
        <ele>506.5</ele>
        <time>2020-12-10T12:43:16Z</time>
      </trkpt>
      <trkpt lat="46.75879" lon="5.80392">
        <ele>506.6</ele>
        <time>2020-12-10T12:43:21Z</time>
      </trkpt>
      <trkpt lat="46.75884" lon="5.80394">
        <ele>506.9</ele>
        <time>2020-12-10T12:43:26Z</time>
      </trkpt>
      <trkpt lat="46.75888" lon="5.80397">
        <ele>507.5</ele>
        <time>2020-12-10T12:43:31Z</time>
      </trkpt>
      <trkpt lat="46.75893" lon="5.804">
        <ele>508.2</ele>
        <time>2020-12-10T12:43:36Z</time>
      </trkpt>
      <trkpt lat="46.75898" lon="5.80404">
        <ele>508.8</ele>
        <time>2020-12-10T12:43:41Z</time>
      </trkpt>
      <trkpt lat="46.75902" lon="5.80407">
        <ele>509.1</ele>
        <time>2020-12-10T12:43:46Z</time>
      </trkpt>
      <trkpt lat="46.75906" lon="5.80411">
        <ele>508.5</ele>
        <time>2020-12-10T12:43:52Z</time>
      </trkpt>
      <trkpt lat="46.75911" lon="5.80415">
        <ele>507.4</ele>
        <time>2020-12-10T12:43:57Z</time>
      </trkpt>
      <trkpt lat="46.75916" lon="5.80418">
        <ele>506.9</ele>
        <time>2020-12-10T12:44:02Z</time>
      </trkpt>
      <trkpt lat="46.75921" lon="5.80421">
        <ele>506.7</ele>
        <time>2020-12-10T12:44:07Z</time>
      </trkpt>
      <trkpt lat="46.75927" lon="5.80424">
        <ele>507</ele>
        <time>2020-12-10T12:44:12Z</time>
      </trkpt>
      <trkpt lat="46.75932" lon="5.80426">
        <ele>507.1</ele>
        <time>2020-12-10T12:44:17Z</time>
      </trkpt>
      <trkpt lat="46.75936" lon="5.8043">
        <ele>507.5</ele>
        <time>2020-12-10T12:44:22Z</time>
      </trkpt>
      <trkpt lat="46.7594" lon="5.80434">
        <ele>507.9</ele>
        <time>2020-12-10T12:44:27Z</time>
      </trkpt>
      <trkpt lat="46.75946" lon="5.80439">
        <ele>508.4</ele>
        <time>2020-12-10T12:44:32Z</time>
      </trkpt>
      <trkpt lat="46.75951" lon="5.80444">
        <ele>509.4</ele>
        <time>2020-12-10T12:44:37Z</time>
      </trkpt>
      <trkpt lat="46.75956" lon="5.80448">
        <ele>510.6</ele>
        <time>2020-12-10T12:44:42Z</time>
      </trkpt>
      <trkpt lat="46.7596" lon="5.80452">
        <ele>511.4</ele>
        <time>2020-12-10T12:44:47Z</time>
      </trkpt>
      <trkpt lat="46.75964" lon="5.80456">
        <ele>511.9</ele>
        <time>2020-12-10T12:44:52Z</time>
      </trkpt>
      <trkpt lat="46.75967" lon="5.80461">
        <ele>512.4</ele>
        <time>2020-12-10T12:44:57Z</time>
      </trkpt>
      <trkpt lat="46.75971" lon="5.80465">
        <ele>513</ele>
        <time>2020-12-10T12:45:02Z</time>
      </trkpt>
      <trkpt lat="46.75974" lon="5.8047">
        <ele>513.4</ele>
        <time>2020-12-10T12:45:07Z</time>
      </trkpt>
      <trkpt lat="46.75978" lon="5.80476">
        <ele>513.8</ele>
        <time>2020-12-10T12:45:12Z</time>
      </trkpt>
      <trkpt lat="46.75981" lon="5.80481">
        <ele>514</ele>
        <time>2020-12-10T12:45:17Z</time>
      </trkpt>
      <trkpt lat="46.75985" lon="5.80486">
        <ele>513.7</ele>
        <time>2020-12-10T12:45:22Z</time>
      </trkpt>
      <trkpt lat="46.75989" lon="5.80492">
        <ele>512.9</ele>
        <time>2020-12-10T12:45:27Z</time>
      </trkpt>
      <trkpt lat="46.75993" lon="5.80497">
        <ele>511.8</ele>
        <time>2020-12-10T12:45:32Z</time>
      </trkpt>
      <trkpt lat="46.75997" lon="5.80502">
        <ele>510.4</ele>
        <time>2020-12-10T12:45:38Z</time>
      </trkpt>
      <trkpt lat="46.76002" lon="5.80507">
        <ele>510.3</ele>
        <time>2020-12-10T12:45:43Z</time>
      </trkpt>
      <trkpt lat="46.76006" lon="5.80512">
        <ele>510.3</ele>
        <time>2020-12-10T12:45:49Z</time>
      </trkpt>
      <trkpt lat="46.76019" lon="5.80516">
        <ele>513.8</ele>
        <time>2020-12-10T12:45:54Z</time>
      </trkpt>
      <trkpt lat="46.76024" lon="5.8052">
        <ele>516.4</ele>
        <time>2020-12-10T12:45:59Z</time>
      </trkpt>
      <trkpt lat="46.76027" lon="5.80526">
        <ele>518</ele>
        <time>2020-12-10T12:46:06Z</time>
      </trkpt>
      <trkpt lat="46.76031" lon="5.80531">
        <ele>518.4</ele>
        <time>2020-12-10T12:46:11Z</time>
      </trkpt>
      <trkpt lat="46.76035" lon="5.80537">
        <ele>518.4</ele>
        <time>2020-12-10T12:46:16Z</time>
      </trkpt>
      <trkpt lat="46.76039" lon="5.80542">
        <ele>518.2</ele>
        <time>2020-12-10T12:46:21Z</time>
      </trkpt>
      <trkpt lat="46.76044" lon="5.80547">
        <ele>517.9</ele>
        <time>2020-12-10T12:46:26Z</time>
      </trkpt>
      <trkpt lat="46.76047" lon="5.80551">
        <ele>517</ele>
        <time>2020-12-10T12:46:31Z</time>
      </trkpt>
      <trkpt lat="46.76051" lon="5.80556">
        <ele>515.3</ele>
        <time>2020-12-10T12:46:37Z</time>
      </trkpt>
      <trkpt lat="46.76055" lon="5.80561">
        <ele>514</ele>
        <time>2020-12-10T12:46:42Z</time>
      </trkpt>
      <trkpt lat="46.76058" lon="5.80565">
        <ele>512.8</ele>
        <time>2020-12-10T12:46:48Z</time>
      </trkpt>
      <trkpt lat="46.76062" lon="5.8057">
        <ele>511.4</ele>
        <time>2020-12-10T12:46:55Z</time>
      </trkpt>
      <trkpt lat="46.76067" lon="5.80573">
        <ele>511.5</ele>
        <time>2020-12-10T12:47:00Z</time>
      </trkpt>
      <trkpt lat="46.76072" lon="5.80576">
        <ele>513.1</ele>
        <time>2020-12-10T12:47:05Z</time>
      </trkpt>
      <trkpt lat="46.76076" lon="5.8058">
        <ele>515.7</ele>
        <time>2020-12-10T12:47:11Z</time>
      </trkpt>
      <trkpt lat="46.7608" lon="5.80585">
        <ele>515.8</ele>
        <time>2020-12-10T12:47:17Z</time>
      </trkpt>
      <trkpt lat="46.76085" lon="5.80587">
        <ele>510.3</ele>
        <time>2020-12-10T12:47:26Z</time>
      </trkpt>
      <trkpt lat="46.76089" lon="5.80592">
        <ele>506.7</ele>
        <time>2020-12-10T12:47:34Z</time>
      </trkpt>
      <trkpt lat="46.76099" lon="5.80596">
        <ele>508.1</ele>
        <time>2020-12-10T12:47:39Z</time>
      </trkpt>
      <trkpt lat="46.76105" lon="5.80599">
        <ele>509.4</ele>
        <time>2020-12-10T12:47:44Z</time>
      </trkpt>
      <trkpt lat="46.76111" lon="5.80603">
        <ele>511.2</ele>
        <time>2020-12-10T12:47:49Z</time>
      </trkpt>
      <trkpt lat="46.76117" lon="5.80607">
        <ele>512</ele>
        <time>2020-12-10T12:47:54Z</time>
      </trkpt>
      <trkpt lat="46.76123" lon="5.8061">
        <ele>514.4</ele>
        <time>2020-12-10T12:47:59Z</time>
      </trkpt>
      <trkpt lat="46.76127" lon="5.80614">
        <ele>516.4</ele>
        <time>2020-12-10T12:48:04Z</time>
      </trkpt>
      <trkpt lat="46.76132" lon="5.80615">
        <ele>518.4</ele>
        <time>2020-12-10T12:48:09Z</time>
      </trkpt>
      <trkpt lat="46.76136" lon="5.80617">
        <ele>519.9</ele>
        <time>2020-12-10T12:48:14Z</time>
      </trkpt>
      <trkpt lat="46.76141" lon="5.80622">
        <ele>521.3</ele>
        <time>2020-12-10T12:48:19Z</time>
      </trkpt>
      <trkpt lat="46.76144" lon="5.80626">
        <ele>521.3</ele>
        <time>2020-12-10T12:48:25Z</time>
      </trkpt>
      <trkpt lat="46.76149" lon="5.8063">
        <ele>520.6</ele>
        <time>2020-12-10T12:48:30Z</time>
      </trkpt>
      <trkpt lat="46.76152" lon="5.80635">
        <ele>517.1</ele>
        <time>2020-12-10T12:48:37Z</time>
      </trkpt>
      <trkpt lat="46.76157" lon="5.8064">
        <ele>515.5</ele>
        <time>2020-12-10T12:48:42Z</time>
      </trkpt>
      <trkpt lat="46.76161" lon="5.80644">
        <ele>514.3</ele>
        <time>2020-12-10T12:48:47Z</time>
      </trkpt>
      <trkpt lat="46.76167" lon="5.80649">
        <ele>513.6</ele>
        <time>2020-12-10T12:48:52Z</time>
      </trkpt>
      <trkpt lat="46.76171" lon="5.80654">
        <ele>513.1</ele>
        <time>2020-12-10T12:48:57Z</time>
      </trkpt>
      <trkpt lat="46.76176" lon="5.80658">
        <ele>511.6</ele>
        <time>2020-12-10T12:49:04Z</time>
      </trkpt>
      <trkpt lat="46.76181" lon="5.8066">
        <ele>510.3</ele>
        <time>2020-12-10T12:49:09Z</time>
      </trkpt>
      <trkpt lat="46.76185" lon="5.80661">
        <ele>509.2</ele>
        <time>2020-12-10T12:49:14Z</time>
      </trkpt>
      <trkpt lat="46.7619" lon="5.80663">
        <ele>508.5</ele>
        <time>2020-12-10T12:49:19Z</time>
      </trkpt>
      <trkpt lat="46.76195" lon="5.80664">
        <ele>508.3</ele>
        <time>2020-12-10T12:49:24Z</time>
      </trkpt>
      <trkpt lat="46.762" lon="5.80664">
        <ele>508.3</ele>
        <time>2020-12-10T12:49:29Z</time>
      </trkpt>
      <trkpt lat="46.76204" lon="5.80662">
        <ele>508.7</ele>
        <time>2020-12-10T12:49:34Z</time>
      </trkpt>
      <trkpt lat="46.7621" lon="5.80661">
        <ele>509.2</ele>
        <time>2020-12-10T12:49:39Z</time>
      </trkpt>
      <trkpt lat="46.76215" lon="5.80661">
        <ele>509.5</ele>
        <time>2020-12-10T12:49:44Z</time>
      </trkpt>
      <trkpt lat="46.7622" lon="5.8066">
        <ele>509.9</ele>
        <time>2020-12-10T12:49:49Z</time>
      </trkpt>
      <trkpt lat="46.76225" lon="5.80659">
        <ele>510.5</ele>
        <time>2020-12-10T12:49:54Z</time>
      </trkpt>
      <trkpt lat="46.7623" lon="5.80658">
        <ele>511</ele>
        <time>2020-12-10T12:49:59Z</time>
      </trkpt>
      <trkpt lat="46.76235" lon="5.80655">
        <ele>511.3</ele>
        <time>2020-12-10T12:50:05Z</time>
      </trkpt>
      <trkpt lat="46.7624" lon="5.80654">
        <ele>511</ele>
        <time>2020-12-10T12:50:11Z</time>
      </trkpt>
      <trkpt lat="46.76245" lon="5.80652">
        <ele>510.8</ele>
        <time>2020-12-10T12:50:17Z</time>
      </trkpt>
      <trkpt lat="46.76249" lon="5.8065">
        <ele>510</ele>
        <time>2020-12-10T12:50:23Z</time>
      </trkpt>
      <trkpt lat="46.76252" lon="5.80644">
        <ele>508.8</ele>
        <time>2020-12-10T12:50:30Z</time>
      </trkpt>
      <trkpt lat="46.76256" lon="5.8064">
        <ele>508.4</ele>
        <time>2020-12-10T12:50:35Z</time>
      </trkpt>
      <trkpt lat="46.7626" lon="5.80635">
        <ele>508.7</ele>
        <time>2020-12-10T12:50:40Z</time>
      </trkpt>
      <trkpt lat="46.76264" lon="5.8063">
        <ele>509.5</ele>
        <time>2020-12-10T12:50:47Z</time>
      </trkpt>
      <trkpt lat="46.76269" lon="5.80625">
        <ele>510.5</ele>
        <time>2020-12-10T12:50:52Z</time>
      </trkpt>
      <trkpt lat="46.76274" lon="5.80617">
        <ele>512.1</ele>
        <time>2020-12-10T12:50:57Z</time>
      </trkpt>
      <trkpt lat="46.7628" lon="5.80613">
        <ele>513.8</ele>
        <time>2020-12-10T12:51:02Z</time>
      </trkpt>
      <trkpt lat="46.76285" lon="5.80609">
        <ele>515.2</ele>
        <time>2020-12-10T12:51:07Z</time>
      </trkpt>
      <trkpt lat="46.7629" lon="5.80606">
        <ele>517</ele>
        <time>2020-12-10T12:51:12Z</time>
      </trkpt>
      <trkpt lat="46.76295" lon="5.80603">
        <ele>518.4</ele>
        <time>2020-12-10T12:51:17Z</time>
      </trkpt>
      <trkpt lat="46.763" lon="5.80601">
        <ele>519.7</ele>
        <time>2020-12-10T12:51:22Z</time>
      </trkpt>
      <trkpt lat="46.76305" lon="5.80599">
        <ele>521.3</ele>
        <time>2020-12-10T12:51:27Z</time>
      </trkpt>
      <trkpt lat="46.7631" lon="5.80597">
        <ele>522.8</ele>
        <time>2020-12-10T12:51:32Z</time>
      </trkpt>
      <trkpt lat="46.76316" lon="5.80596">
        <ele>524</ele>
        <time>2020-12-10T12:51:37Z</time>
      </trkpt>
      <trkpt lat="46.76321" lon="5.80595">
        <ele>525.2</ele>
        <time>2020-12-10T12:51:42Z</time>
      </trkpt>
      <trkpt lat="46.76327" lon="5.80594">
        <ele>526.3</ele>
        <time>2020-12-10T12:51:48Z</time>
      </trkpt>
      <trkpt lat="46.76332" lon="5.80593">
        <ele>527.2</ele>
        <time>2020-12-10T12:51:54Z</time>
      </trkpt>
      <trkpt lat="46.76337" lon="5.80592">
        <ele>527.3</ele>
        <time>2020-12-10T12:52:00Z</time>
      </trkpt>
      <trkpt lat="46.76342" lon="5.80591">
        <ele>527.4</ele>
        <time>2020-12-10T12:52:05Z</time>
      </trkpt>
      <trkpt lat="46.76347" lon="5.8059">
        <ele>524.9</ele>
        <time>2020-12-10T12:52:14Z</time>
      </trkpt>
      <trkpt lat="46.76351" lon="5.80587">
        <ele>522.7</ele>
        <time>2020-12-10T12:52:20Z</time>
      </trkpt>
      <trkpt lat="46.76356" lon="5.80585">
        <ele>520.9</ele>
        <time>2020-12-10T12:52:26Z</time>
      </trkpt>
      <trkpt lat="46.76361" lon="5.80583">
        <ele>519.8</ele>
        <time>2020-12-10T12:52:31Z</time>
      </trkpt>
      <trkpt lat="46.76366" lon="5.80581">
        <ele>519.8</ele>
        <time>2020-12-10T12:52:36Z</time>
      </trkpt>
      <trkpt lat="46.76371" lon="5.80577">
        <ele>520.4</ele>
        <time>2020-12-10T12:52:43Z</time>
      </trkpt>
      <trkpt lat="46.76375" lon="5.80579">
        <ele>528.2</ele>
        <time>2020-12-10T12:53:52Z</time>
      </trkpt>
      <trkpt lat="46.76379" lon="5.80576">
        <ele>529</ele>
        <time>2020-12-10T12:54:23Z</time>
      </trkpt>
      <trkpt lat="46.76385" lon="5.80578">
        <ele>528.8</ele>
        <time>2020-12-10T12:54:28Z</time>
      </trkpt>
      <trkpt lat="46.7639" lon="5.8058">
        <ele>528.7</ele>
        <time>2020-12-10T12:54:33Z</time>
      </trkpt>
      <trkpt lat="46.76394" lon="5.80583">
        <ele>528.3</ele>
        <time>2020-12-10T12:54:40Z</time>
      </trkpt>
      <trkpt lat="46.76399" lon="5.80586">
        <ele>527.8</ele>
        <time>2020-12-10T12:54:46Z</time>
      </trkpt>
      <trkpt lat="46.76403" lon="5.80589">
        <ele>527.2</ele>
        <time>2020-12-10T12:54:51Z</time>
      </trkpt>
      <trkpt lat="46.76407" lon="5.80594">
        <ele>526.6</ele>
        <time>2020-12-10T12:54:56Z</time>
      </trkpt>
      <trkpt lat="46.76411" lon="5.80599">
        <ele>525.7</ele>
        <time>2020-12-10T12:55:02Z</time>
      </trkpt>
      <trkpt lat="46.76415" lon="5.80604">
        <ele>524.9</ele>
        <time>2020-12-10T12:55:07Z</time>
      </trkpt>
      <trkpt lat="46.76418" lon="5.8061">
        <ele>524.5</ele>
        <time>2020-12-10T12:55:12Z</time>
      </trkpt>
      <trkpt lat="46.76422" lon="5.80613">
        <ele>524</ele>
        <time>2020-12-10T12:55:17Z</time>
      </trkpt>
      <trkpt lat="46.76427" lon="5.80616">
        <ele>523.4</ele>
        <time>2020-12-10T12:55:22Z</time>
      </trkpt>
      <trkpt lat="46.76431" lon="5.80619">
        <ele>522.6</ele>
        <time>2020-12-10T12:55:27Z</time>
      </trkpt>
      <trkpt lat="46.76435" lon="5.80623">
        <ele>521.6</ele>
        <time>2020-12-10T12:55:32Z</time>
      </trkpt>
      <trkpt lat="46.76439" lon="5.80627">
        <ele>520.8</ele>
        <time>2020-12-10T12:55:37Z</time>
      </trkpt>
      <trkpt lat="46.76443" lon="5.80631">
        <ele>520</ele>
        <time>2020-12-10T12:55:43Z</time>
      </trkpt>
      <trkpt lat="46.76446" lon="5.80639">
        <ele>519.6</ele>
        <time>2020-12-10T12:55:48Z</time>
      </trkpt>
      <trkpt lat="46.76449" lon="5.80645">
        <ele>519.1</ele>
        <time>2020-12-10T12:55:53Z</time>
      </trkpt>
      <trkpt lat="46.76452" lon="5.80652">
        <ele>518.4</ele>
        <time>2020-12-10T12:55:58Z</time>
      </trkpt>
      <trkpt lat="46.76455" lon="5.80657">
        <ele>517.8</ele>
        <time>2020-12-10T12:56:03Z</time>
      </trkpt>
      <trkpt lat="46.76458" lon="5.80662">
        <ele>517.1</ele>
        <time>2020-12-10T12:56:08Z</time>
      </trkpt>
      <trkpt lat="46.76462" lon="5.80665">
        <ele>516.6</ele>
        <time>2020-12-10T12:56:14Z</time>
      </trkpt>
      <trkpt lat="46.76466" lon="5.80669">
        <ele>516.4</ele>
        <time>2020-12-10T12:56:19Z</time>
      </trkpt>
      <trkpt lat="46.7647" lon="5.80672">
        <ele>516.3</ele>
        <time>2020-12-10T12:56:24Z</time>
      </trkpt>
      <trkpt lat="46.76474" lon="5.80676">
        <ele>516.4</ele>
        <time>2020-12-10T12:56:29Z</time>
      </trkpt>
      <trkpt lat="46.76479" lon="5.80682">
        <ele>517.1</ele>
        <time>2020-12-10T12:56:34Z</time>
      </trkpt>
      <trkpt lat="46.76484" lon="5.80687">
        <ele>518.1</ele>
        <time>2020-12-10T12:56:39Z</time>
      </trkpt>
      <trkpt lat="46.76489" lon="5.80692">
        <ele>519.6</ele>
        <time>2020-12-10T12:56:44Z</time>
      </trkpt>
      <trkpt lat="46.76494" lon="5.80697">
        <ele>521.3</ele>
        <time>2020-12-10T12:56:49Z</time>
      </trkpt>
      <trkpt lat="46.76499" lon="5.80701">
        <ele>522.7</ele>
        <time>2020-12-10T12:56:54Z</time>
      </trkpt>
      <trkpt lat="46.76503" lon="5.80705">
        <ele>523.7</ele>
        <time>2020-12-10T12:56:59Z</time>
      </trkpt>
      <trkpt lat="46.76507" lon="5.8071">
        <ele>524.3</ele>
        <time>2020-12-10T12:57:04Z</time>
      </trkpt>
      <trkpt lat="46.7651" lon="5.80715">
        <ele>524.5</ele>
        <time>2020-12-10T12:57:09Z</time>
      </trkpt>
      <trkpt lat="46.76514" lon="5.80718">
        <ele>524.4</ele>
        <time>2020-12-10T12:57:15Z</time>
      </trkpt>
      <trkpt lat="46.76518" lon="5.80721">
        <ele>524.4</ele>
        <time>2020-12-10T12:57:20Z</time>
      </trkpt>
      <trkpt lat="46.76522" lon="5.80727">
        <ele>524.1</ele>
        <time>2020-12-10T12:57:26Z</time>
      </trkpt>
      <trkpt lat="46.76525" lon="5.80734">
        <ele>524.2</ele>
        <time>2020-12-10T12:57:31Z</time>
      </trkpt>
      <trkpt lat="46.7653" lon="5.8074">
        <ele>524.5</ele>
        <time>2020-12-10T12:57:36Z</time>
      </trkpt>
      <trkpt lat="46.76534" lon="5.80744">
        <ele>524.7</ele>
        <time>2020-12-10T12:57:41Z</time>
      </trkpt>
      <trkpt lat="46.76538" lon="5.80747">
        <ele>524.9</ele>
        <time>2020-12-10T12:57:46Z</time>
      </trkpt>
      <trkpt lat="46.76543" lon="5.80751">
        <ele>525.3</ele>
        <time>2020-12-10T12:57:51Z</time>
      </trkpt>
      <trkpt lat="46.76548" lon="5.80755">
        <ele>525.8</ele>
        <time>2020-12-10T12:57:56Z</time>
      </trkpt>
      <trkpt lat="46.76553" lon="5.80758">
        <ele>526</ele>
        <time>2020-12-10T12:58:01Z</time>
      </trkpt>
      <trkpt lat="46.76557" lon="5.80763">
        <ele>526.2</ele>
        <time>2020-12-10T12:58:06Z</time>
      </trkpt>
      <trkpt lat="46.76561" lon="5.80766">
        <ele>526.3</ele>
        <time>2020-12-10T12:58:11Z</time>
      </trkpt>
      <trkpt lat="46.76566" lon="5.8077">
        <ele>526.4</ele>
        <time>2020-12-10T12:58:16Z</time>
      </trkpt>
      <trkpt lat="46.76569" lon="5.80775">
        <ele>526.5</ele>
        <time>2020-12-10T12:58:21Z</time>
      </trkpt>
      <trkpt lat="46.76574" lon="5.80779">
        <ele>526</ele>
        <time>2020-12-10T12:58:27Z</time>
      </trkpt>
      <trkpt lat="46.76579" lon="5.80783">
        <ele>525.6</ele>
        <time>2020-12-10T12:58:32Z</time>
      </trkpt>
      <trkpt lat="46.76583" lon="5.80786">
        <ele>525.4</ele>
        <time>2020-12-10T12:58:37Z</time>
      </trkpt>
      <trkpt lat="46.76587" lon="5.80789">
        <ele>525.4</ele>
        <time>2020-12-10T12:58:42Z</time>
      </trkpt>
      <trkpt lat="46.76592" lon="5.80793">
        <ele>525.1</ele>
        <time>2020-12-10T12:58:47Z</time>
      </trkpt>
      <trkpt lat="46.76597" lon="5.80796">
        <ele>524.8</ele>
        <time>2020-12-10T12:58:52Z</time>
      </trkpt>
      <trkpt lat="46.76602" lon="5.80799">
        <ele>524.8</ele>
        <time>2020-12-10T12:58:57Z</time>
      </trkpt>
      <trkpt lat="46.76606" lon="5.80803">
        <ele>524.9</ele>
        <time>2020-12-10T12:59:03Z</time>
      </trkpt>
      <trkpt lat="46.76611" lon="5.80807">
        <ele>524.5</ele>
        <time>2020-12-10T12:59:08Z</time>
      </trkpt>
      <trkpt lat="46.76615" lon="5.80811">
        <ele>523.8</ele>
        <time>2020-12-10T12:59:13Z</time>
      </trkpt>
      <trkpt lat="46.7662" lon="5.80814">
        <ele>523.3</ele>
        <time>2020-12-10T12:59:18Z</time>
      </trkpt>
      <trkpt lat="46.76624" lon="5.80818">
        <ele>523</ele>
        <time>2020-12-10T12:59:25Z</time>
      </trkpt>
      <trkpt lat="46.76628" lon="5.80819">
        <ele>523.9</ele>
        <time>2020-12-10T13:00:10Z</time>
      </trkpt>
      <trkpt lat="46.76632" lon="5.80824">
        <ele>524.2</ele>
        <time>2020-12-10T13:00:15Z</time>
      </trkpt>
      <trkpt lat="46.76637" lon="5.8083">
        <ele>524.9</ele>
        <time>2020-12-10T13:00:20Z</time>
      </trkpt>
      <trkpt lat="46.76641" lon="5.80833">
        <ele>525.8</ele>
        <time>2020-12-10T13:00:25Z</time>
      </trkpt>
      <trkpt lat="46.76645" lon="5.80837">
        <ele>526.7</ele>
        <time>2020-12-10T13:00:33Z</time>
      </trkpt>
      <trkpt lat="46.76649" lon="5.80841">
        <ele>527</ele>
        <time>2020-12-10T13:00:42Z</time>
      </trkpt>
      <trkpt lat="46.76654" lon="5.80843">
        <ele>527.1</ele>
        <time>2020-12-10T13:01:02Z</time>
      </trkpt>
      <trkpt lat="46.76659" lon="5.80845">
        <ele>526.3</ele>
        <time>2020-12-10T13:01:08Z</time>
      </trkpt>
      <trkpt lat="46.76663" lon="5.80848">
        <ele>525.1</ele>
        <time>2020-12-10T13:01:14Z</time>
      </trkpt>
      <trkpt lat="46.76668" lon="5.80851">
        <ele>523.9</ele>
        <time>2020-12-10T13:01:20Z</time>
      </trkpt>
      <trkpt lat="46.76672" lon="5.80854">
        <ele>523</ele>
        <time>2020-12-10T13:01:25Z</time>
      </trkpt>
      <trkpt lat="46.76675" lon="5.80859">
        <ele>522.2</ele>
        <time>2020-12-10T13:01:30Z</time>
      </trkpt>
      <trkpt lat="46.76678" lon="5.80865">
        <ele>521.1</ele>
        <time>2020-12-10T13:01:35Z</time>
      </trkpt>
      <trkpt lat="46.76682" lon="5.80871">
        <ele>520.4</ele>
        <time>2020-12-10T13:01:40Z</time>
      </trkpt>
      <trkpt lat="46.76686" lon="5.80875">
        <ele>520.1</ele>
        <time>2020-12-10T13:01:45Z</time>
      </trkpt>
      <trkpt lat="46.7669" lon="5.8088">
        <ele>520.1</ele>
        <time>2020-12-10T13:01:51Z</time>
      </trkpt>
      <trkpt lat="46.76694" lon="5.80883">
        <ele>520.2</ele>
        <time>2020-12-10T13:01:56Z</time>
      </trkpt>
      <trkpt lat="46.76698" lon="5.80887">
        <ele>520.3</ele>
        <time>2020-12-10T13:02:01Z</time>
      </trkpt>
      <trkpt lat="46.76702" lon="5.8089">
        <ele>520.4</ele>
        <time>2020-12-10T13:02:06Z</time>
      </trkpt>
      <trkpt lat="46.76706" lon="5.80895">
        <ele>520.3</ele>
        <time>2020-12-10T13:02:11Z</time>
      </trkpt>
      <trkpt lat="46.7671" lon="5.809">
        <ele>520</ele>
        <time>2020-12-10T13:02:16Z</time>
      </trkpt>
      <trkpt lat="46.76714" lon="5.80903">
        <ele>519.9</ele>
        <time>2020-12-10T13:02:21Z</time>
      </trkpt>
      <trkpt lat="46.76718" lon="5.80907">
        <ele>519.9</ele>
        <time>2020-12-10T13:02:26Z</time>
      </trkpt>
      <trkpt lat="46.76722" lon="5.80912">
        <ele>520.2</ele>
        <time>2020-12-10T13:02:31Z</time>
      </trkpt>
      <trkpt lat="46.76727" lon="5.80917">
        <ele>520.7</ele>
        <time>2020-12-10T13:02:36Z</time>
      </trkpt>
      <trkpt lat="46.76731" lon="5.80923">
        <ele>520.8</ele>
        <time>2020-12-10T13:02:41Z</time>
      </trkpt>
      <trkpt lat="46.76735" lon="5.80927">
        <ele>520.9</ele>
        <time>2020-12-10T13:02:50Z</time>
      </trkpt>
      <trkpt lat="46.76739" lon="5.80931">
        <ele>520.7</ele>
        <time>2020-12-10T13:02:55Z</time>
      </trkpt>
      <trkpt lat="46.76744" lon="5.80937">
        <ele>521.1</ele>
        <time>2020-12-10T13:03:00Z</time>
      </trkpt>
      <trkpt lat="46.76748" lon="5.80941">
        <ele>521.5</ele>
        <time>2020-12-10T13:03:05Z</time>
      </trkpt>
      <trkpt lat="46.76752" lon="5.80946">
        <ele>521.6</ele>
        <time>2020-12-10T13:03:10Z</time>
      </trkpt>
      <trkpt lat="46.76756" lon="5.80951">
        <ele>521.6</ele>
        <time>2020-12-10T13:03:15Z</time>
      </trkpt>
      <trkpt lat="46.76761" lon="5.80956">
        <ele>522</ele>
        <time>2020-12-10T13:03:20Z</time>
      </trkpt>
      <trkpt lat="46.76765" lon="5.8096">
        <ele>522.2</ele>
        <time>2020-12-10T13:03:25Z</time>
      </trkpt>
      <trkpt lat="46.76769" lon="5.80964">
        <ele>522.7</ele>
        <time>2020-12-10T13:03:30Z</time>
      </trkpt>
      <trkpt lat="46.76773" lon="5.80969">
        <ele>523.4</ele>
        <time>2020-12-10T13:03:36Z</time>
      </trkpt>
      <trkpt lat="46.76777" lon="5.80972">
        <ele>523.9</ele>
        <time>2020-12-10T13:03:41Z</time>
      </trkpt>
      <trkpt lat="46.76781" lon="5.80975">
        <ele>524.5</ele>
        <time>2020-12-10T13:03:46Z</time>
      </trkpt>
      <trkpt lat="46.76786" lon="5.80978">
        <ele>525.2</ele>
        <time>2020-12-10T13:03:51Z</time>
      </trkpt>
      <trkpt lat="46.7679" lon="5.80981">
        <ele>525.7</ele>
        <time>2020-12-10T13:03:56Z</time>
      </trkpt>
      <trkpt lat="46.76795" lon="5.80986">
        <ele>526.1</ele>
        <time>2020-12-10T13:04:01Z</time>
      </trkpt>
      <trkpt lat="46.768" lon="5.80988">
        <ele>526.1</ele>
        <time>2020-12-10T13:04:06Z</time>
      </trkpt>
      <trkpt lat="46.76805" lon="5.80991">
        <ele>526.2</ele>
        <time>2020-12-10T13:04:12Z</time>
      </trkpt>
      <trkpt lat="46.76809" lon="5.80995">
        <ele>526.6</ele>
        <time>2020-12-10T13:04:18Z</time>
      </trkpt>
      <trkpt lat="46.76813" lon="5.80999">
        <ele>527</ele>
        <time>2020-12-10T13:04:23Z</time>
      </trkpt>
      <trkpt lat="46.76817" lon="5.81003">
        <ele>527.3</ele>
        <time>2020-12-10T13:04:28Z</time>
      </trkpt>
      <trkpt lat="46.76822" lon="5.81006">
        <ele>527.6</ele>
        <time>2020-12-10T13:04:33Z</time>
      </trkpt>
      <trkpt lat="46.76828" lon="5.8101">
        <ele>527.7</ele>
        <time>2020-12-10T13:04:38Z</time>
      </trkpt>
      <trkpt lat="46.76833" lon="5.81013">
        <ele>527.6</ele>
        <time>2020-12-10T13:04:43Z</time>
      </trkpt>
      <trkpt lat="46.76837" lon="5.81017">
        <ele>527.6</ele>
        <time>2020-12-10T13:04:48Z</time>
      </trkpt>
      <trkpt lat="46.76842" lon="5.81022">
        <ele>527.2</ele>
        <time>2020-12-10T13:04:54Z</time>
      </trkpt>
      <trkpt lat="46.76846" lon="5.81025">
        <ele>526.9</ele>
        <time>2020-12-10T13:04:59Z</time>
      </trkpt>
      <trkpt lat="46.7685" lon="5.8103">
        <ele>526.3</ele>
        <time>2020-12-10T13:05:04Z</time>
      </trkpt>
      <trkpt lat="46.76853" lon="5.81036">
        <ele>525.9</ele>
        <time>2020-12-10T13:05:09Z</time>
      </trkpt>
      <trkpt lat="46.76857" lon="5.81042">
        <ele>525.4</ele>
        <time>2020-12-10T13:05:14Z</time>
      </trkpt>
      <trkpt lat="46.76861" lon="5.81047">
        <ele>524.8</ele>
        <time>2020-12-10T13:05:20Z</time>
      </trkpt>
      <trkpt lat="46.76865" lon="5.8105">
        <ele>523.8</ele>
        <time>2020-12-10T13:05:26Z</time>
      </trkpt>
      <trkpt lat="46.76869" lon="5.81054">
        <ele>522.7</ele>
        <time>2020-12-10T13:05:31Z</time>
      </trkpt>
      <trkpt lat="46.76873" lon="5.81058">
        <ele>521.8</ele>
        <time>2020-12-10T13:05:36Z</time>
      </trkpt>
      <trkpt lat="46.76877" lon="5.81062">
        <ele>521</ele>
        <time>2020-12-10T13:05:41Z</time>
      </trkpt>
      <trkpt lat="46.76881" lon="5.81067">
        <ele>520.4</ele>
        <time>2020-12-10T13:05:47Z</time>
      </trkpt>
      <trkpt lat="46.76885" lon="5.81072">
        <ele>520.5</ele>
        <time>2020-12-10T13:05:52Z</time>
      </trkpt>
      <trkpt lat="46.76889" lon="5.81077">
        <ele>521.2</ele>
        <time>2020-12-10T13:05:57Z</time>
      </trkpt>
      <trkpt lat="46.76893" lon="5.81083">
        <ele>521.9</ele>
        <time>2020-12-10T13:06:02Z</time>
      </trkpt>
      <trkpt lat="46.76897" lon="5.81087">
        <ele>522.2</ele>
        <time>2020-12-10T13:06:07Z</time>
      </trkpt>
      <trkpt lat="46.76902" lon="5.81089">
        <ele>522.6</ele>
        <time>2020-12-10T13:06:14Z</time>
      </trkpt>
      <trkpt lat="46.76907" lon="5.81088">
        <ele>522.9</ele>
        <time>2020-12-10T13:06:20Z</time>
      </trkpt>
      <trkpt lat="46.76911" lon="5.81093">
        <ele>522.9</ele>
        <time>2020-12-10T13:06:26Z</time>
      </trkpt>
      <trkpt lat="46.76914" lon="5.81097">
        <ele>522.6</ele>
        <time>2020-12-10T13:06:32Z</time>
      </trkpt>
      <trkpt lat="46.76918" lon="5.81102">
        <ele>522.5</ele>
        <time>2020-12-10T13:06:38Z</time>
      </trkpt>
      <trkpt lat="46.76922" lon="5.81106">
        <ele>522.4</ele>
        <time>2020-12-10T13:06:44Z</time>
      </trkpt>
      <trkpt lat="46.76925" lon="5.81112">
        <ele>522.5</ele>
        <time>2020-12-10T13:06:49Z</time>
      </trkpt>
      <trkpt lat="46.76929" lon="5.81117">
        <ele>522.5</ele>
        <time>2020-12-10T13:06:54Z</time>
      </trkpt>
      <trkpt lat="46.76933" lon="5.81121">
        <ele>522.6</ele>
        <time>2020-12-10T13:06:59Z</time>
      </trkpt>
      <trkpt lat="46.76937" lon="5.81127">
        <ele>523</ele>
        <time>2020-12-10T13:07:04Z</time>
      </trkpt>
      <trkpt lat="46.76941" lon="5.81131">
        <ele>523.5</ele>
        <time>2020-12-10T13:07:09Z</time>
      </trkpt>
      <trkpt lat="46.76944" lon="5.81137">
        <ele>524</ele>
        <time>2020-12-10T13:07:16Z</time>
      </trkpt>
      <trkpt lat="46.76948" lon="5.81142">
        <ele>524.5</ele>
        <time>2020-12-10T13:07:23Z</time>
      </trkpt>
      <trkpt lat="46.76951" lon="5.81146">
        <ele>525</ele>
        <time>2020-12-10T13:07:29Z</time>
      </trkpt>
      <trkpt lat="46.76955" lon="5.81152">
        <ele>525.7</ele>
        <time>2020-12-10T13:07:35Z</time>
      </trkpt>
      <trkpt lat="46.76959" lon="5.81157">
        <ele>526.4</ele>
        <time>2020-12-10T13:07:41Z</time>
      </trkpt>
      <trkpt lat="46.76963" lon="5.81161">
        <ele>527.5</ele>
        <time>2020-12-10T13:07:49Z</time>
      </trkpt>
      <trkpt lat="46.76968" lon="5.81163">
        <ele>528.1</ele>
        <time>2020-12-10T13:07:54Z</time>
      </trkpt>
      <trkpt lat="46.76972" lon="5.81166">
        <ele>528.9</ele>
        <time>2020-12-10T13:07:59Z</time>
      </trkpt>
      <trkpt lat="46.76977" lon="5.81167">
        <ele>529.9</ele>
        <time>2020-12-10T13:08:05Z</time>
      </trkpt>
      <trkpt lat="46.76982" lon="5.8117">
        <ele>530.4</ele>
        <time>2020-12-10T13:08:11Z</time>
      </trkpt>
      <trkpt lat="46.76987" lon="5.81173">
        <ele>530.6</ele>
        <time>2020-12-10T13:08:16Z</time>
      </trkpt>
      <trkpt lat="46.76992" lon="5.81176">
        <ele>530.5</ele>
        <time>2020-12-10T13:08:21Z</time>
      </trkpt>
      <trkpt lat="46.76996" lon="5.81181">
        <ele>530.4</ele>
        <time>2020-12-10T13:08:26Z</time>
      </trkpt>
      <trkpt lat="46.77001" lon="5.81183">
        <ele>530.1</ele>
        <time>2020-12-10T13:08:31Z</time>
      </trkpt>
      <trkpt lat="46.77005" lon="5.81186">
        <ele>530</ele>
        <time>2020-12-10T13:08:36Z</time>
      </trkpt>
      <trkpt lat="46.77009" lon="5.81192">
        <ele>529.9</ele>
        <time>2020-12-10T13:08:41Z</time>
      </trkpt>
      <trkpt lat="46.77013" lon="5.81195">
        <ele>529.6</ele>
        <time>2020-12-10T13:08:46Z</time>
      </trkpt>
      <trkpt lat="46.77018" lon="5.81196">
        <ele>529.5</ele>
        <time>2020-12-10T13:08:55Z</time>
      </trkpt>
      <trkpt lat="46.77022" lon="5.81199">
        <ele>529.5</ele>
        <time>2020-12-10T13:09:02Z</time>
      </trkpt>
      <trkpt lat="46.77027" lon="5.81202">
        <ele>529.6</ele>
        <time>2020-12-10T13:09:08Z</time>
      </trkpt>
      <trkpt lat="46.77032" lon="5.81207">
        <ele>529.5</ele>
        <time>2020-12-10T13:09:13Z</time>
      </trkpt>
      <trkpt lat="46.77037" lon="5.81211">
        <ele>529.1</ele>
        <time>2020-12-10T13:09:18Z</time>
      </trkpt>
      <trkpt lat="46.77041" lon="5.81215">
        <ele>528.3</ele>
        <time>2020-12-10T13:09:23Z</time>
      </trkpt>
      <trkpt lat="46.77045" lon="5.81221">
        <ele>527.5</ele>
        <time>2020-12-10T13:09:28Z</time>
      </trkpt>
      <trkpt lat="46.77049" lon="5.81226">
        <ele>526.8</ele>
        <time>2020-12-10T13:09:33Z</time>
      </trkpt>
      <trkpt lat="46.77052" lon="5.81231">
        <ele>526.3</ele>
        <time>2020-12-10T13:09:38Z</time>
      </trkpt>
      <trkpt lat="46.77055" lon="5.81236">
        <ele>525.7</ele>
        <time>2020-12-10T13:09:44Z</time>
      </trkpt>
      <trkpt lat="46.77058" lon="5.81241">
        <ele>525.3</ele>
        <time>2020-12-10T13:09:49Z</time>
      </trkpt>
      <trkpt lat="46.77062" lon="5.81246">
        <ele>525.1</ele>
        <time>2020-12-10T13:09:54Z</time>
      </trkpt>
      <trkpt lat="46.77066" lon="5.8125">
        <ele>524.9</ele>
        <time>2020-12-10T13:09:59Z</time>
      </trkpt>
      <trkpt lat="46.7707" lon="5.81254">
        <ele>524.6</ele>
        <time>2020-12-10T13:10:05Z</time>
      </trkpt>
      <trkpt lat="46.77073" lon="5.81259">
        <ele>524.3</ele>
        <time>2020-12-10T13:10:11Z</time>
      </trkpt>
      <trkpt lat="46.77077" lon="5.81264">
        <ele>524</ele>
        <time>2020-12-10T13:10:17Z</time>
      </trkpt>
      <trkpt lat="46.77081" lon="5.81269">
        <ele>523.7</ele>
        <time>2020-12-10T13:10:22Z</time>
      </trkpt>
      <trkpt lat="46.77083" lon="5.81275">
        <ele>523.4</ele>
        <time>2020-12-10T13:10:27Z</time>
      </trkpt>
      <trkpt lat="46.77086" lon="5.8128">
        <ele>523.5</ele>
        <time>2020-12-10T13:10:32Z</time>
      </trkpt>
      <trkpt lat="46.77089" lon="5.81286">
        <ele>524</ele>
        <time>2020-12-10T13:10:37Z</time>
      </trkpt>
      <trkpt lat="46.77092" lon="5.81293">
        <ele>524.3</ele>
        <time>2020-12-10T13:10:42Z</time>
      </trkpt>
      <trkpt lat="46.77094" lon="5.81299">
        <ele>524.6</ele>
        <time>2020-12-10T13:10:47Z</time>
      </trkpt>
      <trkpt lat="46.77096" lon="5.81306">
        <ele>525</ele>
        <time>2020-12-10T13:10:53Z</time>
      </trkpt>
      <trkpt lat="46.77097" lon="5.81313">
        <ele>525.6</ele>
        <time>2020-12-10T13:10:58Z</time>
      </trkpt>
      <trkpt lat="46.77097" lon="5.81319">
        <ele>526.3</ele>
        <time>2020-12-10T13:11:03Z</time>
      </trkpt>
      <trkpt lat="46.77096" lon="5.81327">
        <ele>526.9</ele>
        <time>2020-12-10T13:11:08Z</time>
      </trkpt>
      <trkpt lat="46.77095" lon="5.81335">
        <ele>527.4</ele>
        <time>2020-12-10T13:11:13Z</time>
      </trkpt>
      <trkpt lat="46.77094" lon="5.81342">
        <ele>527.7</ele>
        <time>2020-12-10T13:11:19Z</time>
      </trkpt>
      <trkpt lat="46.77093" lon="5.81349">
        <ele>528</ele>
        <time>2020-12-10T13:11:24Z</time>
      </trkpt>
      <trkpt lat="46.77092" lon="5.81357">
        <ele>528.4</ele>
        <time>2020-12-10T13:11:29Z</time>
      </trkpt>
      <trkpt lat="46.77092" lon="5.81364">
        <ele>528.2</ele>
        <time>2020-12-10T13:11:35Z</time>
      </trkpt>
      <trkpt lat="46.77094" lon="5.8137">
        <ele>527.8</ele>
        <time>2020-12-10T13:11:40Z</time>
      </trkpt>
      <trkpt lat="46.77097" lon="5.81377">
        <ele>527.2</ele>
        <time>2020-12-10T13:11:45Z</time>
      </trkpt>
      <trkpt lat="46.771" lon="5.81384">
        <ele>526.7</ele>
        <time>2020-12-10T13:11:50Z</time>
      </trkpt>
      <trkpt lat="46.77103" lon="5.8139">
        <ele>526.3</ele>
        <time>2020-12-10T13:11:55Z</time>
      </trkpt>
      <trkpt lat="46.77106" lon="5.81396">
        <ele>525.6</ele>
        <time>2020-12-10T13:12:00Z</time>
      </trkpt>
      <trkpt lat="46.77108" lon="5.81402">
        <ele>524.8</ele>
        <time>2020-12-10T13:12:05Z</time>
      </trkpt>
      <trkpt lat="46.77111" lon="5.81408">
        <ele>524</ele>
        <time>2020-12-10T13:12:10Z</time>
      </trkpt>
      <trkpt lat="46.77114" lon="5.81414">
        <ele>523.1</ele>
        <time>2020-12-10T13:12:15Z</time>
      </trkpt>
      <trkpt lat="46.77117" lon="5.8142">
        <ele>522.5</ele>
        <time>2020-12-10T13:12:21Z</time>
      </trkpt>
      <trkpt lat="46.77121" lon="5.81426">
        <ele>522.6</ele>
        <time>2020-12-10T13:12:26Z</time>
      </trkpt>
      <trkpt lat="46.77124" lon="5.81431">
        <ele>522.8</ele>
        <time>2020-12-10T13:12:31Z</time>
      </trkpt>
      <trkpt lat="46.77127" lon="5.81437">
        <ele>523.1</ele>
        <time>2020-12-10T13:12:37Z</time>
      </trkpt>
      <trkpt lat="46.7713" lon="5.81443">
        <ele>523.7</ele>
        <time>2020-12-10T13:12:42Z</time>
      </trkpt>
      <trkpt lat="46.77133" lon="5.81447">
        <ele>524.2</ele>
        <time>2020-12-10T13:12:47Z</time>
      </trkpt>
      <trkpt lat="46.77136" lon="5.81453">
        <ele>524.3</ele>
        <time>2020-12-10T13:12:52Z</time>
      </trkpt>
      <trkpt lat="46.7714" lon="5.81457">
        <ele>523.4</ele>
        <time>2020-12-10T13:13:00Z</time>
      </trkpt>
      <trkpt lat="46.77143" lon="5.81463">
        <ele>522.3</ele>
        <time>2020-12-10T13:13:05Z</time>
      </trkpt>
      <trkpt lat="46.77144" lon="5.81472">
        <ele>521.8</ele>
        <time>2020-12-10T13:13:10Z</time>
      </trkpt>
      <trkpt lat="46.77145" lon="5.81482">
        <ele>522.2</ele>
        <time>2020-12-10T13:13:15Z</time>
      </trkpt>
      <trkpt lat="46.77145" lon="5.81489">
        <ele>522.9</ele>
        <time>2020-12-10T13:13:25Z</time>
      </trkpt>
      <trkpt lat="46.77143" lon="5.81482">
        <ele>524.6</ele>
        <time>2020-12-10T13:13:41Z</time>
      </trkpt>
      <trkpt lat="46.77139" lon="5.81469">
        <ele>528.8</ele>
        <time>2020-12-10T13:13:46Z</time>
      </trkpt>
      <trkpt lat="46.77143" lon="5.81474">
        <ele>533.9</ele>
        <time>2020-12-10T13:14:04Z</time>
      </trkpt>
      <trkpt lat="46.77149" lon="5.81481">
        <ele>534.3</ele>
        <time>2020-12-10T13:14:09Z</time>
      </trkpt>
      <trkpt lat="46.77155" lon="5.81486">
        <ele>534.5</ele>
        <time>2020-12-10T13:14:14Z</time>
      </trkpt>
      <trkpt lat="46.77159" lon="5.81489">
        <ele>534.6</ele>
        <time>2020-12-10T13:14:19Z</time>
      </trkpt>
      <trkpt lat="46.77164" lon="5.8149">
        <ele>534.5</ele>
        <time>2020-12-10T13:14:24Z</time>
      </trkpt>
      <trkpt lat="46.77169" lon="5.81489">
        <ele>534.2</ele>
        <time>2020-12-10T13:14:29Z</time>
      </trkpt>
      <trkpt lat="46.77176" lon="5.8149">
        <ele>533.7</ele>
        <time>2020-12-10T13:14:34Z</time>
      </trkpt>
      <trkpt lat="46.77181" lon="5.8149">
        <ele>533.3</ele>
        <time>2020-12-10T13:14:39Z</time>
      </trkpt>
      <trkpt lat="46.77186" lon="5.8149">
        <ele>533.3</ele>
        <time>2020-12-10T13:14:45Z</time>
      </trkpt>
      <trkpt lat="46.77191" lon="5.81491">
        <ele>534.1</ele>
        <time>2020-12-10T13:14:51Z</time>
      </trkpt>
      <trkpt lat="46.77196" lon="5.81491">
        <ele>534.7</ele>
        <time>2020-12-10T13:14:56Z</time>
      </trkpt>
      <trkpt lat="46.77201" lon="5.81491">
        <ele>535.7</ele>
        <time>2020-12-10T13:15:02Z</time>
      </trkpt>
      <trkpt lat="46.77206" lon="5.81492">
        <ele>536.4</ele>
        <time>2020-12-10T13:15:07Z</time>
      </trkpt>
      <trkpt lat="46.77211" lon="5.81492">
        <ele>536.2</ele>
        <time>2020-12-10T13:15:13Z</time>
      </trkpt>
      <trkpt lat="46.77216" lon="5.81492">
        <ele>534.9</ele>
        <time>2020-12-10T13:15:20Z</time>
      </trkpt>
      <trkpt lat="46.7722" lon="5.8149">
        <ele>533.3</ele>
        <time>2020-12-10T13:15:27Z</time>
      </trkpt>
      <trkpt lat="46.77226" lon="5.81488">
        <ele>532.5</ele>
        <time>2020-12-10T13:15:33Z</time>
      </trkpt>
      <trkpt lat="46.7723" lon="5.81485">
        <ele>532.1</ele>
        <time>2020-12-10T13:15:39Z</time>
      </trkpt>
      <trkpt lat="46.77234" lon="5.8148">
        <ele>531.7</ele>
        <time>2020-12-10T13:15:44Z</time>
      </trkpt>
      <trkpt lat="46.77241" lon="5.81479">
        <ele>531.9</ele>
        <time>2020-12-10T13:15:49Z</time>
      </trkpt>
      <trkpt lat="46.77245" lon="5.81475">
        <ele>531.9</ele>
        <time>2020-12-10T13:15:55Z</time>
      </trkpt>
      <trkpt lat="46.7725" lon="5.81473">
        <ele>531.9</ele>
        <time>2020-12-10T13:16:03Z</time>
      </trkpt>
      <trkpt lat="46.77255" lon="5.81471">
        <ele>532</ele>
        <time>2020-12-10T13:16:09Z</time>
      </trkpt>
      <trkpt lat="46.77259" lon="5.81468">
        <ele>532.3</ele>
        <time>2020-12-10T13:16:14Z</time>
      </trkpt>
      <trkpt lat="46.77264" lon="5.81464">
        <ele>533</ele>
        <time>2020-12-10T13:16:21Z</time>
      </trkpt>
      <trkpt lat="46.77268" lon="5.81461">
        <ele>533.5</ele>
        <time>2020-12-10T13:16:29Z</time>
      </trkpt>
      <trkpt lat="46.77272" lon="5.81456">
        <ele>534</ele>
        <time>2020-12-10T13:16:36Z</time>
      </trkpt>
      <trkpt lat="46.77276" lon="5.81451">
        <ele>534.6</ele>
        <time>2020-12-10T13:16:41Z</time>
      </trkpt>
      <trkpt lat="46.77279" lon="5.81446">
        <ele>535.3</ele>
        <time>2020-12-10T13:16:47Z</time>
      </trkpt>
      <trkpt lat="46.77283" lon="5.81441">
        <ele>535.8</ele>
        <time>2020-12-10T13:16:53Z</time>
      </trkpt>
      <trkpt lat="46.77287" lon="5.81436">
        <ele>536</ele>
        <time>2020-12-10T13:16:59Z</time>
      </trkpt>
      <trkpt lat="46.7729" lon="5.81431">
        <ele>536.4</ele>
        <time>2020-12-10T13:17:05Z</time>
      </trkpt>
      <trkpt lat="46.77294" lon="5.81426">
        <ele>536.8</ele>
        <time>2020-12-10T13:17:11Z</time>
      </trkpt>
      <trkpt lat="46.77303" lon="5.81421">
        <ele>541.8</ele>
        <time>2020-12-10T13:17:16Z</time>
      </trkpt>
      <trkpt lat="46.77306" lon="5.81416">
        <ele>546.4</ele>
        <time>2020-12-10T13:17:23Z</time>
      </trkpt>
      <trkpt lat="46.7731" lon="5.81411">
        <ele>548.1</ele>
        <time>2020-12-10T13:17:30Z</time>
      </trkpt>
      <trkpt lat="46.77314" lon="5.81406">
        <ele>548.7</ele>
        <time>2020-12-10T13:17:37Z</time>
      </trkpt>
      <trkpt lat="46.77315" lon="5.81399">
        <ele>549</ele>
        <time>2020-12-10T13:17:44Z</time>
      </trkpt>
      <trkpt lat="46.77318" lon="5.81394">
        <ele>549.3</ele>
        <time>2020-12-10T13:17:51Z</time>
      </trkpt>
      <trkpt lat="46.77321" lon="5.81388">
        <ele>549.5</ele>
        <time>2020-12-10T13:17:58Z</time>
      </trkpt>
      <trkpt lat="46.77325" lon="5.81385">
        <ele>549.2</ele>
        <time>2020-12-10T13:18:06Z</time>
      </trkpt>
      <trkpt lat="46.77328" lon="5.81379">
        <ele>549.1</ele>
        <time>2020-12-10T13:18:13Z</time>
      </trkpt>
      <trkpt lat="46.77332" lon="5.81375">
        <ele>548.7</ele>
        <time>2020-12-10T13:18:22Z</time>
      </trkpt>
      <trkpt lat="46.77336" lon="5.8137">
        <ele>549.1</ele>
        <time>2020-12-10T13:18:28Z</time>
      </trkpt>
      <trkpt lat="46.7734" lon="5.81367">
        <ele>551.5</ele>
        <time>2020-12-10T13:18:38Z</time>
      </trkpt>
      <trkpt lat="46.77345" lon="5.81366">
        <ele>552.2</ele>
        <time>2020-12-10T13:18:48Z</time>
      </trkpt>
      <trkpt lat="46.7735" lon="5.81364">
        <ele>553.1</ele>
        <time>2020-12-10T13:18:54Z</time>
      </trkpt>
      <trkpt lat="46.77354" lon="5.81362">
        <ele>554.7</ele>
        <time>2020-12-10T13:19:01Z</time>
      </trkpt>
      <trkpt lat="46.77359" lon="5.81363">
        <ele>555.9</ele>
        <time>2020-12-10T13:19:07Z</time>
      </trkpt>
      <trkpt lat="46.77364" lon="5.81363">
        <ele>556.8</ele>
        <time>2020-12-10T13:19:15Z</time>
      </trkpt>
      <trkpt lat="46.77369" lon="5.81364">
        <ele>556.9</ele>
        <time>2020-12-10T13:19:20Z</time>
      </trkpt>
      <trkpt lat="46.77374" lon="5.81365">
        <ele>556.7</ele>
        <time>2020-12-10T13:19:26Z</time>
      </trkpt>
      <trkpt lat="46.77379" lon="5.81365">
        <ele>556.5</ele>
        <time>2020-12-10T13:19:35Z</time>
      </trkpt>
      <trkpt lat="46.77384" lon="5.81364">
        <ele>556.7</ele>
        <time>2020-12-10T13:19:40Z</time>
      </trkpt>
      <trkpt lat="46.77389" lon="5.81364">
        <ele>557</ele>
        <time>2020-12-10T13:19:46Z</time>
      </trkpt>
      <trkpt lat="46.77394" lon="5.81362">
        <ele>557.4</ele>
        <time>2020-12-10T13:19:57Z</time>
      </trkpt>
      <trkpt lat="46.774" lon="5.81364">
        <ele>558</ele>
        <time>2020-12-10T13:20:06Z</time>
      </trkpt>
      <trkpt lat="46.77405" lon="5.81365">
        <ele>558.4</ele>
        <time>2020-12-10T13:20:11Z</time>
      </trkpt>
      <trkpt lat="46.77411" lon="5.81364">
        <ele>558.7</ele>
        <time>2020-12-10T13:20:16Z</time>
      </trkpt>
      <trkpt lat="46.77416" lon="5.81363">
        <ele>559</ele>
        <time>2020-12-10T13:20:21Z</time>
      </trkpt>
      <trkpt lat="46.77424" lon="5.81362">
        <ele>561.5</ele>
        <time>2020-12-10T13:20:58Z</time>
      </trkpt>
      <trkpt lat="46.77429" lon="5.81362">
        <ele>564.4</ele>
        <time>2020-12-10T13:21:05Z</time>
      </trkpt>
      <trkpt lat="46.77433" lon="5.81359">
        <ele>565.5</ele>
        <time>2020-12-10T13:21:40Z</time>
      </trkpt>
      <trkpt lat="46.77435" lon="5.81352">
        <ele>566.1</ele>
        <time>2020-12-10T13:21:49Z</time>
      </trkpt>
      <trkpt lat="46.77435" lon="5.81345">
        <ele>566.8</ele>
        <time>2020-12-10T13:21:55Z</time>
      </trkpt>
      <trkpt lat="46.77437" lon="5.81339">
        <ele>568.4</ele>
        <time>2020-12-10T13:22:05Z</time>
      </trkpt>
      <trkpt lat="46.7744" lon="5.81333">
        <ele>570.3</ele>
        <time>2020-12-10T13:22:20Z</time>
      </trkpt>
      <trkpt lat="46.77444" lon="5.81327">
        <ele>571.5</ele>
        <time>2020-12-10T13:22:25Z</time>
      </trkpt>
      <trkpt lat="46.77449" lon="5.81324">
        <ele>572.6</ele>
        <time>2020-12-10T13:22:34Z</time>
      </trkpt>
      <trkpt lat="46.77452" lon="5.8132">
        <ele>573</ele>
        <time>2020-12-10T13:22:41Z</time>
      </trkpt>
      <trkpt lat="46.77456" lon="5.81316">
        <ele>573.2</ele>
        <time>2020-12-10T13:22:46Z</time>
      </trkpt>
      <trkpt lat="46.7746" lon="5.81312">
        <ele>573.8</ele>
        <time>2020-12-10T13:22:52Z</time>
      </trkpt>
      <trkpt lat="46.77464" lon="5.81309">
        <ele>575</ele>
        <time>2020-12-10T13:22:58Z</time>
      </trkpt>
      <trkpt lat="46.77468" lon="5.81305">
        <ele>576.6</ele>
        <time>2020-12-10T13:23:04Z</time>
      </trkpt>
      <trkpt lat="46.77469" lon="5.81298">
        <ele>576.7</ele>
        <time>2020-12-10T13:23:12Z</time>
      </trkpt>
      <trkpt lat="46.77469" lon="5.8129">
        <ele>582.1</ele>
        <time>2020-12-10T13:23:19Z</time>
      </trkpt>
      <trkpt lat="46.77468" lon="5.8128">
        <ele>588.7</ele>
        <time>2020-12-10T13:23:24Z</time>
      </trkpt>
      <trkpt lat="46.77472" lon="5.81285">
        <ele>593.8</ele>
        <time>2020-12-10T13:24:17Z</time>
      </trkpt>
      <trkpt lat="46.77479" lon="5.81286">
        <ele>596.1</ele>
        <time>2020-12-10T13:24:22Z</time>
      </trkpt>
      <trkpt lat="46.77474" lon="5.81284">
        <ele>597.7</ele>
        <time>2020-12-10T13:24:28Z</time>
      </trkpt>
      <trkpt lat="46.77467" lon="5.81283">
        <ele>597.5</ele>
        <time>2020-12-10T13:24:33Z</time>
      </trkpt>
      <trkpt lat="46.77466" lon="5.81276">
        <ele>586.9</ele>
        <time>2020-12-10T13:24:56Z</time>
      </trkpt>
      <trkpt lat="46.77471" lon="5.81274">
        <ele>590.5</ele>
        <time>2020-12-10T13:25:27Z</time>
      </trkpt>
      <trkpt lat="46.77471" lon="5.81267">
        <ele>594.4</ele>
        <time>2020-12-10T13:25:32Z</time>
      </trkpt>
      <trkpt lat="46.77468" lon="5.8126">
        <ele>598.6</ele>
        <time>2020-12-10T13:25:37Z</time>
      </trkpt>
      <trkpt lat="46.77465" lon="5.81255">
        <ele>600.3</ele>
        <time>2020-12-10T13:25:50Z</time>
      </trkpt>
      <trkpt lat="46.77464" lon="5.81248">
        <ele>598.8</ele>
        <time>2020-12-10T13:25:58Z</time>
      </trkpt>
      <trkpt lat="46.77464" lon="5.81241">
        <ele>597.6</ele>
        <time>2020-12-10T13:26:06Z</time>
      </trkpt>
      <trkpt lat="46.77462" lon="5.81235">
        <ele>597.3</ele>
        <time>2020-12-10T13:26:12Z</time>
      </trkpt>
      <trkpt lat="46.77459" lon="5.81228">
        <ele>598</ele>
        <time>2020-12-10T13:26:18Z</time>
      </trkpt>
      <trkpt lat="46.77458" lon="5.81222">
        <ele>599.2</ele>
        <time>2020-12-10T13:26:31Z</time>
      </trkpt>
      <trkpt lat="46.77458" lon="5.81215">
        <ele>599.4</ele>
        <time>2020-12-10T13:26:44Z</time>
      </trkpt>
      <trkpt lat="46.77462" lon="5.81209">
        <ele>599.1</ele>
        <time>2020-12-10T13:27:15Z</time>
      </trkpt>
      <trkpt lat="46.77462" lon="5.81202">
        <ele>598.8</ele>
        <time>2020-12-10T13:27:21Z</time>
      </trkpt>
      <trkpt lat="46.77461" lon="5.81196">
        <ele>598.6</ele>
        <time>2020-12-10T13:27:29Z</time>
      </trkpt>
      <trkpt lat="46.77462" lon="5.81189">
        <ele>598.9</ele>
        <time>2020-12-10T13:27:40Z</time>
      </trkpt>
      <trkpt lat="46.77462" lon="5.81181">
        <ele>599.4</ele>
        <time>2020-12-10T13:27:52Z</time>
      </trkpt>
      <trkpt lat="46.77465" lon="5.81174">
        <ele>600</ele>
        <time>2020-12-10T13:27:58Z</time>
      </trkpt>
      <trkpt lat="46.77463" lon="5.81168">
        <ele>600.8</ele>
        <time>2020-12-10T13:29:08Z</time>
      </trkpt>
      <trkpt lat="46.77464" lon="5.81162">
        <ele>599.8</ele>
        <time>2020-12-10T13:29:19Z</time>
      </trkpt>
      <trkpt lat="46.77467" lon="5.81156">
        <ele>600.3</ele>
        <time>2020-12-10T13:29:31Z</time>
      </trkpt>
      <trkpt lat="46.77467" lon="5.81147">
        <ele>601.5</ele>
        <time>2020-12-10T13:29:53Z</time>
      </trkpt>
      <trkpt lat="46.77469" lon="5.8114">
        <ele>601.5</ele>
        <time>2020-12-10T13:29:58Z</time>
      </trkpt>
      <trkpt lat="46.77473" lon="5.81135">
        <ele>601.5</ele>
        <time>2020-12-10T13:30:05Z</time>
      </trkpt>
      <trkpt lat="46.77477" lon="5.81133">
        <ele>601.6</ele>
        <time>2020-12-10T13:30:13Z</time>
      </trkpt>
      <trkpt lat="46.7748" lon="5.81127">
        <ele>606.7</ele>
        <time>2020-12-10T13:30:29Z</time>
      </trkpt>
      <trkpt lat="46.77483" lon="5.81122">
        <ele>615.3</ele>
        <time>2020-12-10T13:30:44Z</time>
      </trkpt>
      <trkpt lat="46.77487" lon="5.81118">
        <ele>617</ele>
        <time>2020-12-10T13:31:01Z</time>
      </trkpt>
      <trkpt lat="46.7749" lon="5.81113">
        <ele>617.3</ele>
        <time>2020-12-10T13:31:09Z</time>
      </trkpt>
      <trkpt lat="46.77494" lon="5.81109">
        <ele>617.8</ele>
        <time>2020-12-10T13:31:21Z</time>
      </trkpt>
      <trkpt lat="46.77498" lon="5.81106">
        <ele>618.6</ele>
        <time>2020-12-10T13:31:29Z</time>
      </trkpt>
      <trkpt lat="46.77503" lon="5.81105">
        <ele>619.8</ele>
        <time>2020-12-10T13:31:39Z</time>
      </trkpt>
      <trkpt lat="46.77507" lon="5.81108">
        <ele>620.5</ele>
        <time>2020-12-10T13:31:46Z</time>
      </trkpt>
      <trkpt lat="46.77511" lon="5.81108">
        <ele>621.8</ele>
        <time>2020-12-10T13:31:54Z</time>
      </trkpt>
      <trkpt lat="46.77516" lon="5.81109">
        <ele>623</ele>
        <time>2020-12-10T13:32:01Z</time>
      </trkpt>
      <trkpt lat="46.77521" lon="5.81109">
        <ele>624</ele>
        <time>2020-12-10T13:32:08Z</time>
      </trkpt>
      <trkpt lat="46.77526" lon="5.81109">
        <ele>625.5</ele>
        <time>2020-12-10T13:32:16Z</time>
      </trkpt>
      <trkpt lat="46.7753" lon="5.81112">
        <ele>625.8</ele>
        <time>2020-12-10T13:32:23Z</time>
      </trkpt>
      <trkpt lat="46.77535" lon="5.81112">
        <ele>625.4</ele>
        <time>2020-12-10T13:32:30Z</time>
      </trkpt>
      <trkpt lat="46.7754" lon="5.81114">
        <ele>624.6</ele>
        <time>2020-12-10T13:32:36Z</time>
      </trkpt>
      <trkpt lat="46.77545" lon="5.81116">
        <ele>624.5</ele>
        <time>2020-12-10T13:32:41Z</time>
      </trkpt>
      <trkpt lat="46.7755" lon="5.81117">
        <ele>624.4</ele>
        <time>2020-12-10T13:32:46Z</time>
      </trkpt>
      <trkpt lat="46.77555" lon="5.81118">
        <ele>624.4</ele>
        <time>2020-12-10T13:32:56Z</time>
      </trkpt>
      <trkpt lat="46.7756" lon="5.81119">
        <ele>624.6</ele>
        <time>2020-12-10T13:33:04Z</time>
      </trkpt>
      <trkpt lat="46.77563" lon="5.81124">
        <ele>624.1</ele>
        <time>2020-12-10T13:33:10Z</time>
      </trkpt>
      <trkpt lat="46.77567" lon="5.81128">
        <ele>623.7</ele>
        <time>2020-12-10T13:33:16Z</time>
      </trkpt>
      <trkpt lat="46.77571" lon="5.81133">
        <ele>622.8</ele>
        <time>2020-12-10T13:33:22Z</time>
      </trkpt>
      <trkpt lat="46.77575" lon="5.81136">
        <ele>622.6</ele>
        <time>2020-12-10T13:33:27Z</time>
      </trkpt>
      <trkpt lat="46.7758" lon="5.81136">
        <ele>622.4</ele>
        <time>2020-12-10T13:33:32Z</time>
      </trkpt>
      <trkpt lat="46.77585" lon="5.8114">
        <ele>621.6</ele>
        <time>2020-12-10T13:33:40Z</time>
      </trkpt>
      <trkpt lat="46.7759" lon="5.81143">
        <ele>621.2</ele>
        <time>2020-12-10T13:33:45Z</time>
      </trkpt>
      <trkpt lat="46.77594" lon="5.81146">
        <ele>620.5</ele>
        <time>2020-12-10T13:33:51Z</time>
      </trkpt>
      <trkpt lat="46.77599" lon="5.81147">
        <ele>619.3</ele>
        <time>2020-12-10T13:33:58Z</time>
      </trkpt>
      <trkpt lat="46.77605" lon="5.81148">
        <ele>618.2</ele>
        <time>2020-12-10T13:34:03Z</time>
      </trkpt>
      <trkpt lat="46.7761" lon="5.81148">
        <ele>617.2</ele>
        <time>2020-12-10T13:34:08Z</time>
      </trkpt>
      <trkpt lat="46.77615" lon="5.81149">
        <ele>616.7</ele>
        <time>2020-12-10T13:34:15Z</time>
      </trkpt>
      <trkpt lat="46.7762" lon="5.81148">
        <ele>617.1</ele>
        <time>2020-12-10T13:34:22Z</time>
      </trkpt>
      <trkpt lat="46.77625" lon="5.81146">
        <ele>618.2</ele>
        <time>2020-12-10T13:34:28Z</time>
      </trkpt>
      <trkpt lat="46.7763" lon="5.81145">
        <ele>619.1</ele>
        <time>2020-12-10T13:34:33Z</time>
      </trkpt>
      <trkpt lat="46.77634" lon="5.81143">
        <ele>620.6</ele>
        <time>2020-12-10T13:34:41Z</time>
      </trkpt>
      <trkpt lat="46.77639" lon="5.81144">
        <ele>621.4</ele>
        <time>2020-12-10T13:34:49Z</time>
      </trkpt>
      <trkpt lat="46.77644" lon="5.81144">
        <ele>622.1</ele>
        <time>2020-12-10T13:34:55Z</time>
      </trkpt>
      <trkpt lat="46.7765" lon="5.81145">
        <ele>622.8</ele>
        <time>2020-12-10T13:35:00Z</time>
      </trkpt>
      <trkpt lat="46.77655" lon="5.81145">
        <ele>623</ele>
        <time>2020-12-10T13:35:06Z</time>
      </trkpt>
      <trkpt lat="46.7766" lon="5.81145">
        <ele>623.2</ele>
        <time>2020-12-10T13:35:13Z</time>
      </trkpt>
      <trkpt lat="46.77665" lon="5.81142">
        <ele>623.5</ele>
        <time>2020-12-10T13:35:22Z</time>
      </trkpt>
      <trkpt lat="46.77669" lon="5.81137">
        <ele>624.6</ele>
        <time>2020-12-10T13:35:29Z</time>
      </trkpt>
      <trkpt lat="46.7767" lon="5.8113">
        <ele>627.1</ele>
        <time>2020-12-10T13:35:37Z</time>
      </trkpt>
      <trkpt lat="46.77667" lon="5.81124">
        <ele>629.3</ele>
        <time>2020-12-10T13:35:44Z</time>
      </trkpt>
      <trkpt lat="46.77667" lon="5.81116">
        <ele>631.3</ele>
        <time>2020-12-10T13:35:51Z</time>
      </trkpt>
      <trkpt lat="46.77665" lon="5.81109">
        <ele>632.7</ele>
        <time>2020-12-10T13:35:57Z</time>
      </trkpt>
      <trkpt lat="46.77664" lon="5.81102">
        <ele>633.8</ele>
        <time>2020-12-10T13:36:03Z</time>
      </trkpt>
      <trkpt lat="46.77658" lon="5.81085">
        <ele>633.6</ele>
        <time>2020-12-10T13:36:08Z</time>
      </trkpt>
      <trkpt lat="46.77658" lon="5.81078">
        <ele>633.8</ele>
        <time>2020-12-10T13:36:13Z</time>
      </trkpt>
      <trkpt lat="46.77662" lon="5.81074">
        <ele>634.2</ele>
        <time>2020-12-10T13:36:20Z</time>
      </trkpt>
      <trkpt lat="46.77663" lon="5.81068">
        <ele>634.4</ele>
        <time>2020-12-10T13:36:29Z</time>
      </trkpt>
      <trkpt lat="46.77665" lon="5.81061">
        <ele>633.8</ele>
        <time>2020-12-10T13:36:38Z</time>
      </trkpt>
      <trkpt lat="46.77666" lon="5.81054">
        <ele>632.7</ele>
        <time>2020-12-10T13:36:46Z</time>
      </trkpt>
      <trkpt lat="46.77661" lon="5.81046">
        <ele>630.1</ele>
        <time>2020-12-10T13:38:14Z</time>
      </trkpt>
      <trkpt lat="46.77657" lon="5.81043">
        <ele>627.6</ele>
        <time>2020-12-10T13:38:20Z</time>
      </trkpt>
      <trkpt lat="46.77653" lon="5.81041">
        <ele>624.7</ele>
        <time>2020-12-10T13:39:07Z</time>
      </trkpt>
      <trkpt lat="46.77657" lon="5.81044">
        <ele>625.5</ele>
        <time>2020-12-10T13:39:22Z</time>
      </trkpt>
      <trkpt lat="46.7766" lon="5.81038">
        <ele>635.5</ele>
        <time>2020-12-10T13:39:38Z</time>
      </trkpt>
      <trkpt lat="46.77659" lon="5.81045">
        <ele>635.2</ele>
        <time>2020-12-10T13:40:21Z</time>
      </trkpt>
      <trkpt lat="46.77663" lon="5.81048">
        <ele>633.9</ele>
        <time>2020-12-10T13:40:51Z</time>
      </trkpt>
      <trkpt lat="46.77664" lon="5.81054">
        <ele>633.1</ele>
        <time>2020-12-10T13:40:59Z</time>
      </trkpt>
      <trkpt lat="46.77659" lon="5.81058">
        <ele>631.3</ele>
        <time>2020-12-10T13:41:12Z</time>
      </trkpt>
      <trkpt lat="46.77654" lon="5.81058">
        <ele>630.3</ele>
        <time>2020-12-10T13:41:18Z</time>
      </trkpt>
      <trkpt lat="46.77651" lon="5.81063">
        <ele>627.7</ele>
        <time>2020-12-10T13:41:29Z</time>
      </trkpt>
      <trkpt lat="46.77654" lon="5.81069">
        <ele>627.1</ele>
        <time>2020-12-10T13:41:34Z</time>
      </trkpt>
      <trkpt lat="46.77657" lon="5.81075">
        <ele>626.9</ele>
        <time>2020-12-10T13:41:42Z</time>
      </trkpt>
      <trkpt lat="46.77658" lon="5.81081">
        <ele>627.4</ele>
        <time>2020-12-10T13:41:53Z</time>
      </trkpt>
      <trkpt lat="46.77658" lon="5.81089">
        <ele>627.6</ele>
        <time>2020-12-10T13:42:00Z</time>
      </trkpt>
      <trkpt lat="46.77658" lon="5.81096">
        <ele>627.4</ele>
        <time>2020-12-10T13:42:05Z</time>
      </trkpt>
      <trkpt lat="46.77658" lon="5.81102">
        <ele>627.3</ele>
        <time>2020-12-10T13:42:10Z</time>
      </trkpt>
      <trkpt lat="46.7766" lon="5.8111">
        <ele>627.4</ele>
        <time>2020-12-10T13:42:15Z</time>
      </trkpt>
      <trkpt lat="46.77661" lon="5.81116">
        <ele>628</ele>
        <time>2020-12-10T13:42:22Z</time>
      </trkpt>
      <trkpt lat="46.77658" lon="5.8112">
        <ele>628</ele>
        <time>2020-12-10T13:42:37Z</time>
      </trkpt>
      <trkpt lat="46.77656" lon="5.81126">
        <ele>625.8</ele>
        <time>2020-12-10T13:42:50Z</time>
      </trkpt>
      <trkpt lat="46.77659" lon="5.81133">
        <ele>624.7</ele>
        <time>2020-12-10T13:42:56Z</time>
      </trkpt>
      <trkpt lat="46.77655" lon="5.81138">
        <ele>624</ele>
        <time>2020-12-10T13:43:01Z</time>
      </trkpt>
      <trkpt lat="46.7765" lon="5.81143">
        <ele>623.2</ele>
        <time>2020-12-10T13:43:06Z</time>
      </trkpt>
      <trkpt lat="46.77646" lon="5.81147">
        <ele>622.1</ele>
        <time>2020-12-10T13:43:15Z</time>
      </trkpt>
      <trkpt lat="46.77644" lon="5.81153">
        <ele>622.9</ele>
        <time>2020-12-10T13:43:26Z</time>
      </trkpt>
      <trkpt lat="46.77639" lon="5.81155">
        <ele>623.6</ele>
        <time>2020-12-10T13:43:37Z</time>
      </trkpt>
      <trkpt lat="46.77633" lon="5.81154">
        <ele>623.4</ele>
        <time>2020-12-10T13:43:42Z</time>
      </trkpt>
      <trkpt lat="46.77627" lon="5.8115">
        <ele>623.2</ele>
        <time>2020-12-10T13:43:47Z</time>
      </trkpt>
      <trkpt lat="46.77622" lon="5.81149">
        <ele>623.4</ele>
        <time>2020-12-10T13:43:54Z</time>
      </trkpt>
      <trkpt lat="46.77617" lon="5.81147">
        <ele>623.3</ele>
        <time>2020-12-10T13:44:00Z</time>
      </trkpt>
      <trkpt lat="46.77611" lon="5.81148">
        <ele>623.6</ele>
        <time>2020-12-10T13:44:05Z</time>
      </trkpt>
      <trkpt lat="46.77606" lon="5.8115">
        <ele>623.9</ele>
        <time>2020-12-10T13:44:12Z</time>
      </trkpt>
      <trkpt lat="46.77601" lon="5.81149">
        <ele>623.9</ele>
        <time>2020-12-10T13:44:17Z</time>
      </trkpt>
      <trkpt lat="46.77596" lon="5.81145">
        <ele>623.6</ele>
        <time>2020-12-10T13:44:22Z</time>
      </trkpt>
      <trkpt lat="46.77591" lon="5.81143">
        <ele>623.7</ele>
        <time>2020-12-10T13:44:27Z</time>
      </trkpt>
      <trkpt lat="46.77586" lon="5.8114">
        <ele>623.8</ele>
        <time>2020-12-10T13:44:32Z</time>
      </trkpt>
      <trkpt lat="46.77582" lon="5.81137">
        <ele>623.7</ele>
        <time>2020-12-10T13:44:38Z</time>
      </trkpt>
      <trkpt lat="46.77575" lon="5.81138">
        <ele>624.2</ele>
        <time>2020-12-10T13:44:43Z</time>
      </trkpt>
      <trkpt lat="46.7757" lon="5.81138">
        <ele>624.2</ele>
        <time>2020-12-10T13:44:49Z</time>
      </trkpt>
      <trkpt lat="46.77565" lon="5.8114">
        <ele>623.6</ele>
        <time>2020-12-10T13:45:00Z</time>
      </trkpt>
      <trkpt lat="46.77561" lon="5.81138">
        <ele>623.7</ele>
        <time>2020-12-10T13:45:05Z</time>
      </trkpt>
      <trkpt lat="46.77555" lon="5.81136">
        <ele>623.4</ele>
        <time>2020-12-10T13:45:10Z</time>
      </trkpt>
      <trkpt lat="46.7755" lon="5.81133">
        <ele>622.9</ele>
        <time>2020-12-10T13:45:15Z</time>
      </trkpt>
      <trkpt lat="46.77546" lon="5.81129">
        <ele>622.8</ele>
        <time>2020-12-10T13:45:20Z</time>
      </trkpt>
      <trkpt lat="46.77543" lon="5.81124">
        <ele>622.7</ele>
        <time>2020-12-10T13:45:25Z</time>
      </trkpt>
      <trkpt lat="46.7754" lon="5.81118">
        <ele>622.3</ele>
        <time>2020-12-10T13:45:30Z</time>
      </trkpt>
      <trkpt lat="46.77537" lon="5.81112">
        <ele>622.4</ele>
        <time>2020-12-10T13:45:36Z</time>
      </trkpt>
      <trkpt lat="46.77535" lon="5.81105">
        <ele>622.4</ele>
        <time>2020-12-10T13:45:41Z</time>
      </trkpt>
      <trkpt lat="46.77533" lon="5.81098">
        <ele>622</ele>
        <time>2020-12-10T13:45:46Z</time>
      </trkpt>
      <trkpt lat="46.7753" lon="5.81091">
        <ele>621.3</ele>
        <time>2020-12-10T13:45:51Z</time>
      </trkpt>
      <trkpt lat="46.77526" lon="5.81086">
        <ele>620.3</ele>
        <time>2020-12-10T13:45:56Z</time>
      </trkpt>
      <trkpt lat="46.77522" lon="5.81083">
        <ele>619.7</ele>
        <time>2020-12-10T13:46:02Z</time>
      </trkpt>
      <trkpt lat="46.77518" lon="5.81079">
        <ele>619.3</ele>
        <time>2020-12-10T13:46:07Z</time>
      </trkpt>
      <trkpt lat="46.77515" lon="5.81072">
        <ele>618.9</ele>
        <time>2020-12-10T13:46:13Z</time>
      </trkpt>
      <trkpt lat="46.77512" lon="5.81066">
        <ele>618.7</ele>
        <time>2020-12-10T13:46:18Z</time>
      </trkpt>
      <trkpt lat="46.77507" lon="5.81058">
        <ele>619</ele>
        <time>2020-12-10T13:46:23Z</time>
      </trkpt>
      <trkpt lat="46.77504" lon="5.81053">
        <ele>619.4</ele>
        <time>2020-12-10T13:46:30Z</time>
      </trkpt>
      <trkpt lat="46.77501" lon="5.81048">
        <ele>619.7</ele>
        <time>2020-12-10T13:46:36Z</time>
      </trkpt>
      <trkpt lat="46.77497" lon="5.81044">
        <ele>620.3</ele>
        <time>2020-12-10T13:46:41Z</time>
      </trkpt>
      <trkpt lat="46.77493" lon="5.81039">
        <ele>621.3</ele>
        <time>2020-12-10T13:46:47Z</time>
      </trkpt>
      <trkpt lat="46.77488" lon="5.81034">
        <ele>622.2</ele>
        <time>2020-12-10T13:46:52Z</time>
      </trkpt>
      <trkpt lat="46.77485" lon="5.81028">
        <ele>623.1</ele>
        <time>2020-12-10T13:46:57Z</time>
      </trkpt>
      <trkpt lat="46.77481" lon="5.81022">
        <ele>624.2</ele>
        <time>2020-12-10T13:47:02Z</time>
      </trkpt>
      <trkpt lat="46.77478" lon="5.81017">
        <ele>625.4</ele>
        <time>2020-12-10T13:47:07Z</time>
      </trkpt>
      <trkpt lat="46.77473" lon="5.81013">
        <ele>626.4</ele>
        <time>2020-12-10T13:47:12Z</time>
      </trkpt>
      <trkpt lat="46.77469" lon="5.81007">
        <ele>626.2</ele>
        <time>2020-12-10T13:47:17Z</time>
      </trkpt>
      <trkpt lat="46.77465" lon="5.81001">
        <ele>625.8</ele>
        <time>2020-12-10T13:47:22Z</time>
      </trkpt>
      <trkpt lat="46.77462" lon="5.80996">
        <ele>625.8</ele>
        <time>2020-12-10T13:47:27Z</time>
      </trkpt>
      <trkpt lat="46.77458" lon="5.8099">
        <ele>626.1</ele>
        <time>2020-12-10T13:47:32Z</time>
      </trkpt>
      <trkpt lat="46.77454" lon="5.80985">
        <ele>626.6</ele>
        <time>2020-12-10T13:47:37Z</time>
      </trkpt>
      <trkpt lat="46.7745" lon="5.80981">
        <ele>627.3</ele>
        <time>2020-12-10T13:47:43Z</time>
      </trkpt>
      <trkpt lat="46.77445" lon="5.80979">
        <ele>628.1</ele>
        <time>2020-12-10T13:47:48Z</time>
      </trkpt>
      <trkpt lat="46.77441" lon="5.80974">
        <ele>629.5</ele>
        <time>2020-12-10T13:47:54Z</time>
      </trkpt>
      <trkpt lat="46.77437" lon="5.80969">
        <ele>630.5</ele>
        <time>2020-12-10T13:47:59Z</time>
      </trkpt>
      <trkpt lat="46.77433" lon="5.80964">
        <ele>631.4</ele>
        <time>2020-12-10T13:48:05Z</time>
      </trkpt>
      <trkpt lat="46.77429" lon="5.80959">
        <ele>632</ele>
        <time>2020-12-10T13:48:10Z</time>
      </trkpt>
      <trkpt lat="46.77425" lon="5.80955">
        <ele>632.5</ele>
        <time>2020-12-10T13:48:15Z</time>
      </trkpt>
      <trkpt lat="46.7742" lon="5.80952">
        <ele>632.7</ele>
        <time>2020-12-10T13:48:22Z</time>
      </trkpt>
      <trkpt lat="46.77416" lon="5.80948">
        <ele>632.3</ele>
        <time>2020-12-10T13:48:28Z</time>
      </trkpt>
      <trkpt lat="46.77413" lon="5.80943">
        <ele>632</ele>
        <time>2020-12-10T13:48:33Z</time>
      </trkpt>
      <trkpt lat="46.77409" lon="5.80938">
        <ele>631.6</ele>
        <time>2020-12-10T13:48:38Z</time>
      </trkpt>
      <trkpt lat="46.77405" lon="5.80934">
        <ele>631.4</ele>
        <time>2020-12-10T13:48:43Z</time>
      </trkpt>
      <trkpt lat="46.77401" lon="5.8093">
        <ele>631.1</ele>
        <time>2020-12-10T13:48:49Z</time>
      </trkpt>
      <trkpt lat="46.77398" lon="5.80924">
        <ele>630.8</ele>
        <time>2020-12-10T13:48:54Z</time>
      </trkpt>
      <trkpt lat="46.77395" lon="5.80917">
        <ele>630</ele>
        <time>2020-12-10T13:49:00Z</time>
      </trkpt>
      <trkpt lat="46.77391" lon="5.80914">
        <ele>629.4</ele>
        <time>2020-12-10T13:49:05Z</time>
      </trkpt>
      <trkpt lat="46.77386" lon="5.80913">
        <ele>635.5</ele>
        <time>2020-12-10T13:49:31Z</time>
      </trkpt>
      <trkpt lat="46.77382" lon="5.80907">
        <ele>640.5</ele>
        <time>2020-12-10T13:49:38Z</time>
      </trkpt>
      <trkpt lat="46.77377" lon="5.80903">
        <ele>642.6</ele>
        <time>2020-12-10T13:49:43Z</time>
      </trkpt>
      <trkpt lat="46.77372" lon="5.80899">
        <ele>644.2</ele>
        <time>2020-12-10T13:49:48Z</time>
      </trkpt>
      <trkpt lat="46.77369" lon="5.80895">
        <ele>645.6</ele>
        <time>2020-12-10T13:49:54Z</time>
      </trkpt>
      <trkpt lat="46.77365" lon="5.8089">
        <ele>646.5</ele>
        <time>2020-12-10T13:49:59Z</time>
      </trkpt>
      <trkpt lat="46.77362" lon="5.80884">
        <ele>646.9</ele>
        <time>2020-12-10T13:50:05Z</time>
      </trkpt>
      <trkpt lat="46.77359" lon="5.80879">
        <ele>647.4</ele>
        <time>2020-12-10T13:50:11Z</time>
      </trkpt>
      <trkpt lat="46.77355" lon="5.80874">
        <ele>647.8</ele>
        <time>2020-12-10T13:50:16Z</time>
      </trkpt>
      <trkpt lat="46.77351" lon="5.80869">
        <ele>647.8</ele>
        <time>2020-12-10T13:50:22Z</time>
      </trkpt>
      <trkpt lat="46.77348" lon="5.80863">
        <ele>647.4</ele>
        <time>2020-12-10T13:50:27Z</time>
      </trkpt>
      <trkpt lat="46.77345" lon="5.80857">
        <ele>646.6</ele>
        <time>2020-12-10T13:50:32Z</time>
      </trkpt>
      <trkpt lat="46.77342" lon="5.80851">
        <ele>645.6</ele>
        <time>2020-12-10T13:50:37Z</time>
      </trkpt>
      <trkpt lat="46.77338" lon="5.80846">
        <ele>644.6</ele>
        <time>2020-12-10T13:50:42Z</time>
      </trkpt>
      <trkpt lat="46.77334" lon="5.80842">
        <ele>643.9</ele>
        <time>2020-12-10T13:50:47Z</time>
      </trkpt>
      <trkpt lat="46.7733" lon="5.80838">
        <ele>643.4</ele>
        <time>2020-12-10T13:50:52Z</time>
      </trkpt>
      <trkpt lat="46.77326" lon="5.80833">
        <ele>642.7</ele>
        <time>2020-12-10T13:50:57Z</time>
      </trkpt>
      <trkpt lat="46.77322" lon="5.80828">
        <ele>642</ele>
        <time>2020-12-10T13:51:02Z</time>
      </trkpt>
      <trkpt lat="46.7732" lon="5.80822">
        <ele>641.6</ele>
        <time>2020-12-10T13:51:07Z</time>
      </trkpt>
      <trkpt lat="46.77316" lon="5.80817">
        <ele>641</ele>
        <time>2020-12-10T13:51:12Z</time>
      </trkpt>
      <trkpt lat="46.77312" lon="5.80813">
        <ele>640.5</ele>
        <time>2020-12-10T13:51:17Z</time>
      </trkpt>
      <trkpt lat="46.77308" lon="5.80809">
        <ele>639.8</ele>
        <time>2020-12-10T13:51:22Z</time>
      </trkpt>
      <trkpt lat="46.77303" lon="5.80805">
        <ele>639.3</ele>
        <time>2020-12-10T13:51:27Z</time>
      </trkpt>
      <trkpt lat="46.77298" lon="5.80801">
        <ele>638.9</ele>
        <time>2020-12-10T13:51:32Z</time>
      </trkpt>
      <trkpt lat="46.77293" lon="5.80795">
        <ele>638.3</ele>
        <time>2020-12-10T13:51:37Z</time>
      </trkpt>
      <trkpt lat="46.77289" lon="5.8079">
        <ele>636.5</ele>
        <time>2020-12-10T13:51:42Z</time>
      </trkpt>
      <trkpt lat="46.77285" lon="5.80786">
        <ele>634.8</ele>
        <time>2020-12-10T13:51:47Z</time>
      </trkpt>
      <trkpt lat="46.77281" lon="5.8078">
        <ele>633.4</ele>
        <time>2020-12-10T13:51:53Z</time>
      </trkpt>
      <trkpt lat="46.77277" lon="5.80776">
        <ele>632.8</ele>
        <time>2020-12-10T13:51:58Z</time>
      </trkpt>
      <trkpt lat="46.77272" lon="5.80773">
        <ele>632</ele>
        <time>2020-12-10T13:52:04Z</time>
      </trkpt>
      <trkpt lat="46.77269" lon="5.80769">
        <ele>631.9</ele>
        <time>2020-12-10T13:52:37Z</time>
      </trkpt>
      <trkpt lat="46.77266" lon="5.80764">
        <ele>631.5</ele>
        <time>2020-12-10T13:52:54Z</time>
      </trkpt>
      <trkpt lat="46.77261" lon="5.8076">
        <ele>631.7</ele>
        <time>2020-12-10T13:52:59Z</time>
      </trkpt>
      <trkpt lat="46.77257" lon="5.80756">
        <ele>632.4</ele>
        <time>2020-12-10T13:53:05Z</time>
      </trkpt>
      <trkpt lat="46.77252" lon="5.80752">
        <ele>633.2</ele>
        <time>2020-12-10T13:53:11Z</time>
      </trkpt>
      <trkpt lat="46.77248" lon="5.8075">
        <ele>633.8</ele>
        <time>2020-12-10T13:53:19Z</time>
      </trkpt>
      <trkpt lat="46.77245" lon="5.80744">
        <ele>633.7</ele>
        <time>2020-12-10T13:53:25Z</time>
      </trkpt>
      <trkpt lat="46.7724" lon="5.80743">
        <ele>632.5</ele>
        <time>2020-12-10T13:53:30Z</time>
      </trkpt>
      <trkpt lat="46.77234" lon="5.80741">
        <ele>631.2</ele>
        <time>2020-12-10T13:53:35Z</time>
      </trkpt>
      <trkpt lat="46.77229" lon="5.80737">
        <ele>630.6</ele>
        <time>2020-12-10T13:53:40Z</time>
      </trkpt>
      <trkpt lat="46.77224" lon="5.80732">
        <ele>631.2</ele>
        <time>2020-12-10T13:53:45Z</time>
      </trkpt>
      <trkpt lat="46.77219" lon="5.80729">
        <ele>631.2</ele>
        <time>2020-12-10T13:53:50Z</time>
      </trkpt>
      <trkpt lat="46.77216" lon="5.80724">
        <ele>630.4</ele>
        <time>2020-12-10T13:53:56Z</time>
      </trkpt>
      <trkpt lat="46.77211" lon="5.80722">
        <ele>630.5</ele>
        <time>2020-12-10T13:54:01Z</time>
      </trkpt>
      <trkpt lat="46.77205" lon="5.8072">
        <ele>631</ele>
        <time>2020-12-10T13:54:06Z</time>
      </trkpt>
      <trkpt lat="46.77199" lon="5.80719">
        <ele>631.7</ele>
        <time>2020-12-10T13:54:11Z</time>
      </trkpt>
      <trkpt lat="46.77195" lon="5.80716">
        <ele>632.7</ele>
        <time>2020-12-10T13:54:16Z</time>
      </trkpt>
      <trkpt lat="46.7719" lon="5.80713">
        <ele>633.8</ele>
        <time>2020-12-10T13:54:21Z</time>
      </trkpt>
      <trkpt lat="46.77185" lon="5.80709">
        <ele>634.5</ele>
        <time>2020-12-10T13:54:26Z</time>
      </trkpt>
      <trkpt lat="46.7718" lon="5.80706">
        <ele>635.5</ele>
        <time>2020-12-10T13:54:32Z</time>
      </trkpt>
      <trkpt lat="46.77176" lon="5.80704">
        <ele>637.1</ele>
        <time>2020-12-10T13:54:37Z</time>
      </trkpt>
      <trkpt lat="46.77171" lon="5.807">
        <ele>639</ele>
        <time>2020-12-10T13:54:42Z</time>
      </trkpt>
      <trkpt lat="46.77166" lon="5.80696">
        <ele>640.8</ele>
        <time>2020-12-10T13:54:47Z</time>
      </trkpt>
      <trkpt lat="46.77162" lon="5.80693">
        <ele>642</ele>
        <time>2020-12-10T13:54:52Z</time>
      </trkpt>
      <trkpt lat="46.77157" lon="5.80691">
        <ele>643</ele>
        <time>2020-12-10T13:54:57Z</time>
      </trkpt>
      <trkpt lat="46.77152" lon="5.80687">
        <ele>643.9</ele>
        <time>2020-12-10T13:55:02Z</time>
      </trkpt>
      <trkpt lat="46.77151" lon="5.8068">
        <ele>644.1</ele>
        <time>2020-12-10T13:55:08Z</time>
      </trkpt>
      <trkpt lat="46.77147" lon="5.80675">
        <ele>641.7</ele>
        <time>2020-12-10T13:55:15Z</time>
      </trkpt>
      <trkpt lat="46.77142" lon="5.80674">
        <ele>638.5</ele>
        <time>2020-12-10T13:55:20Z</time>
      </trkpt>
      <trkpt lat="46.77136" lon="5.80673">
        <ele>636.3</ele>
        <time>2020-12-10T13:55:25Z</time>
      </trkpt>
      <trkpt lat="46.77131" lon="5.80669">
        <ele>635.2</ele>
        <time>2020-12-10T13:55:30Z</time>
      </trkpt>
      <trkpt lat="46.77127" lon="5.80664">
        <ele>635</ele>
        <time>2020-12-10T13:55:36Z</time>
      </trkpt>
      <trkpt lat="46.77124" lon="5.80658">
        <ele>635.3</ele>
        <time>2020-12-10T13:55:41Z</time>
      </trkpt>
      <trkpt lat="46.7712" lon="5.80655">
        <ele>636</ele>
        <time>2020-12-10T13:55:46Z</time>
      </trkpt>
      <trkpt lat="46.77115" lon="5.80651">
        <ele>636.3</ele>
        <time>2020-12-10T13:55:51Z</time>
      </trkpt>
      <trkpt lat="46.77111" lon="5.80647">
        <ele>636.3</ele>
        <time>2020-12-10T13:55:56Z</time>
      </trkpt>
      <trkpt lat="46.77107" lon="5.80642">
        <ele>636</ele>
        <time>2020-12-10T13:56:01Z</time>
      </trkpt>
      <trkpt lat="46.77104" lon="5.80636">
        <ele>635.7</ele>
        <time>2020-12-10T13:56:06Z</time>
      </trkpt>
      <trkpt lat="46.77101" lon="5.80632">
        <ele>635.4</ele>
        <time>2020-12-10T13:56:11Z</time>
      </trkpt>
      <trkpt lat="46.77097" lon="5.80626">
        <ele>635.1</ele>
        <time>2020-12-10T13:56:16Z</time>
      </trkpt>
      <trkpt lat="46.77092" lon="5.8062">
        <ele>634.9</ele>
        <time>2020-12-10T13:56:21Z</time>
      </trkpt>
      <trkpt lat="46.77088" lon="5.80614">
        <ele>634.5</ele>
        <time>2020-12-10T13:56:26Z</time>
      </trkpt>
      <trkpt lat="46.77085" lon="5.80609">
        <ele>634.5</ele>
        <time>2020-12-10T13:56:33Z</time>
      </trkpt>
      <trkpt lat="46.77081" lon="5.80605">
        <ele>633.9</ele>
        <time>2020-12-10T13:56:39Z</time>
      </trkpt>
      <trkpt lat="46.77077" lon="5.80598">
        <ele>632.2</ele>
        <time>2020-12-10T13:56:44Z</time>
      </trkpt>
      <trkpt lat="46.77073" lon="5.80592">
        <ele>630.5</ele>
        <time>2020-12-10T13:56:49Z</time>
      </trkpt>
      <trkpt lat="46.77068" lon="5.80588">
        <ele>631.1</ele>
        <time>2020-12-10T13:56:54Z</time>
      </trkpt>
      <trkpt lat="46.77066" lon="5.80581">
        <ele>629.6</ele>
        <time>2020-12-10T13:57:00Z</time>
      </trkpt>
      <trkpt lat="46.77062" lon="5.80576">
        <ele>627.4</ele>
        <time>2020-12-10T13:57:05Z</time>
      </trkpt>
      <trkpt lat="46.77058" lon="5.80571">
        <ele>625.1</ele>
        <time>2020-12-10T13:57:10Z</time>
      </trkpt>
      <trkpt lat="46.77053" lon="5.80571">
        <ele>624.4</ele>
        <time>2020-12-10T13:57:34Z</time>
      </trkpt>
      <trkpt lat="46.7705" lon="5.80565">
        <ele>626.1</ele>
        <time>2020-12-10T13:57:41Z</time>
      </trkpt>
      <trkpt lat="46.77048" lon="5.80555">
        <ele>627.6</ele>
        <time>2020-12-10T13:57:46Z</time>
      </trkpt>
      <trkpt lat="46.77045" lon="5.80548">
        <ele>629.5</ele>
        <time>2020-12-10T13:57:51Z</time>
      </trkpt>
      <trkpt lat="46.77043" lon="5.80542">
        <ele>631.9</ele>
        <time>2020-12-10T13:57:56Z</time>
      </trkpt>
      <trkpt lat="46.7704" lon="5.80536">
        <ele>634.5</ele>
        <time>2020-12-10T13:58:01Z</time>
      </trkpt>
      <trkpt lat="46.77039" lon="5.8053">
        <ele>637.9</ele>
        <time>2020-12-10T13:58:07Z</time>
      </trkpt>
      <trkpt lat="46.77036" lon="5.80524">
        <ele>640.2</ele>
        <time>2020-12-10T13:58:15Z</time>
      </trkpt>
      <trkpt lat="46.77034" lon="5.80518">
        <ele>640.4</ele>
        <time>2020-12-10T13:58:20Z</time>
      </trkpt>
      <trkpt lat="46.77033" lon="5.80509">
        <ele>640.8</ele>
        <time>2020-12-10T13:58:25Z</time>
      </trkpt>
      <trkpt lat="46.77031" lon="5.80501">
        <ele>641.2</ele>
        <time>2020-12-10T13:58:30Z</time>
      </trkpt>
      <trkpt lat="46.77028" lon="5.80494">
        <ele>641.9</ele>
        <time>2020-12-10T13:58:35Z</time>
      </trkpt>
      <trkpt lat="46.77024" lon="5.80488">
        <ele>642.6</ele>
        <time>2020-12-10T13:58:40Z</time>
      </trkpt>
      <trkpt lat="46.7702" lon="5.80481">
        <ele>642.7</ele>
        <time>2020-12-10T13:58:45Z</time>
      </trkpt>
      <trkpt lat="46.77018" lon="5.80473">
        <ele>642.7</ele>
        <time>2020-12-10T13:58:50Z</time>
      </trkpt>
      <trkpt lat="46.77015" lon="5.80467">
        <ele>642.3</ele>
        <time>2020-12-10T13:58:56Z</time>
      </trkpt>
      <trkpt lat="46.77014" lon="5.8046">
        <ele>642.3</ele>
        <time>2020-12-10T13:59:01Z</time>
      </trkpt>
      <trkpt lat="46.77011" lon="5.80453">
        <ele>642.8</ele>
        <time>2020-12-10T13:59:06Z</time>
      </trkpt>
      <trkpt lat="46.77009" lon="5.80447">
        <ele>643.3</ele>
        <time>2020-12-10T13:59:11Z</time>
      </trkpt>
      <trkpt lat="46.77006" lon="5.80442">
        <ele>644.3</ele>
        <time>2020-12-10T13:59:17Z</time>
      </trkpt>
      <trkpt lat="46.77004" lon="5.80436">
        <ele>644.9</ele>
        <time>2020-12-10T13:59:22Z</time>
      </trkpt>
      <trkpt lat="46.77" lon="5.80431">
        <ele>645.5</ele>
        <time>2020-12-10T13:59:28Z</time>
      </trkpt>
      <trkpt lat="46.76996" lon="5.80425">
        <ele>645.6</ele>
        <time>2020-12-10T13:59:33Z</time>
      </trkpt>
      <trkpt lat="46.76992" lon="5.80418">
        <ele>645.1</ele>
        <time>2020-12-10T13:59:38Z</time>
      </trkpt>
      <trkpt lat="46.76989" lon="5.80412">
        <ele>644</ele>
        <time>2020-12-10T13:59:43Z</time>
      </trkpt>
      <trkpt lat="46.76986" lon="5.80406">
        <ele>643</ele>
        <time>2020-12-10T13:59:48Z</time>
      </trkpt>
      <trkpt lat="46.76983" lon="5.804">
        <ele>641.6</ele>
        <time>2020-12-10T13:59:54Z</time>
      </trkpt>
      <trkpt lat="46.7698" lon="5.80395">
        <ele>640.2</ele>
        <time>2020-12-10T13:59:59Z</time>
      </trkpt>
      <trkpt lat="46.76976" lon="5.80391">
        <ele>638.4</ele>
        <time>2020-12-10T14:00:04Z</time>
      </trkpt>
      <trkpt lat="46.76972" lon="5.80386">
        <ele>636.3</ele>
        <time>2020-12-10T14:00:09Z</time>
      </trkpt>
      <trkpt lat="46.76975" lon="5.8038">
        <ele>634.8</ele>
        <time>2020-12-10T14:00:26Z</time>
      </trkpt>
      <trkpt lat="46.76973" lon="5.80374">
        <ele>635.2</ele>
        <time>2020-12-10T14:01:17Z</time>
      </trkpt>
      <trkpt lat="46.7697" lon="5.8038">
        <ele>636.2</ele>
        <time>2020-12-10T14:01:25Z</time>
      </trkpt>
      <trkpt lat="46.76967" lon="5.80385">
        <ele>637.6</ele>
        <time>2020-12-10T14:01:32Z</time>
      </trkpt>
      <trkpt lat="46.76964" lon="5.80392">
        <ele>639.3</ele>
        <time>2020-12-10T14:01:37Z</time>
      </trkpt>
      <trkpt lat="46.76961" lon="5.80397">
        <ele>643</ele>
        <time>2020-12-10T14:01:42Z</time>
      </trkpt>
      <trkpt lat="46.76958" lon="5.80403">
        <ele>646.4</ele>
        <time>2020-12-10T14:01:49Z</time>
      </trkpt>
      <trkpt lat="46.76954" lon="5.80408">
        <ele>648.5</ele>
        <time>2020-12-10T14:01:54Z</time>
      </trkpt>
      <trkpt lat="46.76953" lon="5.80414">
        <ele>648.8</ele>
        <time>2020-12-10T14:02:01Z</time>
      </trkpt>
      <trkpt lat="46.76951" lon="5.80421">
        <ele>648.6</ele>
        <time>2020-12-10T14:02:08Z</time>
      </trkpt>
      <trkpt lat="46.76949" lon="5.80427">
        <ele>648</ele>
        <time>2020-12-10T14:02:13Z</time>
      </trkpt>
      <trkpt lat="46.76946" lon="5.80432">
        <ele>645.6</ele>
        <time>2020-12-10T14:02:20Z</time>
      </trkpt>
      <trkpt lat="46.76942" lon="5.80438">
        <ele>640.4</ele>
        <time>2020-12-10T14:02:32Z</time>
      </trkpt>
      <trkpt lat="46.76938" lon="5.80444">
        <ele>639.9</ele>
        <time>2020-12-10T14:02:37Z</time>
      </trkpt>
      <trkpt lat="46.76934" lon="5.80451">
        <ele>640</ele>
        <time>2020-12-10T14:02:42Z</time>
      </trkpt>
      <trkpt lat="46.76931" lon="5.80457">
        <ele>639.9</ele>
        <time>2020-12-10T14:02:47Z</time>
      </trkpt>
      <trkpt lat="46.76928" lon="5.80462">
        <ele>640.8</ele>
        <time>2020-12-10T14:02:53Z</time>
      </trkpt>
      <trkpt lat="46.76925" lon="5.80469">
        <ele>642.2</ele>
        <time>2020-12-10T14:02:59Z</time>
      </trkpt>
      <trkpt lat="46.76922" lon="5.80475">
        <ele>644.4</ele>
        <time>2020-12-10T14:03:08Z</time>
      </trkpt>
      <trkpt lat="46.76919" lon="5.80482">
        <ele>645.1</ele>
        <time>2020-12-10T14:03:13Z</time>
      </trkpt>
      <trkpt lat="46.76915" lon="5.80489">
        <ele>645.4</ele>
        <time>2020-12-10T14:03:18Z</time>
      </trkpt>
      <trkpt lat="46.76911" lon="5.80494">
        <ele>646.1</ele>
        <time>2020-12-10T14:03:24Z</time>
      </trkpt>
      <trkpt lat="46.76909" lon="5.805">
        <ele>646.7</ele>
        <time>2020-12-10T14:03:30Z</time>
      </trkpt>
      <trkpt lat="46.76906" lon="5.80506">
        <ele>646.8</ele>
        <time>2020-12-10T14:03:38Z</time>
      </trkpt>
      <trkpt lat="46.76904" lon="5.80513">
        <ele>645.6</ele>
        <time>2020-12-10T14:03:47Z</time>
      </trkpt>
      <trkpt lat="46.76901" lon="5.80519">
        <ele>642.6</ele>
        <time>2020-12-10T14:03:54Z</time>
      </trkpt>
      <trkpt lat="46.76903" lon="5.80526">
        <ele>635.4</ele>
        <time>2020-12-10T14:04:21Z</time>
      </trkpt>
      <trkpt lat="46.76907" lon="5.8053">
        <ele>634.6</ele>
        <time>2020-12-10T14:04:26Z</time>
      </trkpt>
      <trkpt lat="46.7691" lon="5.80536">
        <ele>633</ele>
        <time>2020-12-10T14:04:33Z</time>
      </trkpt>
      <trkpt lat="46.76914" lon="5.8054">
        <ele>632.4</ele>
        <time>2020-12-10T14:04:39Z</time>
      </trkpt>
      <trkpt lat="46.76919" lon="5.80542">
        <ele>632.1</ele>
        <time>2020-12-10T14:04:44Z</time>
      </trkpt>
      <trkpt lat="46.76923" lon="5.80544">
        <ele>632.5</ele>
        <time>2020-12-10T14:04:52Z</time>
      </trkpt>
      <trkpt lat="46.76928" lon="5.80546">
        <ele>632.8</ele>
        <time>2020-12-10T14:04:59Z</time>
      </trkpt>
      <trkpt lat="46.76933" lon="5.80549">
        <ele>633.2</ele>
        <time>2020-12-10T14:05:05Z</time>
      </trkpt>
      <trkpt lat="46.76937" lon="5.80551">
        <ele>633.7</ele>
        <time>2020-12-10T14:05:12Z</time>
      </trkpt>
      <trkpt lat="46.76942" lon="5.80554">
        <ele>634</ele>
        <time>2020-12-10T14:05:19Z</time>
      </trkpt>
      <trkpt lat="46.76937" lon="5.80553">
        <ele>630.9</ele>
        <time>2020-12-10T14:05:52Z</time>
      </trkpt>
      <trkpt lat="46.76933" lon="5.8055">
        <ele>629.5</ele>
        <time>2020-12-10T14:05:57Z</time>
      </trkpt>
      <trkpt lat="46.76927" lon="5.80547">
        <ele>632.2</ele>
        <time>2020-12-10T14:06:02Z</time>
      </trkpt>
      <trkpt lat="46.76922" lon="5.80544">
        <ele>635.2</ele>
        <time>2020-12-10T14:06:07Z</time>
      </trkpt>
      <trkpt lat="46.76918" lon="5.80541">
        <ele>637.4</ele>
        <time>2020-12-10T14:06:14Z</time>
      </trkpt>
      <trkpt lat="46.76912" lon="5.8054">
        <ele>638.7</ele>
        <time>2020-12-10T14:06:19Z</time>
      </trkpt>
      <trkpt lat="46.76906" lon="5.80538">
        <ele>639.1</ele>
        <time>2020-12-10T14:06:24Z</time>
      </trkpt>
      <trkpt lat="46.76901" lon="5.80534">
        <ele>639.9</ele>
        <time>2020-12-10T14:06:29Z</time>
      </trkpt>
      <trkpt lat="46.76896" lon="5.8053">
        <ele>640.1</ele>
        <time>2020-12-10T14:06:34Z</time>
      </trkpt>
      <trkpt lat="46.76892" lon="5.80525">
        <ele>640.1</ele>
        <time>2020-12-10T14:06:39Z</time>
      </trkpt>
      <trkpt lat="46.76888" lon="5.80523">
        <ele>640.7</ele>
        <time>2020-12-10T14:06:45Z</time>
      </trkpt>
      <trkpt lat="46.76883" lon="5.80521">
        <ele>641.7</ele>
        <time>2020-12-10T14:06:50Z</time>
      </trkpt>
      <trkpt lat="46.76877" lon="5.80518">
        <ele>641.9</ele>
        <time>2020-12-10T14:06:55Z</time>
      </trkpt>
      <trkpt lat="46.76872" lon="5.80515">
        <ele>641.9</ele>
        <time>2020-12-10T14:07:00Z</time>
      </trkpt>
      <trkpt lat="46.76868" lon="5.80513">
        <ele>642.6</ele>
        <time>2020-12-10T14:07:06Z</time>
      </trkpt>
      <trkpt lat="46.76863" lon="5.80508">
        <ele>643.9</ele>
        <time>2020-12-10T14:07:14Z</time>
      </trkpt>
      <trkpt lat="46.7686" lon="5.80503">
        <ele>644.4</ele>
        <time>2020-12-10T14:07:19Z</time>
      </trkpt>
      <trkpt lat="46.76856" lon="5.80501">
        <ele>644.2</ele>
        <time>2020-12-10T14:07:25Z</time>
      </trkpt>
      <trkpt lat="46.76852" lon="5.80498">
        <ele>643.8</ele>
        <time>2020-12-10T14:07:30Z</time>
      </trkpt>
      <trkpt lat="46.76847" lon="5.80495">
        <ele>643.6</ele>
        <time>2020-12-10T14:07:35Z</time>
      </trkpt>
      <trkpt lat="46.76843" lon="5.80492">
        <ele>643.8</ele>
        <time>2020-12-10T14:07:41Z</time>
      </trkpt>
      <trkpt lat="46.7684" lon="5.80487">
        <ele>643.6</ele>
        <time>2020-12-10T14:07:51Z</time>
      </trkpt>
      <trkpt lat="46.76842" lon="5.8048">
        <ele>641.4</ele>
        <time>2020-12-10T14:08:14Z</time>
      </trkpt>
      <trkpt lat="46.76839" lon="5.80474">
        <ele>640.7</ele>
        <time>2020-12-10T14:08:19Z</time>
      </trkpt>
      <trkpt lat="46.76834" lon="5.80475">
        <ele>637.2</ele>
        <time>2020-12-10T14:08:32Z</time>
      </trkpt>
      <trkpt lat="46.76838" lon="5.80471">
        <ele>627.7</ele>
        <time>2020-12-10T14:08:41Z</time>
      </trkpt>
      <trkpt lat="46.76835" lon="5.80466">
        <ele>618.5</ele>
        <time>2020-12-10T14:08:52Z</time>
      </trkpt>
      <trkpt lat="46.76831" lon="5.80463">
        <ele>616.4</ele>
        <time>2020-12-10T14:08:58Z</time>
      </trkpt>
      <trkpt lat="46.76823" lon="5.80461">
        <ele>619</ele>
        <time>2020-12-10T14:09:04Z</time>
      </trkpt>
      <trkpt lat="46.76819" lon="5.8046">
        <ele>622.2</ele>
        <time>2020-12-10T14:09:09Z</time>
      </trkpt>
      <trkpt lat="46.76816" lon="5.80454">
        <ele>623.3</ele>
        <time>2020-12-10T14:09:16Z</time>
      </trkpt>
      <trkpt lat="46.76814" lon="5.80461">
        <ele>621.2</ele>
        <time>2020-12-10T14:09:26Z</time>
      </trkpt>
      <trkpt lat="46.7681" lon="5.80463">
        <ele>616.4</ele>
        <time>2020-12-10T14:10:03Z</time>
      </trkpt>
      <trkpt lat="46.76811" lon="5.80457">
        <ele>616.9</ele>
        <time>2020-12-10T14:11:03Z</time>
      </trkpt>
      <trkpt lat="46.76815" lon="5.80461">
        <ele>613.8</ele>
        <time>2020-12-10T14:11:18Z</time>
      </trkpt>
      <trkpt lat="46.7682" lon="5.80459">
        <ele>614.6</ele>
        <time>2020-12-10T14:11:30Z</time>
      </trkpt>
      <trkpt lat="46.76815" lon="5.80461">
        <ele>618.5</ele>
        <time>2020-12-10T14:12:12Z</time>
      </trkpt>
      <trkpt lat="46.76815" lon="5.80454">
        <ele>617.7</ele>
        <time>2020-12-10T14:12:43Z</time>
      </trkpt>
      <trkpt lat="46.76817" lon="5.80448">
        <ele>618.7</ele>
        <time>2020-12-10T14:12:48Z</time>
      </trkpt>
      <trkpt lat="46.76815" lon="5.8044">
        <ele>620.4</ele>
        <time>2020-12-10T14:12:55Z</time>
      </trkpt>
      <trkpt lat="46.76812" lon="5.80435">
        <ele>621.9</ele>
        <time>2020-12-10T14:13:01Z</time>
      </trkpt>
      <trkpt lat="46.76808" lon="5.8043">
        <ele>623.1</ele>
        <time>2020-12-10T14:13:07Z</time>
      </trkpt>
      <trkpt lat="46.76804" lon="5.80427">
        <ele>623.9</ele>
        <time>2020-12-10T14:13:12Z</time>
      </trkpt>
      <trkpt lat="46.76803" lon="5.80419">
        <ele>624.5</ele>
        <time>2020-12-10T14:13:18Z</time>
      </trkpt>
      <trkpt lat="46.76801" lon="5.80413">
        <ele>625.1</ele>
        <time>2020-12-10T14:13:24Z</time>
      </trkpt>
      <trkpt lat="46.76799" lon="5.80406">
        <ele>626.2</ele>
        <time>2020-12-10T14:13:30Z</time>
      </trkpt>
      <trkpt lat="46.76798" lon="5.80399">
        <ele>627.3</ele>
        <time>2020-12-10T14:13:36Z</time>
      </trkpt>
      <trkpt lat="46.76798" lon="5.80391">
        <ele>628.4</ele>
        <time>2020-12-10T14:13:42Z</time>
      </trkpt>
      <trkpt lat="46.76797" lon="5.80385">
        <ele>629.5</ele>
        <time>2020-12-10T14:13:48Z</time>
      </trkpt>
      <trkpt lat="46.76796" lon="5.80378">
        <ele>630.4</ele>
        <time>2020-12-10T14:13:56Z</time>
      </trkpt>
      <trkpt lat="46.76794" lon="5.80371">
        <ele>630</ele>
        <time>2020-12-10T14:14:02Z</time>
      </trkpt>
      <trkpt lat="46.76793" lon="5.80364">
        <ele>629</ele>
        <time>2020-12-10T14:14:07Z</time>
      </trkpt>
      <trkpt lat="46.76793" lon="5.80354">
        <ele>628.4</ele>
        <time>2020-12-10T14:14:12Z</time>
      </trkpt>
      <trkpt lat="46.7679" lon="5.80349">
        <ele>628.2</ele>
        <time>2020-12-10T14:14:27Z</time>
      </trkpt>
      <trkpt lat="46.76783" lon="5.80352">
        <ele>628.6</ele>
        <time>2020-12-10T14:14:32Z</time>
      </trkpt>
      <trkpt lat="46.76779" lon="5.80349">
        <ele>629.5</ele>
        <time>2020-12-10T14:14:39Z</time>
      </trkpt>
      <trkpt lat="46.76776" lon="5.80343">
        <ele>630.4</ele>
        <time>2020-12-10T14:14:45Z</time>
      </trkpt>
      <trkpt lat="46.76773" lon="5.80338">
        <ele>630.6</ele>
        <time>2020-12-10T14:14:51Z</time>
      </trkpt>
      <trkpt lat="46.76769" lon="5.80336">
        <ele>630.3</ele>
        <time>2020-12-10T14:14:57Z</time>
      </trkpt>
      <trkpt lat="46.76765" lon="5.80331">
        <ele>630.7</ele>
        <time>2020-12-10T14:15:02Z</time>
      </trkpt>
      <trkpt lat="46.76764" lon="5.80324">
        <ele>630.8</ele>
        <time>2020-12-10T14:15:07Z</time>
      </trkpt>
      <trkpt lat="46.76765" lon="5.80316">
        <ele>631</ele>
        <time>2020-12-10T14:15:13Z</time>
      </trkpt>
      <trkpt lat="46.76766" lon="5.80308">
        <ele>631.1</ele>
        <time>2020-12-10T14:15:18Z</time>
      </trkpt>
      <trkpt lat="46.76767" lon="5.803">
        <ele>631</ele>
        <time>2020-12-10T14:15:23Z</time>
      </trkpt>
      <trkpt lat="46.76769" lon="5.80293">
        <ele>630.8</ele>
        <time>2020-12-10T14:15:29Z</time>
      </trkpt>
      <trkpt lat="46.76771" lon="5.80287">
        <ele>630.7</ele>
        <time>2020-12-10T14:15:34Z</time>
      </trkpt>
      <trkpt lat="46.76773" lon="5.8028">
        <ele>630.6</ele>
        <time>2020-12-10T14:15:40Z</time>
      </trkpt>
      <trkpt lat="46.76776" lon="5.80274">
        <ele>630.4</ele>
        <time>2020-12-10T14:15:45Z</time>
      </trkpt>
      <trkpt lat="46.7678" lon="5.80269">
        <ele>630.1</ele>
        <time>2020-12-10T14:15:50Z</time>
      </trkpt>
      <trkpt lat="46.76776" lon="5.80275">
        <ele>628.6</ele>
        <time>2020-12-10T14:16:04Z</time>
      </trkpt>
      <trkpt lat="46.76772" lon="5.8028">
        <ele>628.3</ele>
        <time>2020-12-10T14:16:09Z</time>
      </trkpt>
      <trkpt lat="46.76776" lon="5.80274">
        <ele>627.2</ele>
        <time>2020-12-10T14:16:53Z</time>
      </trkpt>
      <trkpt lat="46.76781" lon="5.80268">
        <ele>626.9</ele>
        <time>2020-12-10T14:16:58Z</time>
      </trkpt>
      <trkpt lat="46.76786" lon="5.80263">
        <ele>626.7</ele>
        <time>2020-12-10T14:17:03Z</time>
      </trkpt>
      <trkpt lat="46.76791" lon="5.80257">
        <ele>626.5</ele>
        <time>2020-12-10T14:17:08Z</time>
      </trkpt>
      <trkpt lat="46.76794" lon="5.80252">
        <ele>626.5</ele>
        <time>2020-12-10T14:17:13Z</time>
      </trkpt>
      <trkpt lat="46.76798" lon="5.80247">
        <ele>626.7</ele>
        <time>2020-12-10T14:17:20Z</time>
      </trkpt>
      <trkpt lat="46.76799" lon="5.80231">
        <ele>628.3</ele>
        <time>2020-12-10T14:17:25Z</time>
      </trkpt>
      <trkpt lat="46.76801" lon="5.80224">
        <ele>628.4</ele>
        <time>2020-12-10T14:17:31Z</time>
      </trkpt>
      <trkpt lat="46.76801" lon="5.80217">
        <ele>628.1</ele>
        <time>2020-12-10T14:17:38Z</time>
      </trkpt>
      <trkpt lat="46.76801" lon="5.8021">
        <ele>628</ele>
        <time>2020-12-10T14:17:45Z</time>
      </trkpt>
      <trkpt lat="46.768" lon="5.80203">
        <ele>627.7</ele>
        <time>2020-12-10T14:17:52Z</time>
      </trkpt>
      <trkpt lat="46.76799" lon="5.80196">
        <ele>627.5</ele>
        <time>2020-12-10T14:17:58Z</time>
      </trkpt>
      <trkpt lat="46.76797" lon="5.8019">
        <ele>627.2</ele>
        <time>2020-12-10T14:18:03Z</time>
      </trkpt>
      <trkpt lat="46.76794" lon="5.80176">
        <ele>627.5</ele>
        <time>2020-12-10T14:18:08Z</time>
      </trkpt>
      <trkpt lat="46.76789" lon="5.8017">
        <ele>627.6</ele>
        <time>2020-12-10T14:18:13Z</time>
      </trkpt>
      <trkpt lat="46.76783" lon="5.80168">
        <ele>627.8</ele>
        <time>2020-12-10T14:18:18Z</time>
      </trkpt>
      <trkpt lat="46.76779" lon="5.80164">
        <ele>627.6</ele>
        <time>2020-12-10T14:18:23Z</time>
      </trkpt>
      <trkpt lat="46.76776" lon="5.80158">
        <ele>627</ele>
        <time>2020-12-10T14:18:28Z</time>
      </trkpt>
      <trkpt lat="46.76773" lon="5.80153">
        <ele>626.6</ele>
        <time>2020-12-10T14:18:33Z</time>
      </trkpt>
      <trkpt lat="46.7677" lon="5.80146">
        <ele>626</ele>
        <time>2020-12-10T14:18:39Z</time>
      </trkpt>
      <trkpt lat="46.76767" lon="5.8014">
        <ele>624.4</ele>
        <time>2020-12-10T14:18:46Z</time>
      </trkpt>
      <trkpt lat="46.76764" lon="5.80134">
        <ele>621.3</ele>
        <time>2020-12-10T14:18:52Z</time>
      </trkpt>
      <trkpt lat="46.76758" lon="5.80129">
        <ele>619.4</ele>
        <time>2020-12-10T14:18:57Z</time>
      </trkpt>
      <trkpt lat="46.76751" lon="5.80125">
        <ele>618.5</ele>
        <time>2020-12-10T14:19:02Z</time>
      </trkpt>
      <trkpt lat="46.76747" lon="5.8012">
        <ele>617</ele>
        <time>2020-12-10T14:19:07Z</time>
      </trkpt>
      <trkpt lat="46.76745" lon="5.80114">
        <ele>616</ele>
        <time>2020-12-10T14:19:13Z</time>
      </trkpt>
      <trkpt lat="46.7674" lon="5.8011">
        <ele>621</ele>
        <time>2020-12-10T14:19:19Z</time>
      </trkpt>
      <trkpt lat="46.76734" lon="5.80107">
        <ele>627.1</ele>
        <time>2020-12-10T14:19:24Z</time>
      </trkpt>
      <trkpt lat="46.76732" lon="5.80101">
        <ele>628.5</ele>
        <time>2020-12-10T14:19:29Z</time>
      </trkpt>
      <trkpt lat="46.76729" lon="5.80095">
        <ele>625.7</ele>
        <time>2020-12-10T14:19:34Z</time>
      </trkpt>
      <trkpt lat="46.76726" lon="5.80089">
        <ele>621.2</ele>
        <time>2020-12-10T14:19:39Z</time>
      </trkpt>
      <trkpt lat="46.76723" lon="5.80083">
        <ele>616.9</ele>
        <time>2020-12-10T14:19:44Z</time>
      </trkpt>
      <trkpt lat="46.7672" lon="5.80078">
        <ele>613.9</ele>
        <time>2020-12-10T14:19:49Z</time>
      </trkpt>
      <trkpt lat="46.76717" lon="5.80073">
        <ele>612.1</ele>
        <time>2020-12-10T14:19:54Z</time>
      </trkpt>
      <trkpt lat="46.76714" lon="5.80066">
        <ele>610.3</ele>
        <time>2020-12-10T14:20:00Z</time>
      </trkpt>
      <trkpt lat="46.76709" lon="5.80061">
        <ele>609.2</ele>
        <time>2020-12-10T14:20:05Z</time>
      </trkpt>
      <trkpt lat="46.76705" lon="5.80057">
        <ele>607.7</ele>
        <time>2020-12-10T14:20:10Z</time>
      </trkpt>
      <trkpt lat="46.76696" lon="5.80057">
        <ele>611.9</ele>
        <time>2020-12-10T14:20:15Z</time>
      </trkpt>
      <trkpt lat="46.76691" lon="5.80058">
        <ele>617.6</ele>
        <time>2020-12-10T14:20:20Z</time>
      </trkpt>
      <trkpt lat="46.76691" lon="5.80051">
        <ele>623.7</ele>
        <time>2020-12-10T14:20:31Z</time>
      </trkpt>
      <trkpt lat="46.76686" lon="5.80046">
        <ele>625.2</ele>
        <time>2020-12-10T14:20:36Z</time>
      </trkpt>
      <trkpt lat="46.76681" lon="5.8004">
        <ele>626.8</ele>
        <time>2020-12-10T14:20:41Z</time>
      </trkpt>
      <trkpt lat="46.76675" lon="5.80034">
        <ele>629.1</ele>
        <time>2020-12-10T14:20:46Z</time>
      </trkpt>
      <trkpt lat="46.76669" lon="5.80028">
        <ele>632</ele>
        <time>2020-12-10T14:20:51Z</time>
      </trkpt>
      <trkpt lat="46.76664" lon="5.80023">
        <ele>634.2</ele>
        <time>2020-12-10T14:20:56Z</time>
      </trkpt>
      <trkpt lat="46.76657" lon="5.8002">
        <ele>635.4</ele>
        <time>2020-12-10T14:21:01Z</time>
      </trkpt>
      <trkpt lat="46.76652" lon="5.80018">
        <ele>636.3</ele>
        <time>2020-12-10T14:21:06Z</time>
      </trkpt>
      <trkpt lat="46.76646" lon="5.80017">
        <ele>636.8</ele>
        <time>2020-12-10T14:21:11Z</time>
      </trkpt>
      <trkpt lat="46.7664" lon="5.80015">
        <ele>636.7</ele>
        <time>2020-12-10T14:21:16Z</time>
      </trkpt>
      <trkpt lat="46.76635" lon="5.80012">
        <ele>636.6</ele>
        <time>2020-12-10T14:21:21Z</time>
      </trkpt>
      <trkpt lat="46.76631" lon="5.80008">
        <ele>637</ele>
        <time>2020-12-10T14:21:28Z</time>
      </trkpt>
      <trkpt lat="46.76626" lon="5.80006">
        <ele>637</ele>
        <time>2020-12-10T14:21:33Z</time>
      </trkpt>
      <trkpt lat="46.76621" lon="5.80004">
        <ele>637.3</ele>
        <time>2020-12-10T14:21:38Z</time>
      </trkpt>
      <trkpt lat="46.76618" lon="5.8">
        <ele>638.2</ele>
        <time>2020-12-10T14:21:44Z</time>
      </trkpt>
      <trkpt lat="46.76615" lon="5.79993">
        <ele>638.8</ele>
        <time>2020-12-10T14:21:50Z</time>
      </trkpt>
      <trkpt lat="46.76611" lon="5.79989">
        <ele>639.3</ele>
        <time>2020-12-10T14:21:55Z</time>
      </trkpt>
      <trkpt lat="46.76607" lon="5.79983">
        <ele>639.5</ele>
        <time>2020-12-10T14:22:00Z</time>
      </trkpt>
      <trkpt lat="46.76602" lon="5.79978">
        <ele>639.8</ele>
        <time>2020-12-10T14:22:06Z</time>
      </trkpt>
      <trkpt lat="46.76597" lon="5.79973">
        <ele>639.5</ele>
        <time>2020-12-10T14:22:11Z</time>
      </trkpt>
      <trkpt lat="46.76591" lon="5.79968">
        <ele>638.8</ele>
        <time>2020-12-10T14:22:16Z</time>
      </trkpt>
      <trkpt lat="46.76586" lon="5.79962">
        <ele>637.7</ele>
        <time>2020-12-10T14:22:21Z</time>
      </trkpt>
      <trkpt lat="46.76581" lon="5.79957">
        <ele>636.4</ele>
        <time>2020-12-10T14:22:26Z</time>
      </trkpt>
      <trkpt lat="46.76578" lon="5.79951">
        <ele>634</ele>
        <time>2020-12-10T14:22:31Z</time>
      </trkpt>
      <trkpt lat="46.76575" lon="5.79944">
        <ele>629.8</ele>
        <time>2020-12-10T14:22:36Z</time>
      </trkpt>
      <trkpt lat="46.76568" lon="5.79939">
        <ele>632.3</ele>
        <time>2020-12-10T14:22:41Z</time>
      </trkpt>
      <trkpt lat="46.76564" lon="5.79935">
        <ele>635.1</ele>
        <time>2020-12-10T14:22:46Z</time>
      </trkpt>
      <trkpt lat="46.76562" lon="5.79929">
        <ele>636.8</ele>
        <time>2020-12-10T14:22:52Z</time>
      </trkpt>
      <trkpt lat="46.76559" lon="5.79923">
        <ele>638.5</ele>
        <time>2020-12-10T14:23:00Z</time>
      </trkpt>
      <trkpt lat="46.76555" lon="5.79919">
        <ele>639.6</ele>
        <time>2020-12-10T14:23:05Z</time>
      </trkpt>
      <trkpt lat="46.7655" lon="5.79914">
        <ele>640.3</ele>
        <time>2020-12-10T14:23:10Z</time>
      </trkpt>
      <trkpt lat="46.76546" lon="5.7991">
        <ele>641.1</ele>
        <time>2020-12-10T14:23:15Z</time>
      </trkpt>
      <trkpt lat="46.76541" lon="5.79908">
        <ele>641.5</ele>
        <time>2020-12-10T14:23:20Z</time>
      </trkpt>
      <trkpt lat="46.76538" lon="5.79903">
        <ele>641.8</ele>
        <time>2020-12-10T14:23:28Z</time>
      </trkpt>
      <trkpt lat="46.76535" lon="5.79897">
        <ele>642.5</ele>
        <time>2020-12-10T14:23:33Z</time>
      </trkpt>
      <trkpt lat="46.76531" lon="5.79891">
        <ele>643.2</ele>
        <time>2020-12-10T14:23:38Z</time>
      </trkpt>
      <trkpt lat="46.76528" lon="5.79886">
        <ele>643.8</ele>
        <time>2020-12-10T14:23:43Z</time>
      </trkpt>
      <trkpt lat="46.76523" lon="5.79889">
        <ele>640.8</ele>
        <time>2020-12-10T14:24:35Z</time>
      </trkpt>
      <trkpt lat="46.76519" lon="5.79887">
        <ele>641.2</ele>
        <time>2020-12-10T14:24:42Z</time>
      </trkpt>
      <trkpt lat="46.76513" lon="5.79883">
        <ele>641.9</ele>
        <time>2020-12-10T14:24:47Z</time>
      </trkpt>
      <trkpt lat="46.76506" lon="5.79879">
        <ele>642.5</ele>
        <time>2020-12-10T14:24:52Z</time>
      </trkpt>
      <trkpt lat="46.765" lon="5.79874">
        <ele>642.9</ele>
        <time>2020-12-10T14:24:57Z</time>
      </trkpt>
      <trkpt lat="46.76488" lon="5.79878">
        <ele>641</ele>
        <time>2020-12-10T14:25:02Z</time>
      </trkpt>
      <trkpt lat="46.76481" lon="5.79876">
        <ele>639.2</ele>
        <time>2020-12-10T14:25:07Z</time>
      </trkpt>
      <trkpt lat="46.76477" lon="5.79869">
        <ele>637.7</ele>
        <time>2020-12-10T14:25:12Z</time>
      </trkpt>
      <trkpt lat="46.76474" lon="5.79864">
        <ele>636.2</ele>
        <time>2020-12-10T14:25:17Z</time>
      </trkpt>
      <trkpt lat="46.76469" lon="5.79859">
        <ele>634.6</ele>
        <time>2020-12-10T14:25:22Z</time>
      </trkpt>
      <trkpt lat="46.76465" lon="5.79854">
        <ele>632.8</ele>
        <time>2020-12-10T14:25:27Z</time>
      </trkpt>
      <trkpt lat="46.7646" lon="5.79849">
        <ele>630.8</ele>
        <time>2020-12-10T14:25:32Z</time>
      </trkpt>
      <trkpt lat="46.76456" lon="5.79846">
        <ele>629.1</ele>
        <time>2020-12-10T14:25:37Z</time>
      </trkpt>
      <trkpt lat="46.76452" lon="5.79842">
        <ele>627.9</ele>
        <time>2020-12-10T14:25:42Z</time>
      </trkpt>
      <trkpt lat="46.76448" lon="5.79836">
        <ele>626.8</ele>
        <time>2020-12-10T14:25:48Z</time>
      </trkpt>
      <trkpt lat="46.76445" lon="5.7983">
        <ele>625.9</ele>
        <time>2020-12-10T14:25:53Z</time>
      </trkpt>
      <trkpt lat="46.76441" lon="5.79826">
        <ele>625.3</ele>
        <time>2020-12-10T14:25:58Z</time>
      </trkpt>
      <trkpt lat="46.76437" lon="5.79822">
        <ele>624.7</ele>
        <time>2020-12-10T14:26:03Z</time>
      </trkpt>
      <trkpt lat="46.76432" lon="5.79819">
        <ele>624.6</ele>
        <time>2020-12-10T14:26:08Z</time>
      </trkpt>
      <trkpt lat="46.76428" lon="5.79816">
        <ele>624.7</ele>
        <time>2020-12-10T14:26:13Z</time>
      </trkpt>
      <trkpt lat="46.76424" lon="5.79811">
        <ele>625</ele>
        <time>2020-12-10T14:26:18Z</time>
      </trkpt>
      <trkpt lat="46.76419" lon="5.79806">
        <ele>625.9</ele>
        <time>2020-12-10T14:26:23Z</time>
      </trkpt>
      <trkpt lat="46.76414" lon="5.79802">
        <ele>626.7</ele>
        <time>2020-12-10T14:26:28Z</time>
      </trkpt>
      <trkpt lat="46.7641" lon="5.79797">
        <ele>627.1</ele>
        <time>2020-12-10T14:26:33Z</time>
      </trkpt>
      <trkpt lat="46.76405" lon="5.79793">
        <ele>626.5</ele>
        <time>2020-12-10T14:26:38Z</time>
      </trkpt>
      <trkpt lat="46.76401" lon="5.79789">
        <ele>625.8</ele>
        <time>2020-12-10T14:26:43Z</time>
      </trkpt>
      <trkpt lat="46.76392" lon="5.79792">
        <ele>626.7</ele>
        <time>2020-12-10T14:26:48Z</time>
      </trkpt>
      <trkpt lat="46.76387" lon="5.7979">
        <ele>627</ele>
        <time>2020-12-10T14:26:53Z</time>
      </trkpt>
      <trkpt lat="46.76382" lon="5.79786">
        <ele>627</ele>
        <time>2020-12-10T14:26:58Z</time>
      </trkpt>
      <trkpt lat="46.76377" lon="5.79784">
        <ele>626.9</ele>
        <time>2020-12-10T14:27:04Z</time>
      </trkpt>
      <trkpt lat="46.76372" lon="5.79782">
        <ele>626.7</ele>
        <time>2020-12-10T14:27:09Z</time>
      </trkpt>
      <trkpt lat="46.76367" lon="5.79782">
        <ele>626.3</ele>
        <time>2020-12-10T14:27:15Z</time>
      </trkpt>
      <trkpt lat="46.76363" lon="5.79781">
        <ele>626.4</ele>
        <time>2020-12-10T14:27:21Z</time>
      </trkpt>
      <trkpt lat="46.76357" lon="5.79781">
        <ele>626.6</ele>
        <time>2020-12-10T14:27:28Z</time>
      </trkpt>
      <trkpt lat="46.7635" lon="5.7978">
        <ele>626.4</ele>
        <time>2020-12-10T14:27:33Z</time>
      </trkpt>
      <trkpt lat="46.76345" lon="5.7978">
        <ele>626.3</ele>
        <time>2020-12-10T14:27:38Z</time>
      </trkpt>
      <trkpt lat="46.76338" lon="5.79782">
        <ele>626.4</ele>
        <time>2020-12-10T14:27:43Z</time>
      </trkpt>
      <trkpt lat="46.76331" lon="5.79785">
        <ele>627.1</ele>
        <time>2020-12-10T14:27:48Z</time>
      </trkpt>
      <trkpt lat="46.76325" lon="5.79782">
        <ele>627</ele>
        <time>2020-12-10T14:27:53Z</time>
      </trkpt>
      <trkpt lat="46.7632" lon="5.79777">
        <ele>626.5</ele>
        <time>2020-12-10T14:27:58Z</time>
      </trkpt>
      <trkpt lat="46.76316" lon="5.79773">
        <ele>625.8</ele>
        <time>2020-12-10T14:28:03Z</time>
      </trkpt>
      <trkpt lat="46.76307" lon="5.79768">
        <ele>628.9</ele>
        <time>2020-12-10T14:28:08Z</time>
      </trkpt>
      <trkpt lat="46.76304" lon="5.79763">
        <ele>630.6</ele>
        <time>2020-12-10T14:28:13Z</time>
      </trkpt>
      <trkpt lat="46.763" lon="5.79757">
        <ele>631.6</ele>
        <time>2020-12-10T14:28:18Z</time>
      </trkpt>
      <trkpt lat="46.76297" lon="5.79752">
        <ele>632</ele>
        <time>2020-12-10T14:28:23Z</time>
      </trkpt>
      <trkpt lat="46.76294" lon="5.79747">
        <ele>631.9</ele>
        <time>2020-12-10T14:28:28Z</time>
      </trkpt>
      <trkpt lat="46.76291" lon="5.7974">
        <ele>631.5</ele>
        <time>2020-12-10T14:28:34Z</time>
      </trkpt>
      <trkpt lat="46.76287" lon="5.79734">
        <ele>630.3</ele>
        <time>2020-12-10T14:28:39Z</time>
      </trkpt>
      <trkpt lat="46.76285" lon="5.79727">
        <ele>628.8</ele>
        <time>2020-12-10T14:28:44Z</time>
      </trkpt>
      <trkpt lat="46.76283" lon="5.79719">
        <ele>627.7</ele>
        <time>2020-12-10T14:28:49Z</time>
      </trkpt>
      <trkpt lat="46.7628" lon="5.79712">
        <ele>626.6</ele>
        <time>2020-12-10T14:28:54Z</time>
      </trkpt>
      <trkpt lat="46.76279" lon="5.79703">
        <ele>625.8</ele>
        <time>2020-12-10T14:28:59Z</time>
      </trkpt>
      <trkpt lat="46.76277" lon="5.79696">
        <ele>625.1</ele>
        <time>2020-12-10T14:29:04Z</time>
      </trkpt>
      <trkpt lat="46.76273" lon="5.7969">
        <ele>624.7</ele>
        <time>2020-12-10T14:29:09Z</time>
      </trkpt>
      <trkpt lat="46.76271" lon="5.79683">
        <ele>624.4</ele>
        <time>2020-12-10T14:29:14Z</time>
      </trkpt>
      <trkpt lat="46.76268" lon="5.79674">
        <ele>624.4</ele>
        <time>2020-12-10T14:29:19Z</time>
      </trkpt>
      <trkpt lat="46.76263" lon="5.79668">
        <ele>624.7</ele>
        <time>2020-12-10T14:29:24Z</time>
      </trkpt>
      <trkpt lat="46.7626" lon="5.79663">
        <ele>625.2</ele>
        <time>2020-12-10T14:29:29Z</time>
      </trkpt>
      <trkpt lat="46.76257" lon="5.79657">
        <ele>625.3</ele>
        <time>2020-12-10T14:29:34Z</time>
      </trkpt>
      <trkpt lat="46.76252" lon="5.79653">
        <ele>624.8</ele>
        <time>2020-12-10T14:29:39Z</time>
      </trkpt>
      <trkpt lat="46.76249" lon="5.79647">
        <ele>623.1</ele>
        <time>2020-12-10T14:29:45Z</time>
      </trkpt>
      <trkpt lat="46.76245" lon="5.79642">
        <ele>621.1</ele>
        <time>2020-12-10T14:29:51Z</time>
      </trkpt>
      <trkpt lat="46.7624" lon="5.7964">
        <ele>620.1</ele>
        <time>2020-12-10T14:29:56Z</time>
      </trkpt>
      <trkpt lat="46.76234" lon="5.79638">
        <ele>619.9</ele>
        <time>2020-12-10T14:30:01Z</time>
      </trkpt>
      <trkpt lat="46.7623" lon="5.79635">
        <ele>619.9</ele>
        <time>2020-12-10T14:30:06Z</time>
      </trkpt>
      <trkpt lat="46.76225" lon="5.79633">
        <ele>619.2</ele>
        <time>2020-12-10T14:30:11Z</time>
      </trkpt>
      <trkpt lat="46.76221" lon="5.7963">
        <ele>619.5</ele>
        <time>2020-12-10T14:30:16Z</time>
      </trkpt>
      <trkpt lat="46.76216" lon="5.79626">
        <ele>622.3</ele>
        <time>2020-12-10T14:30:21Z</time>
      </trkpt>
      <trkpt lat="46.7621" lon="5.79621">
        <ele>625.3</ele>
        <time>2020-12-10T14:30:26Z</time>
      </trkpt>
      <trkpt lat="46.76203" lon="5.79619">
        <ele>627.9</ele>
        <time>2020-12-10T14:30:31Z</time>
      </trkpt>
      <trkpt lat="46.76197" lon="5.79615">
        <ele>630.3</ele>
        <time>2020-12-10T14:30:36Z</time>
      </trkpt>
      <trkpt lat="46.76191" lon="5.79612">
        <ele>632</ele>
        <time>2020-12-10T14:30:41Z</time>
      </trkpt>
      <trkpt lat="46.76185" lon="5.79609">
        <ele>632.6</ele>
        <time>2020-12-10T14:30:46Z</time>
      </trkpt>
      <trkpt lat="46.76181" lon="5.79605">
        <ele>633.1</ele>
        <time>2020-12-10T14:30:51Z</time>
      </trkpt>
      <trkpt lat="46.76179" lon="5.79597">
        <ele>633.4</ele>
        <time>2020-12-10T14:30:57Z</time>
      </trkpt>
      <trkpt lat="46.76176" lon="5.7959">
        <ele>633.1</ele>
        <time>2020-12-10T14:31:02Z</time>
      </trkpt>
      <trkpt lat="46.76174" lon="5.79583">
        <ele>632.4</ele>
        <time>2020-12-10T14:31:08Z</time>
      </trkpt>
      <trkpt lat="46.76173" lon="5.79575">
        <ele>631.6</ele>
        <time>2020-12-10T14:31:13Z</time>
      </trkpt>
      <trkpt lat="46.76173" lon="5.79565">
        <ele>630.6</ele>
        <time>2020-12-10T14:31:18Z</time>
      </trkpt>
      <trkpt lat="46.76174" lon="5.79557">
        <ele>629.4</ele>
        <time>2020-12-10T14:31:23Z</time>
      </trkpt>
      <trkpt lat="46.76176" lon="5.79549">
        <ele>628.2</ele>
        <time>2020-12-10T14:31:28Z</time>
      </trkpt>
      <trkpt lat="46.76178" lon="5.79543">
        <ele>627.8</ele>
        <time>2020-12-10T14:31:33Z</time>
      </trkpt>
      <trkpt lat="46.76178" lon="5.79536">
        <ele>627.6</ele>
        <time>2020-12-10T14:31:41Z</time>
      </trkpt>
      <trkpt lat="46.76178" lon="5.79528">
        <ele>627.9</ele>
        <time>2020-12-10T14:31:48Z</time>
      </trkpt>
      <trkpt lat="46.76177" lon="5.79521">
        <ele>628.1</ele>
        <time>2020-12-10T14:31:53Z</time>
      </trkpt>
      <trkpt lat="46.76176" lon="5.79513">
        <ele>628.4</ele>
        <time>2020-12-10T14:31:58Z</time>
      </trkpt>
      <trkpt lat="46.76174" lon="5.79504">
        <ele>628.5</ele>
        <time>2020-12-10T14:32:03Z</time>
      </trkpt>
      <trkpt lat="46.76173" lon="5.79496">
        <ele>627.4</ele>
        <time>2020-12-10T14:32:08Z</time>
      </trkpt>
      <trkpt lat="46.76169" lon="5.79488">
        <ele>626.2</ele>
        <time>2020-12-10T14:32:13Z</time>
      </trkpt>
      <trkpt lat="46.76164" lon="5.79482">
        <ele>625.6</ele>
        <time>2020-12-10T14:32:18Z</time>
      </trkpt>
      <trkpt lat="46.76158" lon="5.79477">
        <ele>625.5</ele>
        <time>2020-12-10T14:32:23Z</time>
      </trkpt>
      <trkpt lat="46.76155" lon="5.79472">
        <ele>624.7</ele>
        <time>2020-12-10T14:32:28Z</time>
      </trkpt>
      <trkpt lat="46.76151" lon="5.79467">
        <ele>624.7</ele>
        <time>2020-12-10T14:32:34Z</time>
      </trkpt>
      <trkpt lat="46.76146" lon="5.79469">
        <ele>628</ele>
        <time>2020-12-10T14:32:39Z</time>
      </trkpt>
      <trkpt lat="46.7614" lon="5.79468">
        <ele>630.4</ele>
        <time>2020-12-10T14:32:45Z</time>
      </trkpt>
      <trkpt lat="46.76135" lon="5.79469">
        <ele>630.9</ele>
        <time>2020-12-10T14:32:50Z</time>
      </trkpt>
      <trkpt lat="46.7613" lon="5.7947">
        <ele>630.7</ele>
        <time>2020-12-10T14:32:55Z</time>
      </trkpt>
      <trkpt lat="46.76124" lon="5.79471">
        <ele>630.1</ele>
        <time>2020-12-10T14:33:00Z</time>
      </trkpt>
      <trkpt lat="46.76118" lon="5.79472">
        <ele>629.3</ele>
        <time>2020-12-10T14:33:05Z</time>
      </trkpt>
      <trkpt lat="46.76112" lon="5.79473">
        <ele>628.6</ele>
        <time>2020-12-10T14:33:10Z</time>
      </trkpt>
      <trkpt lat="46.76106" lon="5.79474">
        <ele>628</ele>
        <time>2020-12-10T14:33:15Z</time>
      </trkpt>
      <trkpt lat="46.76101" lon="5.79472">
        <ele>627.4</ele>
        <time>2020-12-10T14:33:21Z</time>
      </trkpt>
      <trkpt lat="46.76096" lon="5.79472">
        <ele>627</ele>
        <time>2020-12-10T14:33:26Z</time>
      </trkpt>
      <trkpt lat="46.76091" lon="5.7947">
        <ele>626.9</ele>
        <time>2020-12-10T14:33:31Z</time>
      </trkpt>
      <trkpt lat="46.76086" lon="5.79468">
        <ele>626.8</ele>
        <time>2020-12-10T14:33:36Z</time>
      </trkpt>
      <trkpt lat="46.7608" lon="5.79466">
        <ele>626.9</ele>
        <time>2020-12-10T14:33:41Z</time>
      </trkpt>
      <trkpt lat="46.76076" lon="5.79464">
        <ele>626.9</ele>
        <time>2020-12-10T14:33:46Z</time>
      </trkpt>
      <trkpt lat="46.76072" lon="5.7946">
        <ele>626.7</ele>
        <time>2020-12-10T14:33:51Z</time>
      </trkpt>
      <trkpt lat="46.76067" lon="5.79457">
        <ele>626.5</ele>
        <time>2020-12-10T14:33:56Z</time>
      </trkpt>
      <trkpt lat="46.76062" lon="5.79453">
        <ele>626.5</ele>
        <time>2020-12-10T14:34:01Z</time>
      </trkpt>
      <trkpt lat="46.76056" lon="5.79449">
        <ele>626.9</ele>
        <time>2020-12-10T14:34:06Z</time>
      </trkpt>
      <trkpt lat="46.76051" lon="5.79446">
        <ele>627</ele>
        <time>2020-12-10T14:34:12Z</time>
      </trkpt>
      <trkpt lat="46.76047" lon="5.79444">
        <ele>627.1</ele>
        <time>2020-12-10T14:34:17Z</time>
      </trkpt>
      <trkpt lat="46.76042" lon="5.79442">
        <ele>626.4</ele>
        <time>2020-12-10T14:34:25Z</time>
      </trkpt>
      <trkpt lat="46.76034" lon="5.79446">
        <ele>627.1</ele>
        <time>2020-12-10T14:34:30Z</time>
      </trkpt>
      <trkpt lat="46.76028" lon="5.79449">
        <ele>628.4</ele>
        <time>2020-12-10T14:34:35Z</time>
      </trkpt>
      <trkpt lat="46.76023" lon="5.7945">
        <ele>630.3</ele>
        <time>2020-12-10T14:34:40Z</time>
      </trkpt>
      <trkpt lat="46.76018" lon="5.7945">
        <ele>633.2</ele>
        <time>2020-12-10T14:34:48Z</time>
      </trkpt>
      <trkpt lat="46.76013" lon="5.7945">
        <ele>634.4</ele>
        <time>2020-12-10T14:34:53Z</time>
      </trkpt>
      <trkpt lat="46.76008" lon="5.79448">
        <ele>635.3</ele>
        <time>2020-12-10T14:34:58Z</time>
      </trkpt>
      <trkpt lat="46.76001" lon="5.79448">
        <ele>635.6</ele>
        <time>2020-12-10T14:35:03Z</time>
      </trkpt>
      <trkpt lat="46.75995" lon="5.79449">
        <ele>635.5</ele>
        <time>2020-12-10T14:35:08Z</time>
      </trkpt>
      <trkpt lat="46.7599" lon="5.79448">
        <ele>635.2</ele>
        <time>2020-12-10T14:35:13Z</time>
      </trkpt>
      <trkpt lat="46.75984" lon="5.79447">
        <ele>634.8</ele>
        <time>2020-12-10T14:35:18Z</time>
      </trkpt>
      <trkpt lat="46.75978" lon="5.79447">
        <ele>634.2</ele>
        <time>2020-12-10T14:35:23Z</time>
      </trkpt>
      <trkpt lat="46.75972" lon="5.79446">
        <ele>633.5</ele>
        <time>2020-12-10T14:35:28Z</time>
      </trkpt>
      <trkpt lat="46.75968" lon="5.79444">
        <ele>632.8</ele>
        <time>2020-12-10T14:35:33Z</time>
      </trkpt>
      <trkpt lat="46.75963" lon="5.7944">
        <ele>631.8</ele>
        <time>2020-12-10T14:35:40Z</time>
      </trkpt>
      <trkpt lat="46.75959" lon="5.79437">
        <ele>630.6</ele>
        <time>2020-12-10T14:35:45Z</time>
      </trkpt>
      <trkpt lat="46.75954" lon="5.79435">
        <ele>629.5</ele>
        <time>2020-12-10T14:35:50Z</time>
      </trkpt>
      <trkpt lat="46.7595" lon="5.79433">
        <ele>628.3</ele>
        <time>2020-12-10T14:35:55Z</time>
      </trkpt>
      <trkpt lat="46.75944" lon="5.79433">
        <ele>627</ele>
        <time>2020-12-10T14:36:01Z</time>
      </trkpt>
      <trkpt lat="46.75939" lon="5.79431">
        <ele>626</ele>
        <time>2020-12-10T14:36:06Z</time>
      </trkpt>
      <trkpt lat="46.75935" lon="5.7943">
        <ele>624.8</ele>
        <time>2020-12-10T14:36:13Z</time>
      </trkpt>
      <trkpt lat="46.75932" lon="5.79424">
        <ele>623.7</ele>
        <time>2020-12-10T14:36:28Z</time>
      </trkpt>
      <trkpt lat="46.75928" lon="5.79423">
        <ele>622.3</ele>
        <time>2020-12-10T14:37:06Z</time>
      </trkpt>
      <trkpt lat="46.75923" lon="5.79424">
        <ele>622</ele>
        <time>2020-12-10T14:37:11Z</time>
      </trkpt>
      <trkpt lat="46.75918" lon="5.79426">
        <ele>621.5</ele>
        <time>2020-12-10T14:37:17Z</time>
      </trkpt>
      <trkpt lat="46.75913" lon="5.79425">
        <ele>620.8</ele>
        <time>2020-12-10T14:37:22Z</time>
      </trkpt>
      <trkpt lat="46.75907" lon="5.79424">
        <ele>620.6</ele>
        <time>2020-12-10T14:37:27Z</time>
      </trkpt>
      <trkpt lat="46.759" lon="5.79421">
        <ele>622.4</ele>
        <time>2020-12-10T14:37:32Z</time>
      </trkpt>
      <trkpt lat="46.75895" lon="5.7942">
        <ele>622.1</ele>
        <time>2020-12-10T14:37:40Z</time>
      </trkpt>
      <trkpt lat="46.7589" lon="5.79418">
        <ele>620.7</ele>
        <time>2020-12-10T14:37:48Z</time>
      </trkpt>
      <trkpt lat="46.75886" lon="5.79413">
        <ele>618.8</ele>
        <time>2020-12-10T14:37:54Z</time>
      </trkpt>
      <trkpt lat="46.75883" lon="5.79408">
        <ele>615.3</ele>
        <time>2020-12-10T14:38:03Z</time>
      </trkpt>
      <trkpt lat="46.75877" lon="5.79408">
        <ele>616.5</ele>
        <time>2020-12-10T14:38:09Z</time>
      </trkpt>
      <trkpt lat="46.75874" lon="5.79403">
        <ele>621.5</ele>
        <time>2020-12-10T14:38:19Z</time>
      </trkpt>
      <trkpt lat="46.75872" lon="5.79397">
        <ele>622.8</ele>
        <time>2020-12-10T14:38:25Z</time>
      </trkpt>
      <trkpt lat="46.75869" lon="5.79391">
        <ele>623.6</ele>
        <time>2020-12-10T14:38:32Z</time>
      </trkpt>
      <trkpt lat="46.75867" lon="5.79384">
        <ele>624.1</ele>
        <time>2020-12-10T14:38:37Z</time>
      </trkpt>
      <trkpt lat="46.75864" lon="5.79377">
        <ele>624.6</ele>
        <time>2020-12-10T14:38:42Z</time>
      </trkpt>
      <trkpt lat="46.75862" lon="5.79372">
        <ele>625.4</ele>
        <time>2020-12-10T14:38:48Z</time>
      </trkpt>
      <trkpt lat="46.75858" lon="5.79368">
        <ele>626.1</ele>
        <time>2020-12-10T14:38:54Z</time>
      </trkpt>
      <trkpt lat="46.75854" lon="5.79363">
        <ele>626.1</ele>
        <time>2020-12-10T14:38:59Z</time>
      </trkpt>
      <trkpt lat="46.7585" lon="5.79354">
        <ele>625.7</ele>
        <time>2020-12-10T14:39:04Z</time>
      </trkpt>
      <trkpt lat="46.75846" lon="5.79348">
        <ele>625.1</ele>
        <time>2020-12-10T14:39:09Z</time>
      </trkpt>
      <trkpt lat="46.75842" lon="5.79344">
        <ele>624.3</ele>
        <time>2020-12-10T14:39:14Z</time>
      </trkpt>
      <trkpt lat="46.75838" lon="5.7934">
        <ele>623.6</ele>
        <time>2020-12-10T14:39:19Z</time>
      </trkpt>
      <trkpt lat="46.75833" lon="5.79335">
        <ele>623.1</ele>
        <time>2020-12-10T14:39:24Z</time>
      </trkpt>
      <trkpt lat="46.7583" lon="5.7933">
        <ele>623.1</ele>
        <time>2020-12-10T14:39:29Z</time>
      </trkpt>
      <trkpt lat="46.75826" lon="5.79323">
        <ele>622.7</ele>
        <time>2020-12-10T14:39:34Z</time>
      </trkpt>
      <trkpt lat="46.75822" lon="5.79316">
        <ele>622</ele>
        <time>2020-12-10T14:39:39Z</time>
      </trkpt>
      <trkpt lat="46.75819" lon="5.79308">
        <ele>621.2</ele>
        <time>2020-12-10T14:39:44Z</time>
      </trkpt>
      <trkpt lat="46.75816" lon="5.79301">
        <ele>620.9</ele>
        <time>2020-12-10T14:39:49Z</time>
      </trkpt>
      <trkpt lat="46.75814" lon="5.79294">
        <ele>620.9</ele>
        <time>2020-12-10T14:39:54Z</time>
      </trkpt>
      <trkpt lat="46.75811" lon="5.79288">
        <ele>621</ele>
        <time>2020-12-10T14:39:59Z</time>
      </trkpt>
      <trkpt lat="46.75809" lon="5.79282">
        <ele>621.2</ele>
        <time>2020-12-10T14:40:05Z</time>
      </trkpt>
      <trkpt lat="46.75807" lon="5.79276">
        <ele>621.2</ele>
        <time>2020-12-10T14:40:10Z</time>
      </trkpt>
      <trkpt lat="46.75806" lon="5.79268">
        <ele>621.1</ele>
        <time>2020-12-10T14:40:15Z</time>
      </trkpt>
      <trkpt lat="46.75804" lon="5.79259">
        <ele>621</ele>
        <time>2020-12-10T14:40:20Z</time>
      </trkpt>
      <trkpt lat="46.75802" lon="5.7925">
        <ele>620.9</ele>
        <time>2020-12-10T14:40:25Z</time>
      </trkpt>
      <trkpt lat="46.75799" lon="5.79243">
        <ele>620.8</ele>
        <time>2020-12-10T14:40:30Z</time>
      </trkpt>
      <trkpt lat="46.75797" lon="5.79236">
        <ele>620.8</ele>
        <time>2020-12-10T14:40:35Z</time>
      </trkpt>
      <trkpt lat="46.75794" lon="5.79229">
        <ele>620.6</ele>
        <time>2020-12-10T14:40:40Z</time>
      </trkpt>
      <trkpt lat="46.75791" lon="5.79223">
        <ele>620.1</ele>
        <time>2020-12-10T14:40:45Z</time>
      </trkpt>
      <trkpt lat="46.75787" lon="5.79217">
        <ele>619.8</ele>
        <time>2020-12-10T14:40:50Z</time>
      </trkpt>
      <trkpt lat="46.75784" lon="5.79211">
        <ele>619.8</ele>
        <time>2020-12-10T14:40:56Z</time>
      </trkpt>
      <trkpt lat="46.7578" lon="5.79206">
        <ele>619.7</ele>
        <time>2020-12-10T14:41:01Z</time>
      </trkpt>
      <trkpt lat="46.75777" lon="5.792">
        <ele>619.9</ele>
        <time>2020-12-10T14:41:06Z</time>
      </trkpt>
      <trkpt lat="46.75773" lon="5.79193">
        <ele>620.4</ele>
        <time>2020-12-10T14:41:11Z</time>
      </trkpt>
      <trkpt lat="46.7577" lon="5.79187">
        <ele>620.8</ele>
        <time>2020-12-10T14:41:17Z</time>
      </trkpt>
      <trkpt lat="46.75766" lon="5.7918">
        <ele>620.8</ele>
        <time>2020-12-10T14:41:22Z</time>
      </trkpt>
      <trkpt lat="46.75764" lon="5.79173">
        <ele>620.6</ele>
        <time>2020-12-10T14:41:27Z</time>
      </trkpt>
      <trkpt lat="46.75761" lon="5.79168">
        <ele>620.4</ele>
        <time>2020-12-10T14:41:32Z</time>
      </trkpt>
      <trkpt lat="46.75756" lon="5.79163">
        <ele>620.2</ele>
        <time>2020-12-10T14:41:37Z</time>
      </trkpt>
      <trkpt lat="46.75752" lon="5.7916">
        <ele>619.9</ele>
        <time>2020-12-10T14:41:42Z</time>
      </trkpt>
      <trkpt lat="46.75747" lon="5.79158">
        <ele>619.5</ele>
        <time>2020-12-10T14:41:48Z</time>
      </trkpt>
      <trkpt lat="46.75742" lon="5.79154">
        <ele>619.1</ele>
        <time>2020-12-10T14:41:53Z</time>
      </trkpt>
      <trkpt lat="46.75738" lon="5.7915">
        <ele>618.6</ele>
        <time>2020-12-10T14:41:58Z</time>
      </trkpt>
      <trkpt lat="46.75734" lon="5.79146">
        <ele>618</ele>
        <time>2020-12-10T14:42:03Z</time>
      </trkpt>
      <trkpt lat="46.75728" lon="5.79143">
        <ele>617.5</ele>
        <time>2020-12-10T14:42:08Z</time>
      </trkpt>
      <trkpt lat="46.75722" lon="5.7914">
        <ele>617</ele>
        <time>2020-12-10T14:42:13Z</time>
      </trkpt>
      <trkpt lat="46.75716" lon="5.79138">
        <ele>616.5</ele>
        <time>2020-12-10T14:42:18Z</time>
      </trkpt>
      <trkpt lat="46.7571" lon="5.79135">
        <ele>616.4</ele>
        <time>2020-12-10T14:42:23Z</time>
      </trkpt>
      <trkpt lat="46.75704" lon="5.79132">
        <ele>616.4</ele>
        <time>2020-12-10T14:42:28Z</time>
      </trkpt>
      <trkpt lat="46.75698" lon="5.79131">
        <ele>616.6</ele>
        <time>2020-12-10T14:42:33Z</time>
      </trkpt>
      <trkpt lat="46.75693" lon="5.79129">
        <ele>616.2</ele>
        <time>2020-12-10T14:42:38Z</time>
      </trkpt>
      <trkpt lat="46.75688" lon="5.79125">
        <ele>615.4</ele>
        <time>2020-12-10T14:42:44Z</time>
      </trkpt>
      <trkpt lat="46.75683" lon="5.79124">
        <ele>615</ele>
        <time>2020-12-10T14:42:49Z</time>
      </trkpt>
      <trkpt lat="46.75678" lon="5.79124">
        <ele>614.6</ele>
        <time>2020-12-10T14:42:55Z</time>
      </trkpt>
      <trkpt lat="46.75673" lon="5.79123">
        <ele>614</ele>
        <time>2020-12-10T14:43:00Z</time>
      </trkpt>
      <trkpt lat="46.75668" lon="5.7912">
        <ele>613.4</ele>
        <time>2020-12-10T14:43:05Z</time>
      </trkpt>
      <trkpt lat="46.75657" lon="5.79121">
        <ele>615.5</ele>
        <time>2020-12-10T14:43:10Z</time>
      </trkpt>
      <trkpt lat="46.75652" lon="5.79119">
        <ele>616.9</ele>
        <time>2020-12-10T14:43:15Z</time>
      </trkpt>
      <trkpt lat="46.75648" lon="5.79115">
        <ele>617.1</ele>
        <time>2020-12-10T14:43:20Z</time>
      </trkpt>
      <trkpt lat="46.75644" lon="5.79111">
        <ele>616.7</ele>
        <time>2020-12-10T14:43:25Z</time>
      </trkpt>
      <trkpt lat="46.75636" lon="5.79109">
        <ele>618.1</ele>
        <time>2020-12-10T14:43:30Z</time>
      </trkpt>
      <trkpt lat="46.75631" lon="5.79105">
        <ele>619.2</ele>
        <time>2020-12-10T14:43:36Z</time>
      </trkpt>
      <trkpt lat="46.75627" lon="5.79102">
        <ele>619.3</ele>
        <time>2020-12-10T14:43:42Z</time>
      </trkpt>
      <trkpt lat="46.75623" lon="5.79099">
        <ele>619.2</ele>
        <time>2020-12-10T14:43:47Z</time>
      </trkpt>
      <trkpt lat="46.75615" lon="5.79096">
        <ele>620.5</ele>
        <time>2020-12-10T14:43:52Z</time>
      </trkpt>
      <trkpt lat="46.75608" lon="5.79092">
        <ele>622</ele>
        <time>2020-12-10T14:43:57Z</time>
      </trkpt>
      <trkpt lat="46.75605" lon="5.79088">
        <ele>622.8</ele>
        <time>2020-12-10T14:44:02Z</time>
      </trkpt>
      <trkpt lat="46.75602" lon="5.79082">
        <ele>623.2</ele>
        <time>2020-12-10T14:44:07Z</time>
      </trkpt>
      <trkpt lat="46.75599" lon="5.79076">
        <ele>623.4</ele>
        <time>2020-12-10T14:44:13Z</time>
      </trkpt>
      <trkpt lat="46.75596" lon="5.79071">
        <ele>622.9</ele>
        <time>2020-12-10T14:44:19Z</time>
      </trkpt>
      <trkpt lat="46.75591" lon="5.79066">
        <ele>622.4</ele>
        <time>2020-12-10T14:44:24Z</time>
      </trkpt>
      <trkpt lat="46.75582" lon="5.79066">
        <ele>624.5</ele>
        <time>2020-12-10T14:44:29Z</time>
      </trkpt>
      <trkpt lat="46.75576" lon="5.79062">
        <ele>625.4</ele>
        <time>2020-12-10T14:44:34Z</time>
      </trkpt>
      <trkpt lat="46.75573" lon="5.79057">
        <ele>625.2</ele>
        <time>2020-12-10T14:44:39Z</time>
      </trkpt>
      <trkpt lat="46.75568" lon="5.79051">
        <ele>624.7</ele>
        <time>2020-12-10T14:44:44Z</time>
      </trkpt>
      <trkpt lat="46.75564" lon="5.79046">
        <ele>624</ele>
        <time>2020-12-10T14:44:49Z</time>
      </trkpt>
      <trkpt lat="46.7556" lon="5.79042">
        <ele>623.2</ele>
        <time>2020-12-10T14:44:55Z</time>
      </trkpt>
      <trkpt lat="46.75556" lon="5.79037">
        <ele>622.4</ele>
        <time>2020-12-10T14:45:00Z</time>
      </trkpt>
      <trkpt lat="46.75553" lon="5.79031">
        <ele>621.7</ele>
        <time>2020-12-10T14:45:05Z</time>
      </trkpt>
      <trkpt lat="46.75549" lon="5.79026">
        <ele>621</ele>
        <time>2020-12-10T14:45:10Z</time>
      </trkpt>
      <trkpt lat="46.75545" lon="5.79021">
        <ele>620.3</ele>
        <time>2020-12-10T14:45:15Z</time>
      </trkpt>
      <trkpt lat="46.7554" lon="5.79017">
        <ele>619.7</ele>
        <time>2020-12-10T14:45:20Z</time>
      </trkpt>
      <trkpt lat="46.75536" lon="5.79012">
        <ele>619.1</ele>
        <time>2020-12-10T14:45:25Z</time>
      </trkpt>
      <trkpt lat="46.75532" lon="5.79009">
        <ele>618.8</ele>
        <time>2020-12-10T14:45:30Z</time>
      </trkpt>
      <trkpt lat="46.75528" lon="5.79005">
        <ele>619.3</ele>
        <time>2020-12-10T14:45:35Z</time>
      </trkpt>
      <trkpt lat="46.75525" lon="5.78999">
        <ele>619.8</ele>
        <time>2020-12-10T14:45:40Z</time>
      </trkpt>
      <trkpt lat="46.75521" lon="5.78993">
        <ele>619.8</ele>
        <time>2020-12-10T14:45:45Z</time>
      </trkpt>
      <trkpt lat="46.75517" lon="5.78988">
        <ele>619.7</ele>
        <time>2020-12-10T14:45:51Z</time>
      </trkpt>
      <trkpt lat="46.75514" lon="5.78983">
        <ele>619.5</ele>
        <time>2020-12-10T14:45:56Z</time>
      </trkpt>
      <trkpt lat="46.75509" lon="5.78979">
        <ele>619.2</ele>
        <time>2020-12-10T14:46:01Z</time>
      </trkpt>
      <trkpt lat="46.75502" lon="5.78976">
        <ele>618.9</ele>
        <time>2020-12-10T14:46:06Z</time>
      </trkpt>
      <trkpt lat="46.75492" lon="5.78976">
        <ele>621.8</ele>
        <time>2020-12-10T14:46:11Z</time>
      </trkpt>
      <trkpt lat="46.75486" lon="5.78975">
        <ele>623.5</ele>
        <time>2020-12-10T14:46:16Z</time>
      </trkpt>
      <trkpt lat="46.75482" lon="5.78972">
        <ele>625</ele>
        <time>2020-12-10T14:46:22Z</time>
      </trkpt>
      <trkpt lat="46.75478" lon="5.78969">
        <ele>626.2</ele>
        <time>2020-12-10T14:46:29Z</time>
      </trkpt>
      <trkpt lat="46.75475" lon="5.78963">
        <ele>626.7</ele>
        <time>2020-12-10T14:46:36Z</time>
      </trkpt>
      <trkpt lat="46.75472" lon="5.78958">
        <ele>626.5</ele>
        <time>2020-12-10T14:46:43Z</time>
      </trkpt>
      <trkpt lat="46.75469" lon="5.78953">
        <ele>625.1</ele>
        <time>2020-12-10T14:46:59Z</time>
      </trkpt>
      <trkpt lat="46.75459" lon="5.78954">
        <ele>624.3</ele>
        <time>2020-12-10T14:47:04Z</time>
      </trkpt>
      <trkpt lat="46.75454" lon="5.78953">
        <ele>623.3</ele>
        <time>2020-12-10T14:47:14Z</time>
      </trkpt>
      <trkpt lat="46.7545" lon="5.78955">
        <ele>622.5</ele>
        <time>2020-12-10T14:47:23Z</time>
      </trkpt>
      <trkpt lat="46.75445" lon="5.78961">
        <ele>621.3</ele>
        <time>2020-12-10T14:47:55Z</time>
      </trkpt>
      <trkpt lat="46.75442" lon="5.78967">
        <ele>620.3</ele>
        <time>2020-12-10T14:48:00Z</time>
      </trkpt>
      <trkpt lat="46.75438" lon="5.78973">
        <ele>619.6</ele>
        <time>2020-12-10T14:48:05Z</time>
      </trkpt>
      <trkpt lat="46.75436" lon="5.78985">
        <ele>623.6</ele>
        <time>2020-12-10T14:48:10Z</time>
      </trkpt>
      <trkpt lat="46.75434" lon="5.78992">
        <ele>626.4</ele>
        <time>2020-12-10T14:48:27Z</time>
      </trkpt>
      <trkpt lat="46.75432" lon="5.78998">
        <ele>625.5</ele>
        <time>2020-12-10T14:48:34Z</time>
      </trkpt>
      <trkpt lat="46.75429" lon="5.79006">
        <ele>622.8</ele>
        <time>2020-12-10T14:49:15Z</time>
      </trkpt>
      <trkpt lat="46.75426" lon="5.79016">
        <ele>621.8</ele>
        <time>2020-12-10T14:49:31Z</time>
      </trkpt>
      <trkpt lat="46.75421" lon="5.79025">
        <ele>621.3</ele>
        <time>2020-12-10T14:49:36Z</time>
      </trkpt>
      <trkpt lat="46.75417" lon="5.79036">
        <ele>620.3</ele>
        <time>2020-12-10T14:49:41Z</time>
      </trkpt>
      <trkpt lat="46.75415" lon="5.79043">
        <ele>619.5</ele>
        <time>2020-12-10T14:49:46Z</time>
      </trkpt>
      <trkpt lat="46.75413" lon="5.7905">
        <ele>617.9</ele>
        <time>2020-12-10T14:50:01Z</time>
      </trkpt>
      <trkpt lat="46.75411" lon="5.79056">
        <ele>617.2</ele>
        <time>2020-12-10T14:50:10Z</time>
      </trkpt>
      <trkpt lat="46.75408" lon="5.79062">
        <ele>616.5</ele>
        <time>2020-12-10T14:50:17Z</time>
      </trkpt>
      <trkpt lat="46.75406" lon="5.79069">
        <ele>615.6</ele>
        <time>2020-12-10T14:50:23Z</time>
      </trkpt>
      <trkpt lat="46.75404" lon="5.79075">
        <ele>614</ele>
        <time>2020-12-10T14:50:28Z</time>
      </trkpt>
      <trkpt lat="46.75399" lon="5.7908">
        <ele>611.4</ele>
        <time>2020-12-10T14:50:36Z</time>
      </trkpt>
      <trkpt lat="46.75397" lon="5.79087">
        <ele>608.8</ele>
        <time>2020-12-10T14:50:44Z</time>
      </trkpt>
      <trkpt lat="46.754" lon="5.79094">
        <ele>606.8</ele>
        <time>2020-12-10T14:50:52Z</time>
      </trkpt>
      <trkpt lat="46.75402" lon="5.791">
        <ele>605.6</ele>
        <time>2020-12-10T14:50:58Z</time>
      </trkpt>
      <trkpt lat="46.75402" lon="5.79107">
        <ele>605.7</ele>
        <time>2020-12-10T14:51:04Z</time>
      </trkpt>
      <trkpt lat="46.75402" lon="5.79114">
        <ele>606.3</ele>
        <time>2020-12-10T14:51:11Z</time>
      </trkpt>
      <trkpt lat="46.75404" lon="5.79121">
        <ele>605.8</ele>
        <time>2020-12-10T14:51:23Z</time>
      </trkpt>
      <trkpt lat="46.75406" lon="5.79127">
        <ele>604.9</ele>
        <time>2020-12-10T14:51:30Z</time>
      </trkpt>
      <trkpt lat="46.75408" lon="5.79139">
        <ele>604.3</ele>
        <time>2020-12-10T14:51:35Z</time>
      </trkpt>
      <trkpt lat="46.75409" lon="5.79145">
        <ele>603.4</ele>
        <time>2020-12-10T14:51:42Z</time>
      </trkpt>
      <trkpt lat="46.75411" lon="5.79155">
        <ele>602.5</ele>
        <time>2020-12-10T14:51:52Z</time>
      </trkpt>
      <trkpt lat="46.75413" lon="5.79162">
        <ele>602.5</ele>
        <time>2020-12-10T14:51:57Z</time>
      </trkpt>
      <trkpt lat="46.75415" lon="5.79172">
        <ele>603</ele>
        <time>2020-12-10T14:52:02Z</time>
      </trkpt>
      <trkpt lat="46.75416" lon="5.79178">
        <ele>602.9</ele>
        <time>2020-12-10T14:52:10Z</time>
      </trkpt>
      <trkpt lat="46.7542" lon="5.79185">
        <ele>601.9</ele>
        <time>2020-12-10T14:52:32Z</time>
      </trkpt>
      <trkpt lat="46.75424" lon="5.79191">
        <ele>601.3</ele>
        <time>2020-12-10T14:52:37Z</time>
      </trkpt>
      <trkpt lat="46.75425" lon="5.79198">
        <ele>600.5</ele>
        <time>2020-12-10T14:52:43Z</time>
      </trkpt>
      <trkpt lat="46.75426" lon="5.79204">
        <ele>599.6</ele>
        <time>2020-12-10T14:52:50Z</time>
      </trkpt>
      <trkpt lat="46.75429" lon="5.79211">
        <ele>597.8</ele>
        <time>2020-12-10T14:53:05Z</time>
      </trkpt>
      <trkpt lat="46.75431" lon="5.79218">
        <ele>596.5</ele>
        <time>2020-12-10T14:53:11Z</time>
      </trkpt>
      <trkpt lat="46.75434" lon="5.79224">
        <ele>595.2</ele>
        <time>2020-12-10T14:53:17Z</time>
      </trkpt>
      <trkpt lat="46.75437" lon="5.7923">
        <ele>593.8</ele>
        <time>2020-12-10T14:53:23Z</time>
      </trkpt>
      <trkpt lat="46.75438" lon="5.79236">
        <ele>591.8</ele>
        <time>2020-12-10T14:53:30Z</time>
      </trkpt>
      <trkpt lat="46.7544" lon="5.79246">
        <ele>588.7</ele>
        <time>2020-12-10T14:53:43Z</time>
      </trkpt>
      <trkpt lat="46.75441" lon="5.79256">
        <ele>587.2</ele>
        <time>2020-12-10T14:53:48Z</time>
      </trkpt>
      <trkpt lat="46.75442" lon="5.79263">
        <ele>585.7</ele>
        <time>2020-12-10T14:53:54Z</time>
      </trkpt>
      <trkpt lat="46.75443" lon="5.7927">
        <ele>584.3</ele>
        <time>2020-12-10T14:54:02Z</time>
      </trkpt>
      <trkpt lat="46.75443" lon="5.79278">
        <ele>582.9</ele>
        <time>2020-12-10T14:54:11Z</time>
      </trkpt>
      <trkpt lat="46.75443" lon="5.79287">
        <ele>581.6</ele>
        <time>2020-12-10T14:54:16Z</time>
      </trkpt>
      <trkpt lat="46.75445" lon="5.79294">
        <ele>580.2</ele>
        <time>2020-12-10T14:54:22Z</time>
      </trkpt>
      <trkpt lat="46.75448" lon="5.79301">
        <ele>578.9</ele>
        <time>2020-12-10T14:54:28Z</time>
      </trkpt>
      <trkpt lat="46.7545" lon="5.79307">
        <ele>577.7</ele>
        <time>2020-12-10T14:54:34Z</time>
      </trkpt>
      <trkpt lat="46.75451" lon="5.79314">
        <ele>576.6</ele>
        <time>2020-12-10T14:54:41Z</time>
      </trkpt>
      <trkpt lat="46.75451" lon="5.79321">
        <ele>574.9</ele>
        <time>2020-12-10T14:54:48Z</time>
      </trkpt>
      <trkpt lat="46.75452" lon="5.79329">
        <ele>573.4</ele>
        <time>2020-12-10T14:54:54Z</time>
      </trkpt>
      <trkpt lat="46.75453" lon="5.79338">
        <ele>573.6</ele>
        <time>2020-12-10T14:54:59Z</time>
      </trkpt>
      <trkpt lat="46.75453" lon="5.79345">
        <ele>574.2</ele>
        <time>2020-12-10T14:55:04Z</time>
      </trkpt>
      <trkpt lat="46.75455" lon="5.79351">
        <ele>574.6</ele>
        <time>2020-12-10T14:55:12Z</time>
      </trkpt>
      <trkpt lat="46.75458" lon="5.79358">
        <ele>573.6</ele>
        <time>2020-12-10T14:55:22Z</time>
      </trkpt>
      <trkpt lat="46.75461" lon="5.79364">
        <ele>571.5</ele>
        <time>2020-12-10T14:55:29Z</time>
      </trkpt>
      <trkpt lat="46.75463" lon="5.7937">
        <ele>569</ele>
        <time>2020-12-10T14:55:38Z</time>
      </trkpt>
      <trkpt lat="46.75464" lon="5.79385">
        <ele>566.1</ele>
        <time>2020-12-10T14:55:51Z</time>
      </trkpt>
      <trkpt lat="46.75465" lon="5.79396">
        <ele>565.6</ele>
        <time>2020-12-10T14:55:56Z</time>
      </trkpt>
      <trkpt lat="46.75467" lon="5.79402">
        <ele>564.1</ele>
        <time>2020-12-10T14:56:07Z</time>
      </trkpt>
      <trkpt lat="46.75469" lon="5.79409">
        <ele>562.7</ele>
        <time>2020-12-10T14:56:19Z</time>
      </trkpt>
      <trkpt lat="46.75473" lon="5.79414">
        <ele>561.5</ele>
        <time>2020-12-10T14:56:27Z</time>
      </trkpt>
      <trkpt lat="46.75475" lon="5.79419">
        <ele>560.6</ele>
        <time>2020-12-10T14:56:33Z</time>
      </trkpt>
      <trkpt lat="46.75479" lon="5.79424">
        <ele>559.3</ele>
        <time>2020-12-10T14:56:40Z</time>
      </trkpt>
      <trkpt lat="46.75483" lon="5.79436">
        <ele>560.5</ele>
        <time>2020-12-10T14:56:45Z</time>
      </trkpt>
      <trkpt lat="46.75485" lon="5.79442">
        <ele>561</ele>
        <time>2020-12-10T14:56:50Z</time>
      </trkpt>
      <trkpt lat="46.75488" lon="5.79447">
        <ele>560.7</ele>
        <time>2020-12-10T14:56:57Z</time>
      </trkpt>
      <trkpt lat="46.75491" lon="5.79453">
        <ele>559.6</ele>
        <time>2020-12-10T14:57:04Z</time>
      </trkpt>
      <trkpt lat="46.75494" lon="5.79458">
        <ele>558.8</ele>
        <time>2020-12-10T14:57:09Z</time>
      </trkpt>
      <trkpt lat="46.75497" lon="5.79464">
        <ele>557.6</ele>
        <time>2020-12-10T14:57:15Z</time>
      </trkpt>
      <trkpt lat="46.75499" lon="5.7947">
        <ele>556.6</ele>
        <time>2020-12-10T14:57:20Z</time>
      </trkpt>
      <trkpt lat="46.755" lon="5.79478">
        <ele>555.5</ele>
        <time>2020-12-10T14:57:26Z</time>
      </trkpt>
      <trkpt lat="46.75502" lon="5.79485">
        <ele>554.1</ele>
        <time>2020-12-10T14:57:33Z</time>
      </trkpt>
      <trkpt lat="46.75504" lon="5.7949">
        <ele>552.6</ele>
        <time>2020-12-10T14:57:40Z</time>
      </trkpt>
      <trkpt lat="46.75507" lon="5.79496">
        <ele>551.1</ele>
        <time>2020-12-10T14:57:46Z</time>
      </trkpt>
      <trkpt lat="46.75511" lon="5.79499">
        <ele>549.7</ele>
        <time>2020-12-10T14:57:52Z</time>
      </trkpt>
      <trkpt lat="46.75515" lon="5.79503">
        <ele>547.8</ele>
        <time>2020-12-10T14:58:02Z</time>
      </trkpt>
      <trkpt lat="46.75517" lon="5.79509">
        <ele>546.6</ele>
        <time>2020-12-10T14:58:09Z</time>
      </trkpt>
      <trkpt lat="46.7552" lon="5.79515">
        <ele>545.9</ele>
        <time>2020-12-10T14:58:16Z</time>
      </trkpt>
      <trkpt lat="46.75521" lon="5.79523">
        <ele>545.2</ele>
        <time>2020-12-10T14:58:22Z</time>
      </trkpt>
      <trkpt lat="46.75522" lon="5.7953">
        <ele>544.5</ele>
        <time>2020-12-10T14:58:27Z</time>
      </trkpt>
      <trkpt lat="46.75524" lon="5.79537">
        <ele>543.4</ele>
        <time>2020-12-10T14:58:32Z</time>
      </trkpt>
      <trkpt lat="46.75526" lon="5.79544">
        <ele>541.9</ele>
        <time>2020-12-10T14:58:41Z</time>
      </trkpt>
      <trkpt lat="46.75528" lon="5.79551">
        <ele>540.6</ele>
        <time>2020-12-10T14:58:48Z</time>
      </trkpt>
      <trkpt lat="46.75529" lon="5.79558">
        <ele>538.7</ele>
        <time>2020-12-10T14:58:55Z</time>
      </trkpt>
      <trkpt lat="46.75529" lon="5.79574">
        <ele>539.8</ele>
        <time>2020-12-10T14:59:00Z</time>
      </trkpt>
      <trkpt lat="46.75529" lon="5.79585">
        <ele>541.4</ele>
        <time>2020-12-10T14:59:05Z</time>
      </trkpt>
      <trkpt lat="46.75532" lon="5.79591">
        <ele>542</ele>
        <time>2020-12-10T14:59:13Z</time>
      </trkpt>
      <trkpt lat="46.75533" lon="5.79598">
        <ele>541.2</ele>
        <time>2020-12-10T14:59:20Z</time>
      </trkpt>
      <trkpt lat="46.75535" lon="5.79605">
        <ele>540.1</ele>
        <time>2020-12-10T14:59:26Z</time>
      </trkpt>
      <trkpt lat="46.75538" lon="5.79611">
        <ele>538.8</ele>
        <time>2020-12-10T14:59:31Z</time>
      </trkpt>
      <trkpt lat="46.75541" lon="5.79617">
        <ele>537.1</ele>
        <time>2020-12-10T14:59:37Z</time>
      </trkpt>
      <trkpt lat="46.75542" lon="5.79624">
        <ele>535.1</ele>
        <time>2020-12-10T14:59:43Z</time>
      </trkpt>
      <trkpt lat="46.75544" lon="5.7963">
        <ele>533.4</ele>
        <time>2020-12-10T14:59:48Z</time>
      </trkpt>
      <trkpt lat="46.75546" lon="5.79636">
        <ele>531.5</ele>
        <time>2020-12-10T14:59:54Z</time>
      </trkpt>
      <trkpt lat="46.75549" lon="5.79643">
        <ele>529.7</ele>
        <time>2020-12-10T15:00:00Z</time>
      </trkpt>
      <trkpt lat="46.7555" lon="5.7965">
        <ele>527.9</ele>
        <time>2020-12-10T15:00:07Z</time>
      </trkpt>
      <trkpt lat="46.7555" lon="5.79662">
        <ele>529.1</ele>
        <time>2020-12-10T15:00:12Z</time>
      </trkpt>
      <trkpt lat="46.75553" lon="5.79668">
        <ele>529.7</ele>
        <time>2020-12-10T15:00:18Z</time>
      </trkpt>
      <trkpt lat="46.75555" lon="5.79682">
        <ele>529.7</ele>
        <time>2020-12-10T15:00:23Z</time>
      </trkpt>
      <trkpt lat="46.75558" lon="5.79689">
        <ele>529.4</ele>
        <time>2020-12-10T15:00:28Z</time>
      </trkpt>
      <trkpt lat="46.75563" lon="5.79693">
        <ele>528.8</ele>
        <time>2020-12-10T15:00:34Z</time>
      </trkpt>
      <trkpt lat="46.75567" lon="5.79697">
        <ele>528.3</ele>
        <time>2020-12-10T15:00:39Z</time>
      </trkpt>
      <trkpt lat="46.7557" lon="5.79703">
        <ele>527.4</ele>
        <time>2020-12-10T15:00:44Z</time>
      </trkpt>
      <trkpt lat="46.75574" lon="5.79706">
        <ele>526.2</ele>
        <time>2020-12-10T15:00:50Z</time>
      </trkpt>
      <trkpt lat="46.75578" lon="5.79708">
        <ele>524.7</ele>
        <time>2020-12-10T15:00:57Z</time>
      </trkpt>
      <trkpt lat="46.75582" lon="5.79712">
        <ele>523.2</ele>
        <time>2020-12-10T15:01:04Z</time>
      </trkpt>
      <trkpt lat="46.75587" lon="5.79715">
        <ele>521.7</ele>
        <time>2020-12-10T15:01:11Z</time>
      </trkpt>
      <trkpt lat="46.75592" lon="5.79717">
        <ele>520.7</ele>
        <time>2020-12-10T15:01:16Z</time>
      </trkpt>
      <trkpt lat="46.75597" lon="5.79719">
        <ele>519.8</ele>
        <time>2020-12-10T15:01:21Z</time>
      </trkpt>
      <trkpt lat="46.75606" lon="5.79736">
        <ele>525.2</ele>
        <time>2020-12-10T15:01:26Z</time>
      </trkpt>
      <trkpt lat="46.7561" lon="5.79741">
        <ele>528</ele>
        <time>2020-12-10T15:01:31Z</time>
      </trkpt>
      <trkpt lat="46.75615" lon="5.79743">
        <ele>528.8</ele>
        <time>2020-12-10T15:01:37Z</time>
      </trkpt>
      <trkpt lat="46.75619" lon="5.79744">
        <ele>528.4</ele>
        <time>2020-12-10T15:01:42Z</time>
      </trkpt>
      <trkpt lat="46.75623" lon="5.79749">
        <ele>527.7</ele>
        <time>2020-12-10T15:01:48Z</time>
      </trkpt>
      <trkpt lat="46.75627" lon="5.79752">
        <ele>526.9</ele>
        <time>2020-12-10T15:01:53Z</time>
      </trkpt>
      <trkpt lat="46.75632" lon="5.79755">
        <ele>525.9</ele>
        <time>2020-12-10T15:01:59Z</time>
      </trkpt>
      <trkpt lat="46.75638" lon="5.79763">
        <ele>525.7</ele>
        <time>2020-12-10T15:02:04Z</time>
      </trkpt>
      <trkpt lat="46.75644" lon="5.79769">
        <ele>525.6</ele>
        <time>2020-12-10T15:02:09Z</time>
      </trkpt>
      <trkpt lat="46.75648" lon="5.79773">
        <ele>525.1</ele>
        <time>2020-12-10T15:02:14Z</time>
      </trkpt>
      <trkpt lat="46.75653" lon="5.79776">
        <ele>524.3</ele>
        <time>2020-12-10T15:02:21Z</time>
      </trkpt>
      <trkpt lat="46.75657" lon="5.79778">
        <ele>523.6</ele>
        <time>2020-12-10T15:02:26Z</time>
      </trkpt>
      <trkpt lat="46.75661" lon="5.79781">
        <ele>522.8</ele>
        <time>2020-12-10T15:02:31Z</time>
      </trkpt>
      <trkpt lat="46.75665" lon="5.79784">
        <ele>522.1</ele>
        <time>2020-12-10T15:02:36Z</time>
      </trkpt>
      <trkpt lat="46.7567" lon="5.79788">
        <ele>521.4</ele>
        <time>2020-12-10T15:02:41Z</time>
      </trkpt>
      <trkpt lat="46.75679" lon="5.79797">
        <ele>521.8</ele>
        <time>2020-12-10T15:02:46Z</time>
      </trkpt>
      <trkpt lat="46.75685" lon="5.79801">
        <ele>522.3</ele>
        <time>2020-12-10T15:02:51Z</time>
      </trkpt>
      <trkpt lat="46.75689" lon="5.79804">
        <ele>521.8</ele>
        <time>2020-12-10T15:02:58Z</time>
      </trkpt>
      <trkpt lat="46.75694" lon="5.79814">
        <ele>522.8</ele>
        <time>2020-12-10T15:03:03Z</time>
      </trkpt>
      <trkpt lat="46.75698" lon="5.79819">
        <ele>522.5</ele>
        <time>2020-12-10T15:03:09Z</time>
      </trkpt>
      <trkpt lat="46.75703" lon="5.79821">
        <ele>521.8</ele>
        <time>2020-12-10T15:03:14Z</time>
      </trkpt>
      <trkpt lat="46.75707" lon="5.79823">
        <ele>520.7</ele>
        <time>2020-12-10T15:03:19Z</time>
      </trkpt>
      <trkpt lat="46.75712" lon="5.79825">
        <ele>519.5</ele>
        <time>2020-12-10T15:03:25Z</time>
      </trkpt>
      <trkpt lat="46.75717" lon="5.79827">
        <ele>519</ele>
        <time>2020-12-10T15:03:30Z</time>
      </trkpt>
      <trkpt lat="46.75722" lon="5.7983">
        <ele>519</ele>
        <time>2020-12-10T15:03:37Z</time>
      </trkpt>
      <trkpt lat="46.75726" lon="5.79834">
        <ele>519</ele>
        <time>2020-12-10T15:03:42Z</time>
      </trkpt>
      <trkpt lat="46.75733" lon="5.79846">
        <ele>521.8</ele>
        <time>2020-12-10T15:03:47Z</time>
      </trkpt>
      <trkpt lat="46.75737" lon="5.79851">
        <ele>523.6</ele>
        <time>2020-12-10T15:03:54Z</time>
      </trkpt>
      <trkpt lat="46.7574" lon="5.79861">
        <ele>525</ele>
        <time>2020-12-10T15:03:59Z</time>
      </trkpt>
      <trkpt lat="46.75744" lon="5.79869">
        <ele>527</ele>
        <time>2020-12-10T15:04:04Z</time>
      </trkpt>
      <trkpt lat="46.75748" lon="5.79877">
        <ele>528.5</ele>
        <time>2020-12-10T15:04:09Z</time>
      </trkpt>
      <trkpt lat="46.75752" lon="5.79881">
        <ele>529.8</ele>
        <time>2020-12-10T15:04:18Z</time>
      </trkpt>
      <trkpt lat="46.75755" lon="5.79887">
        <ele>530</ele>
        <time>2020-12-10T15:04:25Z</time>
      </trkpt>
      <trkpt lat="46.75758" lon="5.79892">
        <ele>529.9</ele>
        <time>2020-12-10T15:04:33Z</time>
      </trkpt>
      <trkpt lat="46.75763" lon="5.79896">
        <ele>529.7</ele>
        <time>2020-12-10T15:04:39Z</time>
      </trkpt>
      <trkpt lat="46.75767" lon="5.79902">
        <ele>529.3</ele>
        <time>2020-12-10T15:04:44Z</time>
      </trkpt>
      <trkpt lat="46.75772" lon="5.79906">
        <ele>525.6</ele>
        <time>2020-12-10T15:04:55Z</time>
      </trkpt>
      <trkpt lat="46.75776" lon="5.79916">
        <ele>524.9</ele>
        <time>2020-12-10T15:05:00Z</time>
      </trkpt>
      <trkpt lat="46.75779" lon="5.79924">
        <ele>524.4</ele>
        <time>2020-12-10T15:05:05Z</time>
      </trkpt>
      <trkpt lat="46.75782" lon="5.7993">
        <ele>522.4</ele>
        <time>2020-12-10T15:05:12Z</time>
      </trkpt>
      <trkpt lat="46.75786" lon="5.79934">
        <ele>520.7</ele>
        <time>2020-12-10T15:05:17Z</time>
      </trkpt>
      <trkpt lat="46.75791" lon="5.79938">
        <ele>519</ele>
        <time>2020-12-10T15:05:22Z</time>
      </trkpt>
      <trkpt lat="46.75796" lon="5.79942">
        <ele>517.6</ele>
        <time>2020-12-10T15:05:27Z</time>
      </trkpt>
      <trkpt lat="46.75801" lon="5.79946">
        <ele>516.5</ele>
        <time>2020-12-10T15:05:32Z</time>
      </trkpt>
      <trkpt lat="46.75806" lon="5.79951">
        <ele>515.1</ele>
        <time>2020-12-10T15:05:37Z</time>
      </trkpt>
      <trkpt lat="46.7581" lon="5.79955">
        <ele>513.6</ele>
        <time>2020-12-10T15:05:42Z</time>
      </trkpt>
      <trkpt lat="46.75815" lon="5.79958">
        <ele>512.2</ele>
        <time>2020-12-10T15:05:47Z</time>
      </trkpt>
      <trkpt lat="46.7582" lon="5.79965">
        <ele>513.3</ele>
        <time>2020-12-10T15:05:52Z</time>
      </trkpt>
      <trkpt lat="46.75826" lon="5.79968">
        <ele>514.3</ele>
        <time>2020-12-10T15:05:57Z</time>
      </trkpt>
      <trkpt lat="46.75831" lon="5.79976">
        <ele>518</ele>
        <time>2020-12-10T15:06:02Z</time>
      </trkpt>
      <trkpt lat="46.75836" lon="5.79978">
        <ele>519</ele>
        <time>2020-12-10T15:06:07Z</time>
      </trkpt>
      <trkpt lat="46.75841" lon="5.79979">
        <ele>519.2</ele>
        <time>2020-12-10T15:06:12Z</time>
      </trkpt>
      <trkpt lat="46.75845" lon="5.79981">
        <ele>518.2</ele>
        <time>2020-12-10T15:06:22Z</time>
      </trkpt>
      <trkpt lat="46.7585" lon="5.79982">
        <ele>517.1</ele>
        <time>2020-12-10T15:06:29Z</time>
      </trkpt>
      <trkpt lat="46.75855" lon="5.79982">
        <ele>516.3</ele>
        <time>2020-12-10T15:06:34Z</time>
      </trkpt>
      <trkpt lat="46.75861" lon="5.79984">
        <ele>515.2</ele>
        <time>2020-12-10T15:06:40Z</time>
      </trkpt>
      <trkpt lat="46.75868" lon="5.79994">
        <ele>518.3</ele>
        <time>2020-12-10T15:06:45Z</time>
      </trkpt>
      <trkpt lat="46.75873" lon="5.79995">
        <ele>519.6</ele>
        <time>2020-12-10T15:06:50Z</time>
      </trkpt>
      <trkpt lat="46.75878" lon="5.79996">
        <ele>519.7</ele>
        <time>2020-12-10T15:06:55Z</time>
      </trkpt>
      <trkpt lat="46.75883" lon="5.79997">
        <ele>519.3</ele>
        <time>2020-12-10T15:07:00Z</time>
      </trkpt>
      <trkpt lat="46.75888" lon="5.79999">
        <ele>518.7</ele>
        <time>2020-12-10T15:07:05Z</time>
      </trkpt>
      <trkpt lat="46.75893" lon="5.80002">
        <ele>518.1</ele>
        <time>2020-12-10T15:07:10Z</time>
      </trkpt>
      <trkpt lat="46.75899" lon="5.8001">
        <ele>520</ele>
        <time>2020-12-10T15:07:15Z</time>
      </trkpt>
      <trkpt lat="46.75904" lon="5.80015">
        <ele>521.7</ele>
        <time>2020-12-10T15:07:20Z</time>
      </trkpt>
      <trkpt lat="46.75908" lon="5.80016">
        <ele>522.1</ele>
        <time>2020-12-10T15:07:28Z</time>
      </trkpt>
      <trkpt lat="46.75913" lon="5.80018">
        <ele>521.4</ele>
        <time>2020-12-10T15:07:35Z</time>
      </trkpt>
      <trkpt lat="46.75917" lon="5.80022">
        <ele>520.3</ele>
        <time>2020-12-10T15:07:41Z</time>
      </trkpt>
      <trkpt lat="46.75921" lon="5.80031">
        <ele>520.9</ele>
        <time>2020-12-10T15:07:46Z</time>
      </trkpt>
      <trkpt lat="46.75925" lon="5.80037">
        <ele>521.8</ele>
        <time>2020-12-10T15:07:51Z</time>
      </trkpt>
      <trkpt lat="46.75929" lon="5.80039">
        <ele>521.8</ele>
        <time>2020-12-10T15:07:59Z</time>
      </trkpt>
      <trkpt lat="46.75934" lon="5.8005">
        <ele>522.6</ele>
        <time>2020-12-10T15:08:04Z</time>
      </trkpt>
      <trkpt lat="46.75939" lon="5.80053">
        <ele>523</ele>
        <time>2020-12-10T15:08:09Z</time>
      </trkpt>
      <trkpt lat="46.75944" lon="5.80054">
        <ele>522.6</ele>
        <time>2020-12-10T15:08:16Z</time>
      </trkpt>
      <trkpt lat="46.75951" lon="5.80061">
        <ele>523.2</ele>
        <time>2020-12-10T15:08:23Z</time>
      </trkpt>
      <trkpt lat="46.75956" lon="5.80071">
        <ele>524.7</ele>
        <time>2020-12-10T15:08:28Z</time>
      </trkpt>
      <trkpt lat="46.75961" lon="5.80078">
        <ele>525.7</ele>
        <time>2020-12-10T15:08:33Z</time>
      </trkpt>
      <trkpt lat="46.75965" lon="5.80081">
        <ele>526.3</ele>
        <time>2020-12-10T15:08:38Z</time>
      </trkpt>
      <trkpt lat="46.7597" lon="5.80083">
        <ele>526.5</ele>
        <time>2020-12-10T15:08:44Z</time>
      </trkpt>
      <trkpt lat="46.75975" lon="5.80086">
        <ele>526.4</ele>
        <time>2020-12-10T15:08:50Z</time>
      </trkpt>
      <trkpt lat="46.75979" lon="5.80093">
        <ele>526.8</ele>
        <time>2020-12-10T15:08:55Z</time>
      </trkpt>
      <trkpt lat="46.75984" lon="5.80095">
        <ele>527.1</ele>
        <time>2020-12-10T15:09:02Z</time>
      </trkpt>
      <trkpt lat="46.75989" lon="5.80097">
        <ele>527.1</ele>
        <time>2020-12-10T15:09:08Z</time>
      </trkpt>
      <trkpt lat="46.75993" lon="5.801">
        <ele>526.8</ele>
        <time>2020-12-10T15:09:14Z</time>
      </trkpt>
      <trkpt lat="46.75998" lon="5.80102">
        <ele>526.1</ele>
        <time>2020-12-10T15:09:20Z</time>
      </trkpt>
      <trkpt lat="46.76002" lon="5.80106">
        <ele>525.5</ele>
        <time>2020-12-10T15:09:25Z</time>
      </trkpt>
      <trkpt lat="46.76005" lon="5.8011">
        <ele>524.8</ele>
        <time>2020-12-10T15:09:30Z</time>
      </trkpt>
      <trkpt lat="46.7601" lon="5.80123">
        <ele>526</ele>
        <time>2020-12-10T15:09:35Z</time>
      </trkpt>
      <trkpt lat="46.76014" lon="5.8013">
        <ele>527.3</ele>
        <time>2020-12-10T15:09:40Z</time>
      </trkpt>
      <trkpt lat="46.76018" lon="5.80134">
        <ele>527.8</ele>
        <time>2020-12-10T15:09:47Z</time>
      </trkpt>
      <trkpt lat="46.76023" lon="5.80137">
        <ele>527.5</ele>
        <time>2020-12-10T15:09:54Z</time>
      </trkpt>
      <trkpt lat="46.76029" lon="5.80145">
        <ele>527.7</ele>
        <time>2020-12-10T15:10:00Z</time>
      </trkpt>
      <trkpt lat="46.76034" lon="5.8015">
        <ele>528.1</ele>
        <time>2020-12-10T15:10:05Z</time>
      </trkpt>
      <trkpt lat="46.76038" lon="5.80154">
        <ele>527.8</ele>
        <time>2020-12-10T15:10:11Z</time>
      </trkpt>
      <trkpt lat="46.76043" lon="5.80161">
        <ele>528.7</ele>
        <time>2020-12-10T15:10:16Z</time>
      </trkpt>
      <trkpt lat="46.76047" lon="5.80165">
        <ele>529.4</ele>
        <time>2020-12-10T15:10:23Z</time>
      </trkpt>
      <trkpt lat="46.76052" lon="5.8017">
        <ele>529.6</ele>
        <time>2020-12-10T15:10:28Z</time>
      </trkpt>
      <trkpt lat="46.76056" lon="5.80175">
        <ele>529.8</ele>
        <time>2020-12-10T15:10:33Z</time>
      </trkpt>
      <trkpt lat="46.76059" lon="5.80182">
        <ele>529.8</ele>
        <time>2020-12-10T15:10:40Z</time>
      </trkpt>
      <trkpt lat="46.76062" lon="5.80187">
        <ele>529.8</ele>
        <time>2020-12-10T15:10:47Z</time>
      </trkpt>
      <trkpt lat="46.76067" lon="5.80193">
        <ele>529.7</ele>
        <time>2020-12-10T15:10:53Z</time>
      </trkpt>
      <trkpt lat="46.76072" lon="5.80201">
        <ele>529.5</ele>
        <time>2020-12-10T15:10:58Z</time>
      </trkpt>
      <trkpt lat="46.76077" lon="5.80208">
        <ele>529.5</ele>
        <time>2020-12-10T15:11:03Z</time>
      </trkpt>
      <trkpt lat="46.76081" lon="5.8021">
        <ele>529.5</ele>
        <time>2020-12-10T15:11:10Z</time>
      </trkpt>
      <trkpt lat="46.76085" lon="5.80213">
        <ele>529.3</ele>
        <time>2020-12-10T15:11:18Z</time>
      </trkpt>
      <trkpt lat="46.76092" lon="5.80217">
        <ele>529.3</ele>
        <time>2020-12-10T15:11:23Z</time>
      </trkpt>
      <trkpt lat="46.76096" lon="5.8022">
        <ele>529.2</ele>
        <time>2020-12-10T15:11:28Z</time>
      </trkpt>
      <trkpt lat="46.761" lon="5.80224">
        <ele>529</ele>
        <time>2020-12-10T15:11:33Z</time>
      </trkpt>
      <trkpt lat="46.76104" lon="5.80228">
        <ele>528.8</ele>
        <time>2020-12-10T15:11:40Z</time>
      </trkpt>
      <trkpt lat="46.76108" lon="5.80231">
        <ele>528.7</ele>
        <time>2020-12-10T15:11:47Z</time>
      </trkpt>
      <trkpt lat="46.76118" lon="5.80234">
        <ele>528.7</ele>
        <time>2020-12-10T15:11:52Z</time>
      </trkpt>
      <trkpt lat="46.76122" lon="5.80238">
        <ele>528.4</ele>
        <time>2020-12-10T15:11:57Z</time>
      </trkpt>
      <trkpt lat="46.76125" lon="5.80243">
        <ele>527.8</ele>
        <time>2020-12-10T15:12:04Z</time>
      </trkpt>
      <trkpt lat="46.76129" lon="5.80252">
        <ele>528.1</ele>
        <time>2020-12-10T15:12:11Z</time>
      </trkpt>
      <trkpt lat="46.76132" lon="5.80259">
        <ele>528.7</ele>
        <time>2020-12-10T15:12:16Z</time>
      </trkpt>
      <trkpt lat="46.76131" lon="5.80266">
        <ele>529.5</ele>
        <time>2020-12-10T15:12:38Z</time>
      </trkpt>
      <trkpt lat="46.76127" lon="5.8027">
        <ele>530.3</ele>
        <time>2020-12-10T15:12:44Z</time>
      </trkpt>
      <trkpt lat="46.76122" lon="5.80273">
        <ele>530.9</ele>
        <time>2020-12-10T15:12:49Z</time>
      </trkpt>
      <trkpt lat="46.76118" lon="5.80277">
        <ele>531.5</ele>
        <time>2020-12-10T15:12:54Z</time>
      </trkpt>
      <trkpt lat="46.76113" lon="5.80281">
        <ele>531.1</ele>
        <time>2020-12-10T15:12:59Z</time>
      </trkpt>
      <trkpt lat="46.76108" lon="5.80281">
        <ele>530.6</ele>
        <time>2020-12-10T15:13:07Z</time>
      </trkpt>
      <trkpt lat="46.76104" lon="5.80285">
        <ele>530</ele>
        <time>2020-12-10T15:13:12Z</time>
      </trkpt>
      <trkpt lat="46.76101" lon="5.80291">
        <ele>529.2</ele>
        <time>2020-12-10T15:13:18Z</time>
      </trkpt>
      <trkpt lat="46.76102" lon="5.80297">
        <ele>527.5</ele>
        <time>2020-12-10T15:13:26Z</time>
      </trkpt>
      <trkpt lat="46.76107" lon="5.803">
        <ele>525.9</ele>
        <time>2020-12-10T15:13:35Z</time>
      </trkpt>
      <trkpt lat="46.76111" lon="5.80305">
        <ele>524.7</ele>
        <time>2020-12-10T15:13:41Z</time>
      </trkpt>
      <trkpt lat="46.76114" lon="5.80309">
        <ele>523.8</ele>
        <time>2020-12-10T15:13:46Z</time>
      </trkpt>
      <trkpt lat="46.76119" lon="5.80311">
        <ele>522.7</ele>
        <time>2020-12-10T15:13:52Z</time>
      </trkpt>
      <trkpt lat="46.76123" lon="5.80314">
        <ele>521.7</ele>
        <time>2020-12-10T15:13:57Z</time>
      </trkpt>
      <trkpt lat="46.76128" lon="5.80317">
        <ele>520.6</ele>
        <time>2020-12-10T15:14:03Z</time>
      </trkpt>
      <trkpt lat="46.76132" lon="5.80319">
        <ele>520.1</ele>
        <time>2020-12-10T15:14:10Z</time>
      </trkpt>
      <trkpt lat="46.76137" lon="5.80324">
        <ele>521.1</ele>
        <time>2020-12-10T15:14:17Z</time>
      </trkpt>
      <trkpt lat="46.76141" lon="5.80332">
        <ele>522.5</ele>
        <time>2020-12-10T15:14:22Z</time>
      </trkpt>
      <trkpt lat="46.76144" lon="5.80336">
        <ele>523.2</ele>
        <time>2020-12-10T15:14:27Z</time>
      </trkpt>
      <trkpt lat="46.76149" lon="5.80341">
        <ele>523.5</ele>
        <time>2020-12-10T15:14:32Z</time>
      </trkpt>
      <trkpt lat="46.76154" lon="5.80346">
        <ele>523.8</ele>
        <time>2020-12-10T15:14:37Z</time>
      </trkpt>
      <trkpt lat="46.76158" lon="5.80349">
        <ele>523.7</ele>
        <time>2020-12-10T15:14:43Z</time>
      </trkpt>
      <trkpt lat="46.76163" lon="5.80351">
        <ele>523.6</ele>
        <time>2020-12-10T15:14:48Z</time>
      </trkpt>
      <trkpt lat="46.76169" lon="5.80352">
        <ele>523.5</ele>
        <time>2020-12-10T15:14:53Z</time>
      </trkpt>
      <trkpt lat="46.76174" lon="5.80358">
        <ele>527.3</ele>
        <time>2020-12-10T15:15:03Z</time>
      </trkpt>
      <trkpt lat="46.76177" lon="5.80368">
        <ele>532.7</ele>
        <time>2020-12-10T15:15:08Z</time>
      </trkpt>
      <trkpt lat="46.76181" lon="5.80375">
        <ele>535</ele>
        <time>2020-12-10T15:15:13Z</time>
      </trkpt>
      <trkpt lat="46.76186" lon="5.80378">
        <ele>536.1</ele>
        <time>2020-12-10T15:15:22Z</time>
      </trkpt>
      <trkpt lat="46.7619" lon="5.80382">
        <ele>536.4</ele>
        <time>2020-12-10T15:15:28Z</time>
      </trkpt>
      <trkpt lat="46.76194" lon="5.80386">
        <ele>536.1</ele>
        <time>2020-12-10T15:15:35Z</time>
      </trkpt>
      <trkpt lat="46.76198" lon="5.80391">
        <ele>535</ele>
        <time>2020-12-10T15:15:41Z</time>
      </trkpt>
      <trkpt lat="46.76202" lon="5.80395">
        <ele>532.4</ele>
        <time>2020-12-10T15:15:49Z</time>
      </trkpt>
      <trkpt lat="46.76204" lon="5.80401">
        <ele>529.7</ele>
        <time>2020-12-10T15:15:57Z</time>
      </trkpt>
      <trkpt lat="46.76208" lon="5.80404">
        <ele>527.8</ele>
        <time>2020-12-10T15:16:06Z</time>
      </trkpt>
      <trkpt lat="46.76213" lon="5.80406">
        <ele>526.9</ele>
        <time>2020-12-10T15:16:12Z</time>
      </trkpt>
      <trkpt lat="46.76217" lon="5.80414">
        <ele>526.3</ele>
        <time>2020-12-10T15:16:17Z</time>
      </trkpt>
      <trkpt lat="46.76221" lon="5.80419">
        <ele>525.7</ele>
        <time>2020-12-10T15:16:22Z</time>
      </trkpt>
      <trkpt lat="46.76226" lon="5.80426">
        <ele>526.5</ele>
        <time>2020-12-10T15:16:27Z</time>
      </trkpt>
      <trkpt lat="46.7623" lon="5.8043">
        <ele>526.7</ele>
        <time>2020-12-10T15:16:32Z</time>
      </trkpt>
      <trkpt lat="46.76234" lon="5.80433">
        <ele>526.5</ele>
        <time>2020-12-10T15:16:37Z</time>
      </trkpt>
      <trkpt lat="46.76238" lon="5.80436">
        <ele>525.9</ele>
        <time>2020-12-10T15:16:42Z</time>
      </trkpt>
      <trkpt lat="46.76243" lon="5.80439">
        <ele>525.1</ele>
        <time>2020-12-10T15:16:47Z</time>
      </trkpt>
      <trkpt lat="46.76247" lon="5.80443">
        <ele>524</ele>
        <time>2020-12-10T15:16:52Z</time>
      </trkpt>
      <trkpt lat="46.76251" lon="5.80447">
        <ele>522.9</ele>
        <time>2020-12-10T15:16:57Z</time>
      </trkpt>
      <trkpt lat="46.76254" lon="5.80456">
        <ele>523.1</ele>
        <time>2020-12-10T15:17:02Z</time>
      </trkpt>
      <trkpt lat="46.76258" lon="5.80459">
        <ele>522.5</ele>
        <time>2020-12-10T15:17:08Z</time>
      </trkpt>
      <trkpt lat="46.76262" lon="5.80469">
        <ele>523.6</ele>
        <time>2020-12-10T15:17:13Z</time>
      </trkpt>
      <trkpt lat="46.76266" lon="5.80472">
        <ele>523.9</ele>
        <time>2020-12-10T15:17:18Z</time>
      </trkpt>
      <trkpt lat="46.76271" lon="5.80475">
        <ele>523.6</ele>
        <time>2020-12-10T15:17:24Z</time>
      </trkpt>
      <trkpt lat="46.76276" lon="5.80476">
        <ele>523.1</ele>
        <time>2020-12-10T15:17:29Z</time>
      </trkpt>
      <trkpt lat="46.76281" lon="5.80479">
        <ele>523.5</ele>
        <time>2020-12-10T15:17:34Z</time>
      </trkpt>
      <trkpt lat="46.76287" lon="5.80482">
        <ele>524.3</ele>
        <time>2020-12-10T15:17:39Z</time>
      </trkpt>
      <trkpt lat="46.76292" lon="5.80489">
        <ele>525.6</ele>
        <time>2020-12-10T15:17:44Z</time>
      </trkpt>
      <trkpt lat="46.76296" lon="5.80492">
        <ele>526.5</ele>
        <time>2020-12-10T15:17:49Z</time>
      </trkpt>
      <trkpt lat="46.76301" lon="5.80494">
        <ele>526.3</ele>
        <time>2020-12-10T15:17:55Z</time>
      </trkpt>
      <trkpt lat="46.76305" lon="5.80495">
        <ele>525.8</ele>
        <time>2020-12-10T15:18:00Z</time>
      </trkpt>
      <trkpt lat="46.7631" lon="5.80497">
        <ele>525.1</ele>
        <time>2020-12-10T15:18:06Z</time>
      </trkpt>
      <trkpt lat="46.76314" lon="5.80505">
        <ele>525.8</ele>
        <time>2020-12-10T15:18:11Z</time>
      </trkpt>
      <trkpt lat="46.76318" lon="5.80508">
        <ele>526.7</ele>
        <time>2020-12-10T15:18:16Z</time>
      </trkpt>
      <trkpt lat="46.76323" lon="5.80513">
        <ele>527.6</ele>
        <time>2020-12-10T15:18:21Z</time>
      </trkpt>
      <trkpt lat="46.76328" lon="5.80517">
        <ele>528.3</ele>
        <time>2020-12-10T15:18:26Z</time>
      </trkpt>
      <trkpt lat="46.76332" lon="5.8052">
        <ele>528.2</ele>
        <time>2020-12-10T15:18:31Z</time>
      </trkpt>
      <trkpt lat="46.76336" lon="5.80526">
        <ele>527.7</ele>
        <time>2020-12-10T15:18:37Z</time>
      </trkpt>
      <trkpt lat="46.76339" lon="5.80533">
        <ele>527.3</ele>
        <time>2020-12-10T15:18:42Z</time>
      </trkpt>
      <trkpt lat="46.76342" lon="5.80539">
        <ele>526.7</ele>
        <time>2020-12-10T15:18:48Z</time>
      </trkpt>
      <trkpt lat="46.76347" lon="5.80542">
        <ele>526</ele>
        <time>2020-12-10T15:18:55Z</time>
      </trkpt>
      <trkpt lat="46.76351" lon="5.80546">
        <ele>525.3</ele>
        <time>2020-12-10T15:19:01Z</time>
      </trkpt>
      <trkpt lat="46.76355" lon="5.8055">
        <ele>524.8</ele>
        <time>2020-12-10T15:19:06Z</time>
      </trkpt>
      <trkpt lat="46.76359" lon="5.80555">
        <ele>524.3</ele>
        <time>2020-12-10T15:19:12Z</time>
      </trkpt>
      <trkpt lat="46.7636" lon="5.80562">
        <ele>523.7</ele>
        <time>2020-12-10T15:19:19Z</time>
      </trkpt>
      <trkpt lat="46.7636" lon="5.80568">
        <ele>523.1</ele>
        <time>2020-12-10T15:19:24Z</time>
      </trkpt>
      <trkpt lat="46.76358" lon="5.80575">
        <ele>522.2</ele>
        <time>2020-12-10T15:19:30Z</time>
      </trkpt>
      <trkpt lat="46.76355" lon="5.80579">
        <ele>521.6</ele>
        <time>2020-12-10T15:19:35Z</time>
      </trkpt>
      <trkpt lat="46.7635" lon="5.80582">
        <ele>521</ele>
        <time>2020-12-10T15:19:40Z</time>
      </trkpt>
      <trkpt lat="46.76345" lon="5.80584">
        <ele>520.5</ele>
        <time>2020-12-10T15:19:45Z</time>
      </trkpt>
      <trkpt lat="46.76339" lon="5.80586">
        <ele>520.1</ele>
        <time>2020-12-10T15:19:50Z</time>
      </trkpt>
      <trkpt lat="46.76334" lon="5.80587">
        <ele>519.6</ele>
        <time>2020-12-10T15:19:55Z</time>
      </trkpt>
      <trkpt lat="46.7633" lon="5.80591">
        <ele>518.8</ele>
        <time>2020-12-10T15:20:00Z</time>
      </trkpt>
      <trkpt lat="46.76326" lon="5.80594">
        <ele>517.8</ele>
        <time>2020-12-10T15:20:16Z</time>
      </trkpt>
      <trkpt lat="46.76321" lon="5.80596">
        <ele>517.5</ele>
        <time>2020-12-10T15:20:21Z</time>
      </trkpt>
      <trkpt lat="46.76315" lon="5.80598">
        <ele>517.1</ele>
        <time>2020-12-10T15:20:26Z</time>
      </trkpt>
      <trkpt lat="46.7631" lon="5.806">
        <ele>517</ele>
        <time>2020-12-10T15:20:31Z</time>
      </trkpt>
      <trkpt lat="46.76305" lon="5.80602">
        <ele>516.9</ele>
        <time>2020-12-10T15:20:36Z</time>
      </trkpt>
      <trkpt lat="46.76301" lon="5.80605">
        <ele>516.6</ele>
        <time>2020-12-10T15:20:41Z</time>
      </trkpt>
      <trkpt lat="46.76296" lon="5.80609">
        <ele>516.3</ele>
        <time>2020-12-10T15:20:46Z</time>
      </trkpt>
      <trkpt lat="46.7629" lon="5.80613">
        <ele>516.2</ele>
        <time>2020-12-10T15:20:51Z</time>
      </trkpt>
      <trkpt lat="46.76286" lon="5.80616">
        <ele>516.2</ele>
        <time>2020-12-10T15:20:56Z</time>
      </trkpt>
      <trkpt lat="46.76281" lon="5.8062">
        <ele>516</ele>
        <time>2020-12-10T15:21:01Z</time>
      </trkpt>
      <trkpt lat="46.76276" lon="5.80624">
        <ele>515.8</ele>
        <time>2020-12-10T15:21:06Z</time>
      </trkpt>
      <trkpt lat="46.76272" lon="5.80628">
        <ele>515.6</ele>
        <time>2020-12-10T15:21:11Z</time>
      </trkpt>
      <trkpt lat="46.76267" lon="5.80633">
        <ele>515.3</ele>
        <time>2020-12-10T15:21:16Z</time>
      </trkpt>
      <trkpt lat="46.76264" lon="5.80638">
        <ele>514.9</ele>
        <time>2020-12-10T15:21:21Z</time>
      </trkpt>
      <trkpt lat="46.7626" lon="5.80642">
        <ele>514.8</ele>
        <time>2020-12-10T15:21:26Z</time>
      </trkpt>
      <trkpt lat="46.76255" lon="5.80646">
        <ele>514.9</ele>
        <time>2020-12-10T15:21:31Z</time>
      </trkpt>
      <trkpt lat="46.76251" lon="5.8065">
        <ele>514.9</ele>
        <time>2020-12-10T15:21:36Z</time>
      </trkpt>
      <trkpt lat="46.76246" lon="5.80653">
        <ele>514.3</ele>
        <time>2020-12-10T15:21:41Z</time>
      </trkpt>
      <trkpt lat="46.76242" lon="5.80654">
        <ele>513.7</ele>
        <time>2020-12-10T15:21:46Z</time>
      </trkpt>
      <trkpt lat="46.76236" lon="5.80653">
        <ele>512.6</ele>
        <time>2020-12-10T15:21:51Z</time>
      </trkpt>
      <trkpt lat="46.76231" lon="5.80653">
        <ele>511.7</ele>
        <time>2020-12-10T15:21:56Z</time>
      </trkpt>
      <trkpt lat="46.76226" lon="5.80655">
        <ele>510.5</ele>
        <time>2020-12-10T15:22:01Z</time>
      </trkpt>
      <trkpt lat="46.76221" lon="5.80656">
        <ele>509.2</ele>
        <time>2020-12-10T15:22:06Z</time>
      </trkpt>
      <trkpt lat="46.76216" lon="5.80656">
        <ele>508.3</ele>
        <time>2020-12-10T15:22:12Z</time>
      </trkpt>
      <trkpt lat="46.76211" lon="5.80657">
        <ele>507.9</ele>
        <time>2020-12-10T15:22:17Z</time>
      </trkpt>
      <trkpt lat="46.76205" lon="5.80658">
        <ele>507.4</ele>
        <time>2020-12-10T15:22:22Z</time>
      </trkpt>
      <trkpt lat="46.762" lon="5.80658">
        <ele>506.6</ele>
        <time>2020-12-10T15:22:27Z</time>
      </trkpt>
      <trkpt lat="46.76195" lon="5.80658">
        <ele>505.9</ele>
        <time>2020-12-10T15:22:32Z</time>
      </trkpt>
      <trkpt lat="46.7619" lon="5.80659">
        <ele>505.5</ele>
        <time>2020-12-10T15:22:37Z</time>
      </trkpt>
      <trkpt lat="46.76186" lon="5.80655">
        <ele>505.7</ele>
        <time>2020-12-10T15:22:43Z</time>
      </trkpt>
      <trkpt lat="46.7618" lon="5.80652">
        <ele>505.6</ele>
        <time>2020-12-10T15:22:48Z</time>
      </trkpt>
      <trkpt lat="46.76175" lon="5.80649">
        <ele>505.3</ele>
        <time>2020-12-10T15:22:53Z</time>
      </trkpt>
      <trkpt lat="46.76171" lon="5.80645">
        <ele>504.8</ele>
        <time>2020-12-10T15:22:58Z</time>
      </trkpt>
      <trkpt lat="46.76167" lon="5.80641">
        <ele>504.5</ele>
        <time>2020-12-10T15:23:04Z</time>
      </trkpt>
      <trkpt lat="46.76163" lon="5.80638">
        <ele>504.4</ele>
        <time>2020-12-10T15:23:09Z</time>
      </trkpt>
      <trkpt lat="46.76158" lon="5.80635">
        <ele>504.8</ele>
        <time>2020-12-10T15:23:14Z</time>
      </trkpt>
      <trkpt lat="46.76154" lon="5.80631">
        <ele>505.1</ele>
        <time>2020-12-10T15:23:19Z</time>
      </trkpt>
      <trkpt lat="46.7615" lon="5.80627">
        <ele>505.7</ele>
        <time>2020-12-10T15:23:25Z</time>
      </trkpt>
      <trkpt lat="46.76145" lon="5.80624">
        <ele>506.1</ele>
        <time>2020-12-10T15:23:31Z</time>
      </trkpt>
      <trkpt lat="46.7614" lon="5.80622">
        <ele>506.2</ele>
        <time>2020-12-10T15:23:37Z</time>
      </trkpt>
      <trkpt lat="46.76135" lon="5.80621">
        <ele>505.8</ele>
        <time>2020-12-10T15:23:42Z</time>
      </trkpt>
      <trkpt lat="46.7613" lon="5.80618">
        <ele>505.1</ele>
        <time>2020-12-10T15:23:48Z</time>
      </trkpt>
      <trkpt lat="46.76126" lon="5.80615">
        <ele>504.3</ele>
        <time>2020-12-10T15:23:53Z</time>
      </trkpt>
      <trkpt lat="46.76122" lon="5.80611">
        <ele>503.3</ele>
        <time>2020-12-10T15:23:58Z</time>
      </trkpt>
      <trkpt lat="46.76118" lon="5.80609">
        <ele>502.5</ele>
        <time>2020-12-10T15:24:03Z</time>
      </trkpt>
      <trkpt lat="46.76113" lon="5.80605">
        <ele>501.7</ele>
        <time>2020-12-10T15:24:08Z</time>
      </trkpt>
      <trkpt lat="46.76109" lon="5.80601">
        <ele>501</ele>
        <time>2020-12-10T15:24:13Z</time>
      </trkpt>
      <trkpt lat="46.76105" lon="5.80597">
        <ele>500.6</ele>
        <time>2020-12-10T15:24:18Z</time>
      </trkpt>
      <trkpt lat="46.761" lon="5.80593">
        <ele>500.8</ele>
        <time>2020-12-10T15:24:23Z</time>
      </trkpt>
      <trkpt lat="46.76095" lon="5.8059">
        <ele>501.4</ele>
        <time>2020-12-10T15:24:28Z</time>
      </trkpt>
      <trkpt lat="46.7609" lon="5.80586">
        <ele>502</ele>
        <time>2020-12-10T15:24:33Z</time>
      </trkpt>
      <trkpt lat="46.76087" lon="5.80582">
        <ele>502.2</ele>
        <time>2020-12-10T15:24:41Z</time>
      </trkpt>
      <trkpt lat="46.76082" lon="5.80581">
        <ele>502.2</ele>
        <time>2020-12-10T15:24:51Z</time>
      </trkpt>
      <trkpt lat="46.76078" lon="5.80578">
        <ele>501.9</ele>
        <time>2020-12-10T15:25:02Z</time>
      </trkpt>
      <trkpt lat="46.76073" lon="5.80575">
        <ele>501.8</ele>
        <time>2020-12-10T15:25:08Z</time>
      </trkpt>
      <trkpt lat="46.76068" lon="5.80572">
        <ele>500.3</ele>
        <time>2020-12-10T15:25:17Z</time>
      </trkpt>
      <trkpt lat="46.76064" lon="5.80569">
        <ele>499.5</ele>
        <time>2020-12-10T15:25:23Z</time>
      </trkpt>
      <trkpt lat="46.7606" lon="5.80565">
        <ele>499.3</ele>
        <time>2020-12-10T15:25:37Z</time>
      </trkpt>
      <trkpt lat="46.76056" lon="5.80561">
        <ele>499.7</ele>
        <time>2020-12-10T15:25:43Z</time>
      </trkpt>
      <trkpt lat="46.76052" lon="5.80556">
        <ele>500.1</ele>
        <time>2020-12-10T15:25:48Z</time>
      </trkpt>
      <trkpt lat="46.76047" lon="5.80555">
        <ele>501</ele>
        <time>2020-12-10T15:26:11Z</time>
      </trkpt>
      <trkpt lat="46.76042" lon="5.80551">
        <ele>502.1</ele>
        <time>2020-12-10T15:26:18Z</time>
      </trkpt>
      <trkpt lat="46.76039" lon="5.80545">
        <ele>503.1</ele>
        <time>2020-12-10T15:26:23Z</time>
      </trkpt>
      <trkpt lat="46.76036" lon="5.8054">
        <ele>504.2</ele>
        <time>2020-12-10T15:26:28Z</time>
      </trkpt>
      <trkpt lat="46.76032" lon="5.80536">
        <ele>505</ele>
        <time>2020-12-10T15:26:33Z</time>
      </trkpt>
      <trkpt lat="46.76028" lon="5.80531">
        <ele>505.9</ele>
        <time>2020-12-10T15:26:38Z</time>
      </trkpt>
      <trkpt lat="46.76024" lon="5.80526">
        <ele>506.4</ele>
        <time>2020-12-10T15:26:44Z</time>
      </trkpt>
      <trkpt lat="46.7602" lon="5.8052">
        <ele>506.5</ele>
        <time>2020-12-10T15:26:50Z</time>
      </trkpt>
      <trkpt lat="46.76017" lon="5.80515">
        <ele>506.5</ele>
        <time>2020-12-10T15:26:56Z</time>
      </trkpt>
      <trkpt lat="46.76014" lon="5.8051">
        <ele>509.8</ele>
        <time>2020-12-10T15:27:53Z</time>
      </trkpt>
      <trkpt lat="46.76009" lon="5.80504">
        <ele>510.2</ele>
        <time>2020-12-10T15:27:58Z</time>
      </trkpt>
      <trkpt lat="46.76004" lon="5.805">
        <ele>510.8</ele>
        <time>2020-12-10T15:28:03Z</time>
      </trkpt>
      <trkpt lat="46.76" lon="5.80495">
        <ele>510.1</ele>
        <time>2020-12-10T15:28:08Z</time>
      </trkpt>
      <trkpt lat="46.75996" lon="5.8049">
        <ele>508.9</ele>
        <time>2020-12-10T15:28:13Z</time>
      </trkpt>
      <trkpt lat="46.75989" lon="5.80484">
        <ele>508.8</ele>
        <time>2020-12-10T15:28:18Z</time>
      </trkpt>
      <trkpt lat="46.75983" lon="5.80478">
        <ele>509.4</ele>
        <time>2020-12-10T15:28:23Z</time>
      </trkpt>
      <trkpt lat="46.75979" lon="5.80472">
        <ele>510.2</ele>
        <time>2020-12-10T15:28:28Z</time>
      </trkpt>
      <trkpt lat="46.75974" lon="5.80467">
        <ele>511.1</ele>
        <time>2020-12-10T15:28:33Z</time>
      </trkpt>
      <trkpt lat="46.7597" lon="5.80462">
        <ele>512</ele>
        <time>2020-12-10T15:28:39Z</time>
      </trkpt>
      <trkpt lat="46.75965" lon="5.80459">
        <ele>513</ele>
        <time>2020-12-10T15:28:44Z</time>
      </trkpt>
      <trkpt lat="46.75959" lon="5.80455">
        <ele>514</ele>
        <time>2020-12-10T15:28:49Z</time>
      </trkpt>
      <trkpt lat="46.75954" lon="5.80451">
        <ele>514.7</ele>
        <time>2020-12-10T15:28:54Z</time>
      </trkpt>
      <trkpt lat="46.7595" lon="5.80446">
        <ele>514.8</ele>
        <time>2020-12-10T15:28:59Z</time>
      </trkpt>
      <trkpt lat="46.75946" lon="5.80442">
        <ele>514.5</ele>
        <time>2020-12-10T15:29:04Z</time>
      </trkpt>
      <trkpt lat="46.75941" lon="5.80437">
        <ele>514.1</ele>
        <time>2020-12-10T15:29:09Z</time>
      </trkpt>
      <trkpt lat="46.75937" lon="5.80434">
        <ele>513.9</ele>
        <time>2020-12-10T15:29:14Z</time>
      </trkpt>
      <trkpt lat="46.75933" lon="5.8043">
        <ele>513.4</ele>
        <time>2020-12-10T15:29:19Z</time>
      </trkpt>
      <trkpt lat="46.75927" lon="5.80426">
        <ele>512.6</ele>
        <time>2020-12-10T15:29:24Z</time>
      </trkpt>
      <trkpt lat="46.75923" lon="5.80422">
        <ele>511.9</ele>
        <time>2020-12-10T15:29:29Z</time>
      </trkpt>
      <trkpt lat="46.75918" lon="5.80417">
        <ele>511.1</ele>
        <time>2020-12-10T15:29:34Z</time>
      </trkpt>
      <trkpt lat="46.75914" lon="5.80413">
        <ele>510</ele>
        <time>2020-12-10T15:29:39Z</time>
      </trkpt>
      <trkpt lat="46.75908" lon="5.8041">
        <ele>509.4</ele>
        <time>2020-12-10T15:29:44Z</time>
      </trkpt>
      <trkpt lat="46.75903" lon="5.80407">
        <ele>509</ele>
        <time>2020-12-10T15:29:49Z</time>
      </trkpt>
      <trkpt lat="46.75898" lon="5.80405">
        <ele>508.6</ele>
        <time>2020-12-10T15:29:54Z</time>
      </trkpt>
      <trkpt lat="46.75892" lon="5.80402">
        <ele>508.5</ele>
        <time>2020-12-10T15:29:59Z</time>
      </trkpt>
      <trkpt lat="46.75887" lon="5.80401">
        <ele>508.5</ele>
        <time>2020-12-10T15:30:04Z</time>
      </trkpt>
      <trkpt lat="46.75882" lon="5.804">
        <ele>508.5</ele>
        <time>2020-12-10T15:30:09Z</time>
      </trkpt>
      <trkpt lat="46.75876" lon="5.80399">
        <ele>508.3</ele>
        <time>2020-12-10T15:30:14Z</time>
      </trkpt>
      <trkpt lat="46.75872" lon="5.80398">
        <ele>508.2</ele>
        <time>2020-12-10T15:30:19Z</time>
      </trkpt>
      <trkpt lat="46.75867" lon="5.80394">
        <ele>508.6</ele>
        <time>2020-12-10T15:30:35Z</time>
      </trkpt>
      <trkpt lat="46.75864" lon="5.80388">
        <ele>509.1</ele>
        <time>2020-12-10T15:30:40Z</time>
      </trkpt>
      <trkpt lat="46.7586" lon="5.80384">
        <ele>509.6</ele>
        <time>2020-12-10T15:30:45Z</time>
      </trkpt>
      <trkpt lat="46.75855" lon="5.8038">
        <ele>510</ele>
        <time>2020-12-10T15:30:50Z</time>
      </trkpt>
      <trkpt lat="46.7585" lon="5.80377">
        <ele>510.5</ele>
        <time>2020-12-10T15:30:55Z</time>
      </trkpt>
      <trkpt lat="46.75845" lon="5.80375">
        <ele>511</ele>
        <time>2020-12-10T15:31:00Z</time>
      </trkpt>
      <trkpt lat="46.7584" lon="5.80371">
        <ele>511.1</ele>
        <time>2020-12-10T15:31:05Z</time>
      </trkpt>
      <trkpt lat="46.75834" lon="5.80368">
        <ele>511.2</ele>
        <time>2020-12-10T15:31:10Z</time>
      </trkpt>
      <trkpt lat="46.75829" lon="5.80365">
        <ele>511.1</ele>
        <time>2020-12-10T15:31:15Z</time>
      </trkpt>
      <trkpt lat="46.75824" lon="5.80362">
        <ele>510.8</ele>
        <time>2020-12-10T15:31:20Z</time>
      </trkpt>
      <trkpt lat="46.75819" lon="5.80361">
        <ele>510.6</ele>
        <time>2020-12-10T15:31:25Z</time>
      </trkpt>
      <trkpt lat="46.75814" lon="5.80359">
        <ele>510.1</ele>
        <time>2020-12-10T15:31:30Z</time>
      </trkpt>
      <trkpt lat="46.75808" lon="5.80355">
        <ele>509.9</ele>
        <time>2020-12-10T15:31:35Z</time>
      </trkpt>
      <trkpt lat="46.75803" lon="5.80353">
        <ele>510.4</ele>
        <time>2020-12-10T15:31:40Z</time>
      </trkpt>
      <trkpt lat="46.75798" lon="5.80354">
        <ele>511.6</ele>
        <time>2020-12-10T15:31:47Z</time>
      </trkpt>
      <trkpt lat="46.75793" lon="5.80355">
        <ele>512.2</ele>
        <time>2020-12-10T15:31:52Z</time>
      </trkpt>
      <trkpt lat="46.75789" lon="5.8036">
        <ele>512.9</ele>
        <time>2020-12-10T15:31:58Z</time>
      </trkpt>
      <trkpt lat="46.75786" lon="5.80365">
        <ele>513.3</ele>
        <time>2020-12-10T15:32:07Z</time>
      </trkpt>
      <trkpt lat="46.75791" lon="5.80364">
        <ele>513.7</ele>
        <time>2020-12-10T15:33:03Z</time>
      </trkpt>
      <trkpt lat="46.75786" lon="5.80363">
        <ele>512.8</ele>
        <time>2020-12-10T15:33:54Z</time>
      </trkpt>
      <trkpt lat="46.75781" lon="5.80361">
        <ele>514</ele>
        <time>2020-12-10T15:34:58Z</time>
      </trkpt>
      <trkpt lat="46.75777" lon="5.80358">
        <ele>513.3</ele>
        <time>2020-12-10T15:35:05Z</time>
      </trkpt>
      <trkpt lat="46.75772" lon="5.80358">
        <ele>511.7</ele>
        <time>2020-12-10T15:35:31Z</time>
      </trkpt>
    </trkseg>
  </trk>
</gpx>